<?xml version="1.0" encoding="UTF-8" standalone="no" ?>
<gpx xmlns="http://www.topografix.com/GPX/1/1" xmlns:xsi="http://www.w3.org/2001/XMLSchema-instance" xsi:schemaLocation="http://www.topografix.com/GPX/1/1 http://www.topografix.com/GPX/1/1/gpx.xsd" version="1.1" creator="VisuGPX - https://www.visugpx.com">
  <metadata>
    <name>Grand Som depuis la Ruchere</name>
    <desc><![CDATA[Grand Som depuis la Ruchere en passant le col de Lechaud , col de Bovinant.
Au retour, petit crochet par le petit SOM]]></desc>
  </metadata>
  <trk>
    <name><![CDATA[grand_som]]></name>
    <trkseg>
      <trkpt lat="45.40001" lon="5.79925">
        <ele>1143.8</ele>
        <time>2013-03-03T07:48:43Z</time>
      </trkpt>
      <trkpt lat="45.40009" lon="5.79923">
        <ele>1143</ele>
        <time>2013-03-03T07:50:56Z</time>
      </trkpt>
      <trkpt lat="45.4001" lon="5.79922">
        <ele>1143</ele>
        <time>2013-03-03T07:50:57Z</time>
      </trkpt>
      <trkpt lat="45.40005" lon="5.79923">
        <ele>1142.3</ele>
        <time>2013-03-03T07:52:13Z</time>
      </trkpt>
      <trkpt lat="45.40005" lon="5.79923">
        <ele>1142.3</ele>
        <time>2013-03-03T07:52:14Z</time>
      </trkpt>
      <trkpt lat="45.40017" lon="5.79876">
        <ele>1146.9</ele>
        <time>2013-03-03T07:53:59Z</time>
      </trkpt>
      <trkpt lat="45.40049" lon="5.79946">
        <ele>1142.3</ele>
        <time>2013-03-03T07:54:07Z</time>
      </trkpt>
      <trkpt lat="45.40041" lon="5.79942">
        <ele>1143.6</ele>
        <time>2013-03-03T07:54:13Z</time>
      </trkpt>
      <trkpt lat="45.40033" lon="5.7994">
        <ele>1143.3</ele>
        <time>2013-03-03T07:54:19Z</time>
      </trkpt>
      <trkpt lat="45.40025" lon="5.79941">
        <ele>1143.8</ele>
        <time>2013-03-03T07:54:25Z</time>
      </trkpt>
      <trkpt lat="45.40017" lon="5.79944">
        <ele>1142.4</ele>
        <time>2013-03-03T07:54:36Z</time>
      </trkpt>
      <trkpt lat="45.40009" lon="5.7995">
        <ele>1143.3</ele>
        <time>2013-03-03T07:54:46Z</time>
      </trkpt>
      <trkpt lat="45.40004" lon="5.79959">
        <ele>1144.6</ele>
        <time>2013-03-03T07:55:03Z</time>
      </trkpt>
      <trkpt lat="45.40003" lon="5.7996">
        <ele>1144.5</ele>
        <time>2013-03-03T07:55:04Z</time>
      </trkpt>
      <trkpt lat="45.40002" lon="5.79972">
        <ele>1145</ele>
        <time>2013-03-03T07:56:06Z</time>
      </trkpt>
      <trkpt lat="45.40002" lon="5.79972">
        <ele>1144.4</ele>
        <time>2013-03-03T07:57:40Z</time>
      </trkpt>
      <trkpt lat="45.40002" lon="5.79972">
        <ele>1144.2</ele>
        <time>2013-03-03T07:57:41Z</time>
      </trkpt>
      <trkpt lat="45.40003" lon="5.79995">
        <ele>1146.1</ele>
        <time>2013-03-03T07:58:25Z</time>
      </trkpt>
      <trkpt lat="45.40006" lon="5.80006">
        <ele>1146.8</ele>
        <time>2013-03-03T07:58:33Z</time>
      </trkpt>
      <trkpt lat="45.40009" lon="5.80017">
        <ele>1146.9</ele>
        <time>2013-03-03T07:58:42Z</time>
      </trkpt>
      <trkpt lat="45.40009" lon="5.80019">
        <ele>1146.9</ele>
        <time>2013-03-03T07:58:43Z</time>
      </trkpt>
      <trkpt lat="45.40014" lon="5.80041">
        <ele>1152.7</ele>
        <time>2013-03-03T07:59:05Z</time>
      </trkpt>
      <trkpt lat="45.40017" lon="5.80052">
        <ele>1155.2</ele>
        <time>2013-03-03T07:59:16Z</time>
      </trkpt>
      <trkpt lat="45.40021" lon="5.80063">
        <ele>1156.7</ele>
        <time>2013-03-03T07:59:25Z</time>
      </trkpt>
      <trkpt lat="45.40026" lon="5.80072">
        <ele>1158.3</ele>
        <time>2013-03-03T07:59:32Z</time>
      </trkpt>
      <trkpt lat="45.40031" lon="5.80081">
        <ele>1161.2</ele>
        <time>2013-03-03T07:59:42Z</time>
      </trkpt>
      <trkpt lat="45.40036" lon="5.80091">
        <ele>1161.8</ele>
        <time>2013-03-03T07:59:51Z</time>
      </trkpt>
      <trkpt lat="45.40037" lon="5.80092">
        <ele>1161.8</ele>
        <time>2013-03-03T07:59:52Z</time>
      </trkpt>
      <trkpt lat="45.40034" lon="5.80112">
        <ele>1163.3</ele>
        <time>2013-03-03T08:00:13Z</time>
      </trkpt>
      <trkpt lat="45.4003" lon="5.80122">
        <ele>1164.8</ele>
        <time>2013-03-03T08:00:25Z</time>
      </trkpt>
      <trkpt lat="45.40027" lon="5.80134">
        <ele>1166.6</ele>
        <time>2013-03-03T08:00:36Z</time>
      </trkpt>
      <trkpt lat="45.40022" lon="5.80144">
        <ele>1168.9</ele>
        <time>2013-03-03T08:00:52Z</time>
      </trkpt>
      <trkpt lat="45.40021" lon="5.80145">
        <ele>1169</ele>
        <time>2013-03-03T08:00:53Z</time>
      </trkpt>
      <trkpt lat="45.40011" lon="5.80162">
        <ele>1176.1</ele>
        <time>2013-03-03T08:01:20Z</time>
      </trkpt>
      <trkpt lat="45.40007" lon="5.80172">
        <ele>1178</ele>
        <time>2013-03-03T08:01:32Z</time>
      </trkpt>
      <trkpt lat="45.40001" lon="5.80182">
        <ele>1181.6</ele>
        <time>2013-03-03T08:01:44Z</time>
      </trkpt>
      <trkpt lat="45.39997" lon="5.80192">
        <ele>1184.4</ele>
        <time>2013-03-03T08:01:57Z</time>
      </trkpt>
      <trkpt lat="45.39996" lon="5.80193">
        <ele>1184.5</ele>
        <time>2013-03-03T08:01:58Z</time>
      </trkpt>
      <trkpt lat="45.39979" lon="5.80195">
        <ele>1189.9</ele>
        <time>2013-03-03T08:02:23Z</time>
      </trkpt>
      <trkpt lat="45.39972" lon="5.80201">
        <ele>1190.3</ele>
        <time>2013-03-03T08:02:37Z</time>
      </trkpt>
      <trkpt lat="45.39963" lon="5.80201">
        <ele>1192.4</ele>
        <time>2013-03-03T08:02:52Z</time>
      </trkpt>
      <trkpt lat="45.39955" lon="5.80199">
        <ele>1192.9</ele>
        <time>2013-03-03T08:03:08Z</time>
      </trkpt>
      <trkpt lat="45.39954" lon="5.80199">
        <ele>1192.9</ele>
        <time>2013-03-03T08:03:09Z</time>
      </trkpt>
      <trkpt lat="45.39939" lon="5.80209">
        <ele>1198.8</ele>
        <time>2013-03-03T08:03:35Z</time>
      </trkpt>
      <trkpt lat="45.39931" lon="5.80206">
        <ele>1202</ele>
        <time>2013-03-03T08:03:50Z</time>
      </trkpt>
      <trkpt lat="45.39923" lon="5.80211">
        <ele>1204.4</ele>
        <time>2013-03-03T08:04:01Z</time>
      </trkpt>
      <trkpt lat="45.39915" lon="5.80213">
        <ele>1206.3</ele>
        <time>2013-03-03T08:04:11Z</time>
      </trkpt>
      <trkpt lat="45.39914" lon="5.80213">
        <ele>1206.6</ele>
        <time>2013-03-03T08:04:12Z</time>
      </trkpt>
      <trkpt lat="45.39899" lon="5.80222">
        <ele>1210.5</ele>
        <time>2013-03-03T08:04:37Z</time>
      </trkpt>
      <trkpt lat="45.39891" lon="5.80226">
        <ele>1213.2</ele>
        <time>2013-03-03T08:04:49Z</time>
      </trkpt>
      <trkpt lat="45.39883" lon="5.80232">
        <ele>1213</ele>
        <time>2013-03-03T08:04:58Z</time>
      </trkpt>
      <trkpt lat="45.39875" lon="5.80232">
        <ele>1214.9</ele>
        <time>2013-03-03T08:05:09Z</time>
      </trkpt>
      <trkpt lat="45.39867" lon="5.80236">
        <ele>1218.1</ele>
        <time>2013-03-03T08:05:22Z</time>
      </trkpt>
      <trkpt lat="45.39866" lon="5.80236">
        <ele>1218.3</ele>
        <time>2013-03-03T08:05:23Z</time>
      </trkpt>
      <trkpt lat="45.39857" lon="5.80254">
        <ele>1222.2</ele>
        <time>2013-03-03T08:05:46Z</time>
      </trkpt>
      <trkpt lat="45.3985" lon="5.80261">
        <ele>1223.9</ele>
        <time>2013-03-03T08:06:00Z</time>
      </trkpt>
      <trkpt lat="45.39841" lon="5.80259">
        <ele>1226.3</ele>
        <time>2013-03-03T08:06:11Z</time>
      </trkpt>
      <trkpt lat="45.39834" lon="5.80254">
        <ele>1228.2</ele>
        <time>2013-03-03T08:06:23Z</time>
      </trkpt>
      <trkpt lat="45.39833" lon="5.80253">
        <ele>1228.7</ele>
        <time>2013-03-03T08:06:24Z</time>
      </trkpt>
      <trkpt lat="45.39817" lon="5.80253">
        <ele>1234.1</ele>
        <time>2013-03-03T08:06:45Z</time>
      </trkpt>
      <trkpt lat="45.39809" lon="5.8025">
        <ele>1238</ele>
        <time>2013-03-03T08:07:10Z</time>
      </trkpt>
      <trkpt lat="45.398" lon="5.80253">
        <ele>1240.2</ele>
        <time>2013-03-03T08:07:27Z</time>
      </trkpt>
      <trkpt lat="45.398" lon="5.80253">
        <ele>1240.3</ele>
        <time>2013-03-03T08:07:28Z</time>
      </trkpt>
      <trkpt lat="45.39784" lon="5.8026">
        <ele>1245</ele>
        <time>2013-03-03T08:07:55Z</time>
      </trkpt>
      <trkpt lat="45.39777" lon="5.80266">
        <ele>1246.8</ele>
        <time>2013-03-03T08:08:07Z</time>
      </trkpt>
      <trkpt lat="45.39769" lon="5.80271">
        <ele>1247.8</ele>
        <time>2013-03-03T08:08:18Z</time>
      </trkpt>
      <trkpt lat="45.3976" lon="5.80273">
        <ele>1248.9</ele>
        <time>2013-03-03T08:08:28Z</time>
      </trkpt>
      <trkpt lat="45.3976" lon="5.80273">
        <ele>1248.8</ele>
        <time>2013-03-03T08:08:29Z</time>
      </trkpt>
      <trkpt lat="45.39744" lon="5.80267">
        <ele>1249.1</ele>
        <time>2013-03-03T08:08:46Z</time>
      </trkpt>
      <trkpt lat="45.39735" lon="5.80268">
        <ele>1250</ele>
        <time>2013-03-03T08:08:56Z</time>
      </trkpt>
      <trkpt lat="45.39728" lon="5.80272">
        <ele>1250.4</ele>
        <time>2013-03-03T08:09:07Z</time>
      </trkpt>
      <trkpt lat="45.39719" lon="5.80275">
        <ele>1251</ele>
        <time>2013-03-03T08:09:15Z</time>
      </trkpt>
      <trkpt lat="45.39711" lon="5.80278">
        <ele>1251.4</ele>
        <time>2013-03-03T08:09:24Z</time>
      </trkpt>
      <trkpt lat="45.39703" lon="5.80282">
        <ele>1252.2</ele>
        <time>2013-03-03T08:09:35Z</time>
      </trkpt>
      <trkpt lat="45.39702" lon="5.80282">
        <ele>1252.3</ele>
        <time>2013-03-03T08:09:36Z</time>
      </trkpt>
      <trkpt lat="45.39686" lon="5.80286">
        <ele>1254</ele>
        <time>2013-03-03T08:09:57Z</time>
      </trkpt>
      <trkpt lat="45.39678" lon="5.80284">
        <ele>1254.9</ele>
        <time>2013-03-03T08:10:05Z</time>
      </trkpt>
      <trkpt lat="45.39669" lon="5.80286">
        <ele>1256.2</ele>
        <time>2013-03-03T08:10:15Z</time>
      </trkpt>
      <trkpt lat="45.39661" lon="5.80287">
        <ele>1255.8</ele>
        <time>2013-03-03T08:10:25Z</time>
      </trkpt>
      <trkpt lat="45.39652" lon="5.80289">
        <ele>1258.1</ele>
        <time>2013-03-03T08:10:35Z</time>
      </trkpt>
      <trkpt lat="45.39644" lon="5.80293">
        <ele>1259</ele>
        <time>2013-03-03T08:10:46Z</time>
      </trkpt>
      <trkpt lat="45.39644" lon="5.80293">
        <ele>1259.2</ele>
        <time>2013-03-03T08:10:47Z</time>
      </trkpt>
      <trkpt lat="45.39638" lon="5.80315">
        <ele>1263.3</ele>
        <time>2013-03-03T08:11:11Z</time>
      </trkpt>
      <trkpt lat="45.39629" lon="5.8031">
        <ele>1263.6</ele>
        <time>2013-03-03T08:11:24Z</time>
      </trkpt>
      <trkpt lat="45.39622" lon="5.80305">
        <ele>1265.2</ele>
        <time>2013-03-03T08:11:34Z</time>
      </trkpt>
      <trkpt lat="45.39614" lon="5.80302">
        <ele>1266.6</ele>
        <time>2013-03-03T08:11:45Z</time>
      </trkpt>
      <trkpt lat="45.39605" lon="5.80306">
        <ele>1268.2</ele>
        <time>2013-03-03T08:11:59Z</time>
      </trkpt>
      <trkpt lat="45.39605" lon="5.80307">
        <ele>1268.5</ele>
        <time>2013-03-03T08:12:00Z</time>
      </trkpt>
      <trkpt lat="45.39588" lon="5.8031">
        <ele>1273.7</ele>
        <time>2013-03-03T08:12:26Z</time>
      </trkpt>
      <trkpt lat="45.3958" lon="5.80311">
        <ele>1276.3</ele>
        <time>2013-03-03T08:12:40Z</time>
      </trkpt>
      <trkpt lat="45.39576" lon="5.80322">
        <ele>1279.1</ele>
        <time>2013-03-03T08:12:55Z</time>
      </trkpt>
      <trkpt lat="45.39573" lon="5.80333">
        <ele>1279.7</ele>
        <time>2013-03-03T08:13:06Z</time>
      </trkpt>
      <trkpt lat="45.39572" lon="5.80335">
        <ele>1279.7</ele>
        <time>2013-03-03T08:13:07Z</time>
      </trkpt>
      <trkpt lat="45.3956" lon="5.80343">
        <ele>1285.1</ele>
        <time>2013-03-03T08:13:31Z</time>
      </trkpt>
      <trkpt lat="45.39551" lon="5.80344">
        <ele>1287.4</ele>
        <time>2013-03-03T08:13:48Z</time>
      </trkpt>
      <trkpt lat="45.39542" lon="5.80345">
        <ele>1290.4</ele>
        <time>2013-03-03T08:14:05Z</time>
      </trkpt>
      <trkpt lat="45.39537" lon="5.80355">
        <ele>1292.8</ele>
        <time>2013-03-03T08:14:17Z</time>
      </trkpt>
      <trkpt lat="45.39536" lon="5.80356">
        <ele>1292.9</ele>
        <time>2013-03-03T08:14:18Z</time>
      </trkpt>
      <trkpt lat="45.39522" lon="5.80361">
        <ele>1297.2</ele>
        <time>2013-03-03T08:14:43Z</time>
      </trkpt>
      <trkpt lat="45.39515" lon="5.80356">
        <ele>1298.9</ele>
        <time>2013-03-03T08:14:56Z</time>
      </trkpt>
      <trkpt lat="45.39509" lon="5.80346">
        <ele>1300.5</ele>
        <time>2013-03-03T08:15:06Z</time>
      </trkpt>
      <trkpt lat="45.39501" lon="5.80341">
        <ele>1303.4</ele>
        <time>2013-03-03T08:15:21Z</time>
      </trkpt>
      <trkpt lat="45.395" lon="5.80342">
        <ele>1303.9</ele>
        <time>2013-03-03T08:15:22Z</time>
      </trkpt>
      <trkpt lat="45.39487" lon="5.80355">
        <ele>1307.4</ele>
        <time>2013-03-03T08:15:43Z</time>
      </trkpt>
      <trkpt lat="45.39479" lon="5.80349">
        <ele>1311.5</ele>
        <time>2013-03-03T08:16:05Z</time>
      </trkpt>
      <trkpt lat="45.3947" lon="5.80346">
        <ele>1314.9</ele>
        <time>2013-03-03T08:16:23Z</time>
      </trkpt>
      <trkpt lat="45.3947" lon="5.80347">
        <ele>1315</ele>
        <time>2013-03-03T08:16:24Z</time>
      </trkpt>
      <trkpt lat="45.39455" lon="5.80355">
        <ele>1320.8</ele>
        <time>2013-03-03T08:16:55Z</time>
      </trkpt>
      <trkpt lat="45.39446" lon="5.80352">
        <ele>1323.8</ele>
        <time>2013-03-03T08:17:08Z</time>
      </trkpt>
      <trkpt lat="45.39437" lon="5.80353">
        <ele>1326.5</ele>
        <time>2013-03-03T08:17:25Z</time>
      </trkpt>
      <trkpt lat="45.39437" lon="5.80353">
        <ele>1327.2</ele>
        <time>2013-03-03T08:17:26Z</time>
      </trkpt>
      <trkpt lat="45.3942" lon="5.8035">
        <ele>1331</ele>
        <time>2013-03-03T08:17:49Z</time>
      </trkpt>
      <trkpt lat="45.39412" lon="5.80345">
        <ele>1333.2</ele>
        <time>2013-03-03T08:18:01Z</time>
      </trkpt>
      <trkpt lat="45.39404" lon="5.80341">
        <ele>1336.2</ele>
        <time>2013-03-03T08:18:13Z</time>
      </trkpt>
      <trkpt lat="45.39396" lon="5.80338">
        <ele>1339.4</ele>
        <time>2013-03-03T08:18:26Z</time>
      </trkpt>
      <trkpt lat="45.39395" lon="5.80338">
        <ele>1339.7</ele>
        <time>2013-03-03T08:18:27Z</time>
      </trkpt>
      <trkpt lat="45.39382" lon="5.80342">
        <ele>1339.3</ele>
        <time>2013-03-03T08:18:58Z</time>
      </trkpt>
      <trkpt lat="45.39384" lon="5.80354">
        <ele>1338.8</ele>
        <time>2013-03-03T08:19:08Z</time>
      </trkpt>
      <trkpt lat="45.3939" lon="5.80364">
        <ele>1340.2</ele>
        <time>2013-03-03T08:19:22Z</time>
      </trkpt>
      <trkpt lat="45.39382" lon="5.8036">
        <ele>1340.1</ele>
        <time>2013-03-03T08:20:21Z</time>
      </trkpt>
      <trkpt lat="45.39381" lon="5.8036">
        <ele>1339.9</ele>
        <time>2013-03-03T08:20:22Z</time>
      </trkpt>
      <trkpt lat="45.39378" lon="5.80346">
        <ele>1341.3</ele>
        <time>2013-03-03T08:21:05Z</time>
      </trkpt>
      <trkpt lat="45.39378" lon="5.80333">
        <ele>1343.4</ele>
        <time>2013-03-03T08:21:16Z</time>
      </trkpt>
      <trkpt lat="45.3937" lon="5.8034">
        <ele>1349.8</ele>
        <time>2013-03-03T08:22:08Z</time>
      </trkpt>
      <trkpt lat="45.3937" lon="5.8034">
        <ele>1350.1</ele>
        <time>2013-03-03T08:22:09Z</time>
      </trkpt>
      <trkpt lat="45.39359" lon="5.80358">
        <ele>1356.1</ele>
        <time>2013-03-03T08:22:44Z</time>
      </trkpt>
      <trkpt lat="45.39364" lon="5.80369">
        <ele>1358.9</ele>
        <time>2013-03-03T08:22:56Z</time>
      </trkpt>
      <trkpt lat="45.39366" lon="5.80381">
        <ele>1362.1</ele>
        <time>2013-03-03T08:23:08Z</time>
      </trkpt>
      <trkpt lat="45.39367" lon="5.80393">
        <ele>1362.2</ele>
        <time>2013-03-03T08:23:17Z</time>
      </trkpt>
      <trkpt lat="45.39368" lon="5.80394">
        <ele>1362.2</ele>
        <time>2013-03-03T08:23:18Z</time>
      </trkpt>
      <trkpt lat="45.39369" lon="5.80417">
        <ele>1368.1</ele>
        <time>2013-03-03T08:23:53Z</time>
      </trkpt>
      <trkpt lat="45.39373" lon="5.80427">
        <ele>1369.1</ele>
        <time>2013-03-03T08:24:03Z</time>
      </trkpt>
      <trkpt lat="45.39378" lon="5.80435">
        <ele>1370.4</ele>
        <time>2013-03-03T08:24:13Z</time>
      </trkpt>
      <trkpt lat="45.39381" lon="5.80447">
        <ele>1370.8</ele>
        <time>2013-03-03T08:24:21Z</time>
      </trkpt>
      <trkpt lat="45.39381" lon="5.80448">
        <ele>1371.3</ele>
        <time>2013-03-03T08:24:22Z</time>
      </trkpt>
      <trkpt lat="45.39386" lon="5.8047">
        <ele>1375.5</ele>
        <time>2013-03-03T08:24:54Z</time>
      </trkpt>
      <trkpt lat="45.3939" lon="5.80481">
        <ele>1377.2</ele>
        <time>2013-03-03T08:25:08Z</time>
      </trkpt>
      <trkpt lat="45.39394" lon="5.80492">
        <ele>1379.3</ele>
        <time>2013-03-03T08:25:16Z</time>
      </trkpt>
      <trkpt lat="45.39399" lon="5.80502">
        <ele>1380.3</ele>
        <time>2013-03-03T08:25:26Z</time>
      </trkpt>
      <trkpt lat="45.394" lon="5.80504">
        <ele>1380.5</ele>
        <time>2013-03-03T08:25:27Z</time>
      </trkpt>
      <trkpt lat="45.39408" lon="5.80523">
        <ele>1386.2</ele>
        <time>2013-03-03T08:26:02Z</time>
      </trkpt>
      <trkpt lat="45.39413" lon="5.80533">
        <ele>1388.9</ele>
        <time>2013-03-03T08:26:17Z</time>
      </trkpt>
      <trkpt lat="45.39416" lon="5.80545">
        <ele>1390.5</ele>
        <time>2013-03-03T08:26:29Z</time>
      </trkpt>
      <trkpt lat="45.39416" lon="5.80546">
        <ele>1390.9</ele>
        <time>2013-03-03T08:26:30Z</time>
      </trkpt>
      <trkpt lat="45.39415" lon="5.80544">
        <ele>1392.1</ele>
        <time>2013-03-03T08:27:41Z</time>
      </trkpt>
      <trkpt lat="45.39415" lon="5.80543">
        <ele>1392.3</ele>
        <time>2013-03-03T08:27:42Z</time>
      </trkpt>
      <trkpt lat="45.39414" lon="5.80548">
        <ele>1392</ele>
        <time>2013-03-03T08:28:29Z</time>
      </trkpt>
      <trkpt lat="45.39422" lon="5.80551">
        <ele>1392.2</ele>
        <time>2013-03-03T08:28:42Z</time>
      </trkpt>
      <trkpt lat="45.39423" lon="5.80552">
        <ele>1392.6</ele>
        <time>2013-03-03T08:28:43Z</time>
      </trkpt>
      <trkpt lat="45.39414" lon="5.80545">
        <ele>1392.3</ele>
        <time>2013-03-03T08:30:09Z</time>
      </trkpt>
      <trkpt lat="45.39428" lon="5.8056">
        <ele>1395.1</ele>
        <time>2013-03-03T08:30:44Z</time>
      </trkpt>
      <trkpt lat="45.39433" lon="5.8057">
        <ele>1395.7</ele>
        <time>2013-03-03T08:30:57Z</time>
      </trkpt>
      <trkpt lat="45.39441" lon="5.80575">
        <ele>1399.4</ele>
        <time>2013-03-03T08:31:13Z</time>
      </trkpt>
      <trkpt lat="45.39442" lon="5.80575">
        <ele>1399.4</ele>
        <time>2013-03-03T08:31:14Z</time>
      </trkpt>
      <trkpt lat="45.39453" lon="5.80593">
        <ele>1405.8</ele>
        <time>2013-03-03T08:31:54Z</time>
      </trkpt>
      <trkpt lat="45.39459" lon="5.80601">
        <ele>1408.1</ele>
        <time>2013-03-03T08:32:11Z</time>
      </trkpt>
      <trkpt lat="45.39465" lon="5.8061">
        <ele>1410.8</ele>
        <time>2013-03-03T08:32:21Z</time>
      </trkpt>
      <trkpt lat="45.39465" lon="5.80611">
        <ele>1411.1</ele>
        <time>2013-03-03T08:32:22Z</time>
      </trkpt>
      <trkpt lat="45.39475" lon="5.8063">
        <ele>1416.6</ele>
        <time>2013-03-03T08:32:59Z</time>
      </trkpt>
      <trkpt lat="45.39483" lon="5.80636">
        <ele>1417.8</ele>
        <time>2013-03-03T08:34:25Z</time>
      </trkpt>
      <trkpt lat="45.39483" lon="5.80636">
        <ele>1417.6</ele>
        <time>2013-03-03T08:34:26Z</time>
      </trkpt>
      <trkpt lat="45.39479" lon="5.80635">
        <ele>1417</ele>
        <time>2013-03-03T08:35:16Z</time>
      </trkpt>
      <trkpt lat="45.39489" lon="5.80624">
        <ele>1417</ele>
        <time>2013-03-03T08:35:33Z</time>
      </trkpt>
      <trkpt lat="45.3949" lon="5.80622">
        <ele>1417.7</ele>
        <time>2013-03-03T08:35:35Z</time>
      </trkpt>
      <trkpt lat="45.39498" lon="5.80645">
        <ele>1425.7</ele>
        <time>2013-03-03T08:36:13Z</time>
      </trkpt>
      <trkpt lat="45.39504" lon="5.80654">
        <ele>1426.4</ele>
        <time>2013-03-03T08:36:20Z</time>
      </trkpt>
      <trkpt lat="45.39509" lon="5.80664">
        <ele>1428</ele>
        <time>2013-03-03T08:36:27Z</time>
      </trkpt>
      <trkpt lat="45.39512" lon="5.80676">
        <ele>1432.4</ele>
        <time>2013-03-03T08:36:44Z</time>
      </trkpt>
      <trkpt lat="45.39513" lon="5.80677">
        <ele>1432.2</ele>
        <time>2013-03-03T08:36:45Z</time>
      </trkpt>
      <trkpt lat="45.39521" lon="5.80696">
        <ele>1438.7</ele>
        <time>2013-03-03T08:37:15Z</time>
      </trkpt>
      <trkpt lat="45.39526" lon="5.80707">
        <ele>1441</ele>
        <time>2013-03-03T08:37:24Z</time>
      </trkpt>
      <trkpt lat="45.39525" lon="5.80719">
        <ele>1443.8</ele>
        <time>2013-03-03T08:37:34Z</time>
      </trkpt>
      <trkpt lat="45.3952" lon="5.80728">
        <ele>1445</ele>
        <time>2013-03-03T08:37:45Z</time>
      </trkpt>
      <trkpt lat="45.39519" lon="5.8073">
        <ele>1444.9</ele>
        <time>2013-03-03T08:37:46Z</time>
      </trkpt>
      <trkpt lat="45.3951" lon="5.80748">
        <ele>1448.3</ele>
        <time>2013-03-03T08:38:08Z</time>
      </trkpt>
      <trkpt lat="45.39505" lon="5.80758">
        <ele>1451.8</ele>
        <time>2013-03-03T08:38:21Z</time>
      </trkpt>
      <trkpt lat="45.39503" lon="5.8077">
        <ele>1453.3</ele>
        <time>2013-03-03T08:38:33Z</time>
      </trkpt>
      <trkpt lat="45.39501" lon="5.80782">
        <ele>1454</ele>
        <time>2013-03-03T08:38:44Z</time>
      </trkpt>
      <trkpt lat="45.39503" lon="5.80794">
        <ele>1456.3</ele>
        <time>2013-03-03T08:38:57Z</time>
      </trkpt>
      <trkpt lat="45.39502" lon="5.80795">
        <ele>1456.3</ele>
        <time>2013-03-03T08:38:58Z</time>
      </trkpt>
      <trkpt lat="45.39502" lon="5.80818">
        <ele>1459.2</ele>
        <time>2013-03-03T08:39:22Z</time>
      </trkpt>
      <trkpt lat="45.39501" lon="5.80831">
        <ele>1461.1</ele>
        <time>2013-03-03T08:39:31Z</time>
      </trkpt>
      <trkpt lat="45.39494" lon="5.80836">
        <ele>1460.7</ele>
        <time>2013-03-03T08:39:42Z</time>
      </trkpt>
      <trkpt lat="45.39488" lon="5.80844">
        <ele>1462.5</ele>
        <time>2013-03-03T08:39:52Z</time>
      </trkpt>
      <trkpt lat="45.39481" lon="5.80851">
        <ele>1461.5</ele>
        <time>2013-03-03T08:40:00Z</time>
      </trkpt>
      <trkpt lat="45.39481" lon="5.80852">
        <ele>1461.6</ele>
        <time>2013-03-03T08:40:01Z</time>
      </trkpt>
      <trkpt lat="45.39466" lon="5.80864">
        <ele>1463.2</ele>
        <time>2013-03-03T08:40:17Z</time>
      </trkpt>
      <trkpt lat="45.3946" lon="5.80871">
        <ele>1464.3</ele>
        <time>2013-03-03T08:40:27Z</time>
      </trkpt>
      <trkpt lat="45.39452" lon="5.80875">
        <ele>1465.1</ele>
        <time>2013-03-03T08:40:34Z</time>
      </trkpt>
      <trkpt lat="45.39443" lon="5.80877">
        <ele>1465.4</ele>
        <time>2013-03-03T08:40:42Z</time>
      </trkpt>
      <trkpt lat="45.39437" lon="5.80885">
        <ele>1466.5</ele>
        <time>2013-03-03T08:40:51Z</time>
      </trkpt>
      <trkpt lat="45.39429" lon="5.8089">
        <ele>1467.1</ele>
        <time>2013-03-03T08:41:02Z</time>
      </trkpt>
      <trkpt lat="45.39428" lon="5.8089">
        <ele>1467.7</ele>
        <time>2013-03-03T08:41:03Z</time>
      </trkpt>
      <trkpt lat="45.39414" lon="5.80902">
        <ele>1470.4</ele>
        <time>2013-03-03T08:41:22Z</time>
      </trkpt>
      <trkpt lat="45.39407" lon="5.80908">
        <ele>1471</ele>
        <time>2013-03-03T08:41:29Z</time>
      </trkpt>
      <trkpt lat="45.39399" lon="5.80912">
        <ele>1473.1</ele>
        <time>2013-03-03T08:41:39Z</time>
      </trkpt>
      <trkpt lat="45.3939" lon="5.80916">
        <ele>1474.7</ele>
        <time>2013-03-03T08:41:50Z</time>
      </trkpt>
      <trkpt lat="45.39382" lon="5.80918">
        <ele>1477.1</ele>
        <time>2013-03-03T08:42:01Z</time>
      </trkpt>
      <trkpt lat="45.39374" lon="5.80921">
        <ele>1478.4</ele>
        <time>2013-03-03T08:42:09Z</time>
      </trkpt>
      <trkpt lat="45.39373" lon="5.80922">
        <ele>1478.5</ele>
        <time>2013-03-03T08:42:10Z</time>
      </trkpt>
      <trkpt lat="45.39358" lon="5.80927">
        <ele>1481.3</ele>
        <time>2013-03-03T08:42:28Z</time>
      </trkpt>
      <trkpt lat="45.39349" lon="5.80924">
        <ele>1481.7</ele>
        <time>2013-03-03T08:42:40Z</time>
      </trkpt>
      <trkpt lat="45.39343" lon="5.80917">
        <ele>1483.1</ele>
        <time>2013-03-03T08:42:51Z</time>
      </trkpt>
      <trkpt lat="45.39335" lon="5.80913">
        <ele>1485.9</ele>
        <time>2013-03-03T08:43:03Z</time>
      </trkpt>
      <trkpt lat="45.39326" lon="5.80915">
        <ele>1486.7</ele>
        <time>2013-03-03T08:43:13Z</time>
      </trkpt>
      <trkpt lat="45.39325" lon="5.80915">
        <ele>1486.9</ele>
        <time>2013-03-03T08:43:14Z</time>
      </trkpt>
      <trkpt lat="45.3931" lon="5.80914">
        <ele>1490.5</ele>
        <time>2013-03-03T08:43:33Z</time>
      </trkpt>
      <trkpt lat="45.39301" lon="5.8091">
        <ele>1492.6</ele>
        <time>2013-03-03T08:43:46Z</time>
      </trkpt>
      <trkpt lat="45.39299" lon="5.80898">
        <ele>1494.3</ele>
        <time>2013-03-03T08:43:55Z</time>
      </trkpt>
      <trkpt lat="45.39294" lon="5.80887">
        <ele>1496.6</ele>
        <time>2013-03-03T08:44:10Z</time>
      </trkpt>
      <trkpt lat="45.39291" lon="5.80875">
        <ele>1500</ele>
        <time>2013-03-03T08:44:26Z</time>
      </trkpt>
      <trkpt lat="45.39291" lon="5.80874">
        <ele>1500.7</ele>
        <time>2013-03-03T08:44:27Z</time>
      </trkpt>
      <trkpt lat="45.39276" lon="5.80864">
        <ele>1506.2</ele>
        <time>2013-03-03T08:44:54Z</time>
      </trkpt>
      <trkpt lat="45.39272" lon="5.80854">
        <ele>1508.3</ele>
        <time>2013-03-03T08:45:10Z</time>
      </trkpt>
      <trkpt lat="45.39266" lon="5.80845">
        <ele>1510.7</ele>
        <time>2013-03-03T08:45:25Z</time>
      </trkpt>
      <trkpt lat="45.39259" lon="5.80837">
        <ele>1514</ele>
        <time>2013-03-03T08:45:39Z</time>
      </trkpt>
      <trkpt lat="45.39259" lon="5.80837">
        <ele>1514.3</ele>
        <time>2013-03-03T08:45:40Z</time>
      </trkpt>
      <trkpt lat="45.39245" lon="5.80824">
        <ele>1518.4</ele>
        <time>2013-03-03T08:46:06Z</time>
      </trkpt>
      <trkpt lat="45.39239" lon="5.80815">
        <ele>1520.7</ele>
        <time>2013-03-03T08:46:21Z</time>
      </trkpt>
      <trkpt lat="45.39231" lon="5.80809">
        <ele>1523.8</ele>
        <time>2013-03-03T08:46:36Z</time>
      </trkpt>
      <trkpt lat="45.39223" lon="5.80805">
        <ele>1526.9</ele>
        <time>2013-03-03T08:46:53Z</time>
      </trkpt>
      <trkpt lat="45.39222" lon="5.80805">
        <ele>1527.1</ele>
        <time>2013-03-03T08:46:54Z</time>
      </trkpt>
      <trkpt lat="45.39209" lon="5.80801">
        <ele>1535.5</ele>
        <time>2013-03-03T08:47:49Z</time>
      </trkpt>
      <trkpt lat="45.39208" lon="5.80788">
        <ele>1536.7</ele>
        <time>2013-03-03T08:48:08Z</time>
      </trkpt>
      <trkpt lat="45.39208" lon="5.80787">
        <ele>1536.8</ele>
        <time>2013-03-03T08:48:09Z</time>
      </trkpt>
      <trkpt lat="45.39203" lon="5.80767">
        <ele>1543.5</ele>
        <time>2013-03-03T08:48:46Z</time>
      </trkpt>
      <trkpt lat="45.39204" lon="5.80755">
        <ele>1545.2</ele>
        <time>2013-03-03T08:48:58Z</time>
      </trkpt>
      <trkpt lat="45.39195" lon="5.80754">
        <ele>1549.6</ele>
        <time>2013-03-03T08:49:20Z</time>
      </trkpt>
      <trkpt lat="45.39195" lon="5.80755">
        <ele>1550</ele>
        <time>2013-03-03T08:49:21Z</time>
      </trkpt>
      <trkpt lat="45.39182" lon="5.80769">
        <ele>1553.1</ele>
        <time>2013-03-03T08:49:44Z</time>
      </trkpt>
      <trkpt lat="45.39182" lon="5.80757">
        <ele>1556.5</ele>
        <time>2013-03-03T08:50:02Z</time>
      </trkpt>
      <trkpt lat="45.39174" lon="5.80752">
        <ele>1559.4</ele>
        <time>2013-03-03T08:50:25Z</time>
      </trkpt>
      <trkpt lat="45.39173" lon="5.80753">
        <ele>1559.2</ele>
        <time>2013-03-03T08:50:26Z</time>
      </trkpt>
      <trkpt lat="45.39159" lon="5.80764">
        <ele>1564.2</ele>
        <time>2013-03-03T08:50:52Z</time>
      </trkpt>
      <trkpt lat="45.39151" lon="5.80763">
        <ele>1566.3</ele>
        <time>2013-03-03T08:51:05Z</time>
      </trkpt>
      <trkpt lat="45.39142" lon="5.80765">
        <ele>1567.5</ele>
        <time>2013-03-03T08:51:18Z</time>
      </trkpt>
      <trkpt lat="45.39134" lon="5.80767">
        <ele>1569.4</ele>
        <time>2013-03-03T08:51:30Z</time>
      </trkpt>
      <trkpt lat="45.39133" lon="5.80766">
        <ele>1569.5</ele>
        <time>2013-03-03T08:51:31Z</time>
      </trkpt>
      <trkpt lat="45.39118" lon="5.80775">
        <ele>1573.8</ele>
        <time>2013-03-03T08:51:52Z</time>
      </trkpt>
      <trkpt lat="45.3911" lon="5.80781">
        <ele>1576.1</ele>
        <time>2013-03-03T08:52:04Z</time>
      </trkpt>
      <trkpt lat="45.39104" lon="5.80788">
        <ele>1578.9</ele>
        <time>2013-03-03T08:52:14Z</time>
      </trkpt>
      <trkpt lat="45.39096" lon="5.80793">
        <ele>1579.4</ele>
        <time>2013-03-03T08:52:27Z</time>
      </trkpt>
      <trkpt lat="45.39088" lon="5.80793">
        <ele>1584</ele>
        <time>2013-03-03T08:52:50Z</time>
      </trkpt>
      <trkpt lat="45.39087" lon="5.80793">
        <ele>1584.2</ele>
        <time>2013-03-03T08:52:51Z</time>
      </trkpt>
      <trkpt lat="45.39073" lon="5.80801">
        <ele>1585.7</ele>
        <time>2013-03-03T08:53:10Z</time>
      </trkpt>
      <trkpt lat="45.39064" lon="5.80805">
        <ele>1586.8</ele>
        <time>2013-03-03T08:53:24Z</time>
      </trkpt>
      <trkpt lat="45.39056" lon="5.8081">
        <ele>1591.1</ele>
        <time>2013-03-03T08:53:57Z</time>
      </trkpt>
      <trkpt lat="45.39055" lon="5.8081">
        <ele>1591.4</ele>
        <time>2013-03-03T08:53:58Z</time>
      </trkpt>
      <trkpt lat="45.39039" lon="5.80817">
        <ele>1596.1</ele>
        <time>2013-03-03T08:54:24Z</time>
      </trkpt>
      <trkpt lat="45.3903" lon="5.80818">
        <ele>1599.4</ele>
        <time>2013-03-03T08:54:38Z</time>
      </trkpt>
      <trkpt lat="45.39022" lon="5.80817">
        <ele>1599.9</ele>
        <time>2013-03-03T08:54:51Z</time>
      </trkpt>
      <trkpt lat="45.39014" lon="5.80822">
        <ele>1602.1</ele>
        <time>2013-03-03T08:55:05Z</time>
      </trkpt>
      <trkpt lat="45.39013" lon="5.80822">
        <ele>1602.1</ele>
        <time>2013-03-03T08:55:06Z</time>
      </trkpt>
      <trkpt lat="45.39" lon="5.80837">
        <ele>1606.4</ele>
        <time>2013-03-03T08:55:37Z</time>
      </trkpt>
      <trkpt lat="45.38992" lon="5.80841">
        <ele>1608.5</ele>
        <time>2013-03-03T08:55:49Z</time>
      </trkpt>
      <trkpt lat="45.38984" lon="5.80849">
        <ele>1610.5</ele>
        <time>2013-03-03T08:56:03Z</time>
      </trkpt>
      <trkpt lat="45.38976" lon="5.8085">
        <ele>1613.1</ele>
        <time>2013-03-03T08:56:17Z</time>
      </trkpt>
      <trkpt lat="45.38975" lon="5.8085">
        <ele>1613.4</ele>
        <time>2013-03-03T08:56:18Z</time>
      </trkpt>
      <trkpt lat="45.38962" lon="5.80837">
        <ele>1614.1</ele>
        <time>2013-03-03T08:57:29Z</time>
      </trkpt>
      <trkpt lat="45.38961" lon="5.80837">
        <ele>1613.9</ele>
        <time>2013-03-03T08:57:30Z</time>
      </trkpt>
      <trkpt lat="45.38946" lon="5.8084">
        <ele>1623.7</ele>
        <time>2013-03-03T08:58:16Z</time>
      </trkpt>
      <trkpt lat="45.38942" lon="5.80851">
        <ele>1626.5</ele>
        <time>2013-03-03T08:58:31Z</time>
      </trkpt>
      <trkpt lat="45.38942" lon="5.80852">
        <ele>1626.4</ele>
        <time>2013-03-03T08:58:32Z</time>
      </trkpt>
      <trkpt lat="45.38928" lon="5.80855">
        <ele>1631.4</ele>
        <time>2013-03-03T08:59:02Z</time>
      </trkpt>
      <trkpt lat="45.3892" lon="5.80859">
        <ele>1633</ele>
        <time>2013-03-03T08:59:13Z</time>
      </trkpt>
      <trkpt lat="45.38911" lon="5.80859">
        <ele>1635.6</ele>
        <time>2013-03-03T08:59:25Z</time>
      </trkpt>
      <trkpt lat="45.38903" lon="5.80861">
        <ele>1638.2</ele>
        <time>2013-03-03T08:59:39Z</time>
      </trkpt>
      <trkpt lat="45.38902" lon="5.80861">
        <ele>1638.6</ele>
        <time>2013-03-03T08:59:40Z</time>
      </trkpt>
      <trkpt lat="45.38888" lon="5.80873">
        <ele>1644.1</ele>
        <time>2013-03-03T09:00:12Z</time>
      </trkpt>
      <trkpt lat="45.38887" lon="5.80886">
        <ele>1648.9</ele>
        <time>2013-03-03T09:00:28Z</time>
      </trkpt>
      <trkpt lat="45.38879" lon="5.80892">
        <ele>1651.7</ele>
        <time>2013-03-03T09:00:48Z</time>
      </trkpt>
      <trkpt lat="45.38879" lon="5.80892">
        <ele>1651.9</ele>
        <time>2013-03-03T09:00:49Z</time>
      </trkpt>
      <trkpt lat="45.38862" lon="5.80893">
        <ele>1656.1</ele>
        <time>2013-03-03T09:01:12Z</time>
      </trkpt>
      <trkpt lat="45.38854" lon="5.80888">
        <ele>1659.3</ele>
        <time>2013-03-03T09:01:26Z</time>
      </trkpt>
      <trkpt lat="45.38848" lon="5.80879">
        <ele>1663</ele>
        <time>2013-03-03T09:01:42Z</time>
      </trkpt>
      <trkpt lat="45.3884" lon="5.80884">
        <ele>1666.2</ele>
        <time>2013-03-03T09:02:05Z</time>
      </trkpt>
      <trkpt lat="45.38839" lon="5.80883">
        <ele>1666.4</ele>
        <time>2013-03-03T09:02:06Z</time>
      </trkpt>
      <trkpt lat="45.38833" lon="5.80862">
        <ele>1671.9</ele>
        <time>2013-03-03T09:02:34Z</time>
      </trkpt>
      <trkpt lat="45.38829" lon="5.80851">
        <ele>1675.3</ele>
        <time>2013-03-03T09:02:48Z</time>
      </trkpt>
      <trkpt lat="45.38826" lon="5.80839">
        <ele>1678.2</ele>
        <time>2013-03-03T09:03:02Z</time>
      </trkpt>
      <trkpt lat="45.38823" lon="5.80827">
        <ele>1681</ele>
        <time>2013-03-03T09:03:16Z</time>
      </trkpt>
      <trkpt lat="45.38823" lon="5.80826">
        <ele>1681.3</ele>
        <time>2013-03-03T09:03:17Z</time>
      </trkpt>
      <trkpt lat="45.38827" lon="5.80804">
        <ele>1687</ele>
        <time>2013-03-03T09:03:44Z</time>
      </trkpt>
      <trkpt lat="45.3882" lon="5.80799">
        <ele>1691.2</ele>
        <time>2013-03-03T09:04:14Z</time>
      </trkpt>
      <trkpt lat="45.3882" lon="5.80786">
        <ele>1696.5</ele>
        <time>2013-03-03T09:04:47Z</time>
      </trkpt>
      <trkpt lat="45.3882" lon="5.80786">
        <ele>1696.8</ele>
        <time>2013-03-03T09:04:48Z</time>
      </trkpt>
      <trkpt lat="45.38812" lon="5.80775">
        <ele>1702.3</ele>
        <time>2013-03-03T09:05:18Z</time>
      </trkpt>
      <trkpt lat="45.38803" lon="5.80777">
        <ele>1706.6</ele>
        <time>2013-03-03T09:05:36Z</time>
      </trkpt>
      <trkpt lat="45.38795" lon="5.8078">
        <ele>1707.7</ele>
        <time>2013-03-03T09:05:50Z</time>
      </trkpt>
      <trkpt lat="45.38795" lon="5.80781">
        <ele>1707.9</ele>
        <time>2013-03-03T09:05:51Z</time>
      </trkpt>
      <trkpt lat="45.3878" lon="5.80792">
        <ele>1710.9</ele>
        <time>2013-03-03T09:06:16Z</time>
      </trkpt>
      <trkpt lat="45.38774" lon="5.808">
        <ele>1713.6</ele>
        <time>2013-03-03T09:06:27Z</time>
      </trkpt>
      <trkpt lat="45.38769" lon="5.80809">
        <ele>1714.9</ele>
        <time>2013-03-03T09:06:40Z</time>
      </trkpt>
      <trkpt lat="45.38763" lon="5.80818">
        <ele>1717.9</ele>
        <time>2013-03-03T09:06:54Z</time>
      </trkpt>
      <trkpt lat="45.38762" lon="5.80819">
        <ele>1717.7</ele>
        <time>2013-03-03T09:06:55Z</time>
      </trkpt>
      <trkpt lat="45.3875" lon="5.80833">
        <ele>1720.8</ele>
        <time>2013-03-03T09:07:19Z</time>
      </trkpt>
      <trkpt lat="45.38744" lon="5.80841">
        <ele>1720.9</ele>
        <time>2013-03-03T09:07:30Z</time>
      </trkpt>
      <trkpt lat="45.38737" lon="5.8085">
        <ele>1721.6</ele>
        <time>2013-03-03T09:07:40Z</time>
      </trkpt>
      <trkpt lat="45.3873" lon="5.80858">
        <ele>1721.8</ele>
        <time>2013-03-03T09:07:50Z</time>
      </trkpt>
      <trkpt lat="45.38725" lon="5.80867">
        <ele>1721.8</ele>
        <time>2013-03-03T09:08:00Z</time>
      </trkpt>
      <trkpt lat="45.38724" lon="5.80868">
        <ele>1721.8</ele>
        <time>2013-03-03T09:08:01Z</time>
      </trkpt>
      <trkpt lat="45.38718" lon="5.80875">
        <ele>1722.5</ele>
        <time>2013-03-03T09:09:03Z</time>
      </trkpt>
      <trkpt lat="45.38715" lon="5.80863">
        <ele>1722.2</ele>
        <time>2013-03-03T09:12:24Z</time>
      </trkpt>
      <trkpt lat="45.38721" lon="5.80873">
        <ele>1723.1</ele>
        <time>2013-03-03T09:16:48Z</time>
      </trkpt>
      <trkpt lat="45.38729" lon="5.80868">
        <ele>1722.8</ele>
        <time>2013-03-03T09:19:49Z</time>
      </trkpt>
      <trkpt lat="45.38741" lon="5.80852">
        <ele>1722.2</ele>
        <time>2013-03-03T09:20:28Z</time>
      </trkpt>
      <trkpt lat="45.38733" lon="5.80858">
        <ele>1720.5</ele>
        <time>2013-03-03T09:21:32Z</time>
      </trkpt>
      <trkpt lat="45.38733" lon="5.80858">
        <ele>1720.8</ele>
        <time>2013-03-03T09:21:33Z</time>
      </trkpt>
      <trkpt lat="45.38719" lon="5.80873">
        <ele>1722.2</ele>
        <time>2013-03-03T09:21:54Z</time>
      </trkpt>
      <trkpt lat="45.38723" lon="5.80862">
        <ele>1719.7</ele>
        <time>2013-03-03T09:27:08Z</time>
      </trkpt>
      <trkpt lat="45.38723" lon="5.8086">
        <ele>1719.6</ele>
        <time>2013-03-03T09:27:09Z</time>
      </trkpt>
      <trkpt lat="45.38732" lon="5.8084">
        <ele>1720.2</ele>
        <time>2013-03-03T09:27:27Z</time>
      </trkpt>
      <trkpt lat="45.38739" lon="5.80832">
        <ele>1718.9</ele>
        <time>2013-03-03T09:27:38Z</time>
      </trkpt>
      <trkpt lat="45.38744" lon="5.80823">
        <ele>1719.1</ele>
        <time>2013-03-03T09:27:56Z</time>
      </trkpt>
      <trkpt lat="45.38749" lon="5.80813">
        <ele>1718.8</ele>
        <time>2013-03-03T09:28:06Z</time>
      </trkpt>
      <trkpt lat="45.38749" lon="5.80801">
        <ele>1718.7</ele>
        <time>2013-03-03T09:28:39Z</time>
      </trkpt>
      <trkpt lat="45.38749" lon="5.808">
        <ele>1718.4</ele>
        <time>2013-03-03T09:28:40Z</time>
      </trkpt>
      <trkpt lat="45.38743" lon="5.8081">
        <ele>1716.6</ele>
        <time>2013-03-03T09:32:09Z</time>
      </trkpt>
      <trkpt lat="45.38737" lon="5.8083">
        <ele>1717.8</ele>
        <time>2013-03-03T09:32:24Z</time>
      </trkpt>
      <trkpt lat="45.38732" lon="5.80841">
        <ele>1717.9</ele>
        <time>2013-03-03T09:32:35Z</time>
      </trkpt>
      <trkpt lat="45.38727" lon="5.80851">
        <ele>1716.8</ele>
        <time>2013-03-03T09:32:47Z</time>
      </trkpt>
      <trkpt lat="45.38721" lon="5.80861">
        <ele>1716.4</ele>
        <time>2013-03-03T09:32:59Z</time>
      </trkpt>
      <trkpt lat="45.38717" lon="5.80872">
        <ele>1716.5</ele>
        <time>2013-03-03T09:33:22Z</time>
      </trkpt>
      <trkpt lat="45.38717" lon="5.80872">
        <ele>1716.6</ele>
        <time>2013-03-03T09:33:23Z</time>
      </trkpt>
      <trkpt lat="45.38725" lon="5.80878">
        <ele>1713.7</ele>
        <time>2013-03-03T09:37:25Z</time>
      </trkpt>
      <trkpt lat="45.38719" lon="5.80868">
        <ele>1712.8</ele>
        <time>2013-03-03T09:40:13Z</time>
      </trkpt>
      <trkpt lat="45.38716" lon="5.80881">
        <ele>1707.9</ele>
        <time>2013-03-03T09:53:44Z</time>
      </trkpt>
      <trkpt lat="45.3871" lon="5.80902">
        <ele>1708.2</ele>
        <time>2013-03-03T09:54:03Z</time>
      </trkpt>
      <trkpt lat="45.38708" lon="5.80914">
        <ele>1710.9</ele>
        <time>2013-03-03T09:54:13Z</time>
      </trkpt>
      <trkpt lat="45.38705" lon="5.80926">
        <ele>1713.8</ele>
        <time>2013-03-03T09:54:23Z</time>
      </trkpt>
      <trkpt lat="45.38701" lon="5.80937">
        <ele>1715.6</ele>
        <time>2013-03-03T09:54:34Z</time>
      </trkpt>
      <trkpt lat="45.38698" lon="5.80948">
        <ele>1717.6</ele>
        <time>2013-03-03T09:54:44Z</time>
      </trkpt>
      <trkpt lat="45.38694" lon="5.80959">
        <ele>1720.8</ele>
        <time>2013-03-03T09:54:55Z</time>
      </trkpt>
      <trkpt lat="45.38694" lon="5.8096">
        <ele>1721</ele>
        <time>2013-03-03T09:54:56Z</time>
      </trkpt>
      <trkpt lat="45.38684" lon="5.80981">
        <ele>1724.4</ele>
        <time>2013-03-03T09:55:19Z</time>
      </trkpt>
      <trkpt lat="45.3868" lon="5.80991">
        <ele>1726.6</ele>
        <time>2013-03-03T09:55:33Z</time>
      </trkpt>
      <trkpt lat="45.38675" lon="5.81">
        <ele>1729.6</ele>
        <time>2013-03-03T09:55:44Z</time>
      </trkpt>
      <trkpt lat="45.38672" lon="5.81012">
        <ele>1731.5</ele>
        <time>2013-03-03T09:55:56Z</time>
      </trkpt>
      <trkpt lat="45.38667" lon="5.81021">
        <ele>1734.2</ele>
        <time>2013-03-03T09:56:07Z</time>
      </trkpt>
      <trkpt lat="45.38666" lon="5.81022">
        <ele>1734.7</ele>
        <time>2013-03-03T09:56:08Z</time>
      </trkpt>
      <trkpt lat="45.38653" lon="5.81037">
        <ele>1737.9</ele>
        <time>2013-03-03T09:56:29Z</time>
      </trkpt>
      <trkpt lat="45.38647" lon="5.81044">
        <ele>1740.8</ele>
        <time>2013-03-03T09:56:41Z</time>
      </trkpt>
      <trkpt lat="45.3864" lon="5.81053">
        <ele>1743.3</ele>
        <time>2013-03-03T09:56:52Z</time>
      </trkpt>
      <trkpt lat="45.38634" lon="5.81062">
        <ele>1744.8</ele>
        <time>2013-03-03T09:57:06Z</time>
      </trkpt>
      <trkpt lat="45.38633" lon="5.81072">
        <ele>1746.2</ele>
        <time>2013-03-03T09:57:51Z</time>
      </trkpt>
      <trkpt lat="45.38634" lon="5.81075">
        <ele>1746.7</ele>
        <time>2013-03-03T09:57:52Z</time>
      </trkpt>
      <trkpt lat="45.38624" lon="5.8107">
        <ele>1746.2</ele>
        <time>2013-03-03T10:02:13Z</time>
      </trkpt>
      <trkpt lat="45.38615" lon="5.81076">
        <ele>1744.4</ele>
        <time>2013-03-03T10:03:48Z</time>
      </trkpt>
      <trkpt lat="45.38604" lon="5.81086">
        <ele>1741.9</ele>
        <time>2013-03-03T10:03:52Z</time>
      </trkpt>
      <trkpt lat="45.38599" lon="5.81093">
        <ele>1740.7</ele>
        <time>2013-03-03T10:03:54Z</time>
      </trkpt>
      <trkpt lat="45.38593" lon="5.81101">
        <ele>1739.2</ele>
        <time>2013-03-03T10:03:56Z</time>
      </trkpt>
      <trkpt lat="45.38587" lon="5.81107">
        <ele>1737.4</ele>
        <time>2013-03-03T10:03:58Z</time>
      </trkpt>
      <trkpt lat="45.38582" lon="5.81114">
        <ele>1735.5</ele>
        <time>2013-03-03T10:04:00Z</time>
      </trkpt>
      <trkpt lat="45.38577" lon="5.8112">
        <ele>1734</ele>
        <time>2013-03-03T10:04:02Z</time>
      </trkpt>
      <trkpt lat="45.38572" lon="5.81127">
        <ele>1732.3</ele>
        <time>2013-03-03T10:04:04Z</time>
      </trkpt>
      <trkpt lat="45.38567" lon="5.81135">
        <ele>1730.8</ele>
        <time>2013-03-03T10:04:06Z</time>
      </trkpt>
      <trkpt lat="45.38562" lon="5.81143">
        <ele>1728.9</ele>
        <time>2013-03-03T10:04:09Z</time>
      </trkpt>
      <trkpt lat="45.38555" lon="5.81147">
        <ele>1726.4</ele>
        <time>2013-03-03T10:04:14Z</time>
      </trkpt>
      <trkpt lat="45.38548" lon="5.81155">
        <ele>1723.7</ele>
        <time>2013-03-03T10:04:26Z</time>
      </trkpt>
      <trkpt lat="45.38543" lon="5.8116">
        <ele>1722.5</ele>
        <time>2013-03-03T10:04:40Z</time>
      </trkpt>
      <trkpt lat="45.38534" lon="5.81163">
        <ele>1721</ele>
        <time>2013-03-03T10:04:43Z</time>
      </trkpt>
      <trkpt lat="45.38539" lon="5.81172">
        <ele>1718</ele>
        <time>2013-03-03T10:04:50Z</time>
      </trkpt>
      <trkpt lat="45.38539" lon="5.81175">
        <ele>1717.8</ele>
        <time>2013-03-03T10:04:51Z</time>
      </trkpt>
      <trkpt lat="45.38528" lon="5.81187">
        <ele>1714.8</ele>
        <time>2013-03-03T10:04:55Z</time>
      </trkpt>
      <trkpt lat="45.38524" lon="5.8119">
        <ele>1713.5</ele>
        <time>2013-03-03T10:04:56Z</time>
      </trkpt>
      <trkpt lat="45.3852" lon="5.81195">
        <ele>1712.4</ele>
        <time>2013-03-03T10:04:57Z</time>
      </trkpt>
      <trkpt lat="45.38517" lon="5.812">
        <ele>1711.6</ele>
        <time>2013-03-03T10:04:58Z</time>
      </trkpt>
      <trkpt lat="45.38511" lon="5.81209">
        <ele>1710.6</ele>
        <time>2013-03-03T10:05:00Z</time>
      </trkpt>
      <trkpt lat="45.38507" lon="5.81213">
        <ele>1708.9</ele>
        <time>2013-03-03T10:05:01Z</time>
      </trkpt>
      <trkpt lat="45.38504" lon="5.81218">
        <ele>1707.7</ele>
        <time>2013-03-03T10:05:02Z</time>
      </trkpt>
      <trkpt lat="45.38501" lon="5.81222">
        <ele>1706.6</ele>
        <time>2013-03-03T10:05:03Z</time>
      </trkpt>
      <trkpt lat="45.38497" lon="5.81227">
        <ele>1705.8</ele>
        <time>2013-03-03T10:05:04Z</time>
      </trkpt>
      <trkpt lat="45.38491" lon="5.81236">
        <ele>1704.2</ele>
        <time>2013-03-03T10:05:06Z</time>
      </trkpt>
      <trkpt lat="45.38484" lon="5.81241">
        <ele>1701.4</ele>
        <time>2013-03-03T10:05:09Z</time>
      </trkpt>
      <trkpt lat="45.38476" lon="5.81241">
        <ele>1698.1</ele>
        <time>2013-03-03T10:05:31Z</time>
      </trkpt>
      <trkpt lat="45.3847" lon="5.81235">
        <ele>1697</ele>
        <time>2013-03-03T10:05:34Z</time>
      </trkpt>
      <trkpt lat="45.38463" lon="5.81236">
        <ele>1695.8</ele>
        <time>2013-03-03T10:05:36Z</time>
      </trkpt>
      <trkpt lat="45.38455" lon="5.81237">
        <ele>1694.5</ele>
        <time>2013-03-03T10:05:38Z</time>
      </trkpt>
      <trkpt lat="45.38448" lon="5.81238">
        <ele>1692.5</ele>
        <time>2013-03-03T10:05:40Z</time>
      </trkpt>
      <trkpt lat="45.3844" lon="5.81239">
        <ele>1688.6</ele>
        <time>2013-03-03T10:05:44Z</time>
      </trkpt>
      <trkpt lat="45.38431" lon="5.81241">
        <ele>1686.4</ele>
        <time>2013-03-03T10:05:49Z</time>
      </trkpt>
      <trkpt lat="45.38438" lon="5.81244">
        <ele>1681</ele>
        <time>2013-03-03T10:07:00Z</time>
      </trkpt>
      <trkpt lat="45.38439" lon="5.81249">
        <ele>1680.8</ele>
        <time>2013-03-03T10:07:01Z</time>
      </trkpt>
      <trkpt lat="45.38442" lon="5.81261">
        <ele>1680.3</ele>
        <time>2013-03-03T10:07:03Z</time>
      </trkpt>
      <trkpt lat="45.38444" lon="5.81267">
        <ele>1679.4</ele>
        <time>2013-03-03T10:07:04Z</time>
      </trkpt>
      <trkpt lat="45.38447" lon="5.81279">
        <ele>1678.1</ele>
        <time>2013-03-03T10:07:06Z</time>
      </trkpt>
      <trkpt lat="45.38449" lon="5.8129">
        <ele>1676.8</ele>
        <time>2013-03-03T10:07:08Z</time>
      </trkpt>
      <trkpt lat="45.38451" lon="5.81299">
        <ele>1675.6</ele>
        <time>2013-03-03T10:07:10Z</time>
      </trkpt>
      <trkpt lat="45.38452" lon="5.81308">
        <ele>1673.5</ele>
        <time>2013-03-03T10:07:12Z</time>
      </trkpt>
      <trkpt lat="45.38454" lon="5.81317">
        <ele>1671.3</ele>
        <time>2013-03-03T10:07:14Z</time>
      </trkpt>
      <trkpt lat="45.38456" lon="5.81326">
        <ele>1668.9</ele>
        <time>2013-03-03T10:07:16Z</time>
      </trkpt>
      <trkpt lat="45.38458" lon="5.81334">
        <ele>1667.2</ele>
        <time>2013-03-03T10:07:18Z</time>
      </trkpt>
      <trkpt lat="45.3846" lon="5.81342">
        <ele>1666.3</ele>
        <time>2013-03-03T10:07:20Z</time>
      </trkpt>
      <trkpt lat="45.38462" lon="5.81351">
        <ele>1664.6</ele>
        <time>2013-03-03T10:07:22Z</time>
      </trkpt>
      <trkpt lat="45.38464" lon="5.8136">
        <ele>1662.6</ele>
        <time>2013-03-03T10:07:24Z</time>
      </trkpt>
      <trkpt lat="45.38465" lon="5.81372">
        <ele>1660.9</ele>
        <time>2013-03-03T10:07:27Z</time>
      </trkpt>
      <trkpt lat="45.38466" lon="5.81381">
        <ele>1659.8</ele>
        <time>2013-03-03T10:07:29Z</time>
      </trkpt>
      <trkpt lat="45.38468" lon="5.81391">
        <ele>1658.1</ele>
        <time>2013-03-03T10:07:31Z</time>
      </trkpt>
      <trkpt lat="45.38468" lon="5.81398">
        <ele>1657.1</ele>
        <time>2013-03-03T10:07:32Z</time>
      </trkpt>
      <trkpt lat="45.38467" lon="5.8141">
        <ele>1655.7</ele>
        <time>2013-03-03T10:07:34Z</time>
      </trkpt>
      <trkpt lat="45.38462" lon="5.81418">
        <ele>1654.3</ele>
        <time>2013-03-03T10:07:36Z</time>
      </trkpt>
      <trkpt lat="45.38454" lon="5.81424">
        <ele>1653.5</ele>
        <time>2013-03-03T10:08:00Z</time>
      </trkpt>
      <trkpt lat="45.38445" lon="5.81427">
        <ele>1650.2</ele>
        <time>2013-03-03T10:11:04Z</time>
      </trkpt>
      <trkpt lat="45.38445" lon="5.81427">
        <ele>1650.4</ele>
        <time>2013-03-03T10:11:05Z</time>
      </trkpt>
      <trkpt lat="45.38453" lon="5.81419">
        <ele>1650.5</ele>
        <time>2013-03-03T10:12:30Z</time>
      </trkpt>
      <trkpt lat="45.38452" lon="5.81424">
        <ele>1650.6</ele>
        <time>2013-03-03T10:13:17Z</time>
      </trkpt>
      <trkpt lat="45.38448" lon="5.81435">
        <ele>1651.2</ele>
        <time>2013-03-03T10:13:46Z</time>
      </trkpt>
      <trkpt lat="45.38447" lon="5.81435">
        <ele>1651.2</ele>
        <time>2013-03-03T10:13:47Z</time>
      </trkpt>
      <trkpt lat="45.38432" lon="5.81444">
        <ele>1655.3</ele>
        <time>2013-03-03T10:14:31Z</time>
      </trkpt>
      <trkpt lat="45.38423" lon="5.81443">
        <ele>1659.9</ele>
        <time>2013-03-03T10:14:42Z</time>
      </trkpt>
      <trkpt lat="45.38422" lon="5.81455">
        <ele>1661.7</ele>
        <time>2013-03-03T10:15:05Z</time>
      </trkpt>
      <trkpt lat="45.38422" lon="5.81456">
        <ele>1662.2</ele>
        <time>2013-03-03T10:15:06Z</time>
      </trkpt>
      <trkpt lat="45.38411" lon="5.81472">
        <ele>1667.6</ele>
        <time>2013-03-03T10:15:36Z</time>
      </trkpt>
      <trkpt lat="45.38403" lon="5.81478">
        <ele>1670.8</ele>
        <time>2013-03-03T10:15:46Z</time>
      </trkpt>
      <trkpt lat="45.38395" lon="5.8148">
        <ele>1674.1</ele>
        <time>2013-03-03T10:15:55Z</time>
      </trkpt>
      <trkpt lat="45.38387" lon="5.81486">
        <ele>1674</ele>
        <time>2013-03-03T10:16:05Z</time>
      </trkpt>
      <trkpt lat="45.3838" lon="5.81494">
        <ele>1675.6</ele>
        <time>2013-03-03T10:16:14Z</time>
      </trkpt>
      <trkpt lat="45.3838" lon="5.81494">
        <ele>1675.8</ele>
        <time>2013-03-03T10:16:15Z</time>
      </trkpt>
      <trkpt lat="45.38373" lon="5.81517">
        <ele>1682.8</ele>
        <time>2013-03-03T10:16:50Z</time>
      </trkpt>
      <trkpt lat="45.38375" lon="5.81529">
        <ele>1685.3</ele>
        <time>2013-03-03T10:17:06Z</time>
      </trkpt>
      <trkpt lat="45.38368" lon="5.81537">
        <ele>1691</ele>
        <time>2013-03-03T10:17:23Z</time>
      </trkpt>
      <trkpt lat="45.38367" lon="5.81538">
        <ele>1691.5</ele>
        <time>2013-03-03T10:17:24Z</time>
      </trkpt>
      <trkpt lat="45.38365" lon="5.81552">
        <ele>1697.6</ele>
        <time>2013-03-03T10:18:03Z</time>
      </trkpt>
      <trkpt lat="45.38372" lon="5.81557">
        <ele>1701.3</ele>
        <time>2013-03-03T10:18:21Z</time>
      </trkpt>
      <trkpt lat="45.3838" lon="5.81563">
        <ele>1703.6</ele>
        <time>2013-03-03T10:18:34Z</time>
      </trkpt>
      <trkpt lat="45.38381" lon="5.81563">
        <ele>1703.9</ele>
        <time>2013-03-03T10:18:35Z</time>
      </trkpt>
      <trkpt lat="45.38385" lon="5.81585">
        <ele>1715.1</ele>
        <time>2013-03-03T10:19:49Z</time>
      </trkpt>
      <trkpt lat="45.38386" lon="5.81586">
        <ele>1714.5</ele>
        <time>2013-03-03T10:19:50Z</time>
      </trkpt>
      <trkpt lat="45.3839" lon="5.81608">
        <ele>1719.9</ele>
        <time>2013-03-03T10:20:24Z</time>
      </trkpt>
      <trkpt lat="45.38381" lon="5.81608">
        <ele>1722.7</ele>
        <time>2013-03-03T10:20:36Z</time>
      </trkpt>
      <trkpt lat="45.38373" lon="5.81608">
        <ele>1723.8</ele>
        <time>2013-03-03T10:20:45Z</time>
      </trkpt>
      <trkpt lat="45.38369" lon="5.8162">
        <ele>1728.5</ele>
        <time>2013-03-03T10:21:10Z</time>
      </trkpt>
      <trkpt lat="45.38369" lon="5.8162">
        <ele>1728.8</ele>
        <time>2013-03-03T10:21:11Z</time>
      </trkpt>
      <trkpt lat="45.38372" lon="5.81644">
        <ele>1734.1</ele>
        <time>2013-03-03T10:21:46Z</time>
      </trkpt>
      <trkpt lat="45.3837" lon="5.81656">
        <ele>1738.7</ele>
        <time>2013-03-03T10:22:15Z</time>
      </trkpt>
      <trkpt lat="45.38369" lon="5.81656">
        <ele>1739.3</ele>
        <time>2013-03-03T10:22:16Z</time>
      </trkpt>
      <trkpt lat="45.38353" lon="5.81649">
        <ele>1744.6</ele>
        <time>2013-03-03T10:22:40Z</time>
      </trkpt>
      <trkpt lat="45.38345" lon="5.81644">
        <ele>1746.5</ele>
        <time>2013-03-03T10:22:58Z</time>
      </trkpt>
      <trkpt lat="45.38336" lon="5.81646">
        <ele>1748.6</ele>
        <time>2013-03-03T10:23:15Z</time>
      </trkpt>
      <trkpt lat="45.38328" lon="5.81642">
        <ele>1752</ele>
        <time>2013-03-03T10:23:30Z</time>
      </trkpt>
      <trkpt lat="45.38328" lon="5.81641">
        <ele>1752</ele>
        <time>2013-03-03T10:23:31Z</time>
      </trkpt>
      <trkpt lat="45.38316" lon="5.81623">
        <ele>1758.3</ele>
        <time>2013-03-03T10:24:02Z</time>
      </trkpt>
      <trkpt lat="45.38309" lon="5.81617">
        <ele>1761</ele>
        <time>2013-03-03T10:24:15Z</time>
      </trkpt>
      <trkpt lat="45.38302" lon="5.8161">
        <ele>1762.8</ele>
        <time>2013-03-03T10:24:25Z</time>
      </trkpt>
      <trkpt lat="45.38304" lon="5.81622">
        <ele>1765.9</ele>
        <time>2013-03-03T10:24:54Z</time>
      </trkpt>
      <trkpt lat="45.38304" lon="5.81623">
        <ele>1766.1</ele>
        <time>2013-03-03T10:24:55Z</time>
      </trkpt>
      <trkpt lat="45.38299" lon="5.81628">
        <ele>1771.1</ele>
        <time>2013-03-03T10:25:30Z</time>
      </trkpt>
      <trkpt lat="45.38291" lon="5.81622">
        <ele>1775.3</ele>
        <time>2013-03-03T10:25:43Z</time>
      </trkpt>
      <trkpt lat="45.38284" lon="5.81615">
        <ele>1775</ele>
        <time>2013-03-03T10:25:56Z</time>
      </trkpt>
      <trkpt lat="45.38284" lon="5.81614">
        <ele>1775.5</ele>
        <time>2013-03-03T10:25:57Z</time>
      </trkpt>
      <trkpt lat="45.38271" lon="5.81598">
        <ele>1778.6</ele>
        <time>2013-03-03T10:26:25Z</time>
      </trkpt>
      <trkpt lat="45.38264" lon="5.81591">
        <ele>1781.2</ele>
        <time>2013-03-03T10:26:38Z</time>
      </trkpt>
      <trkpt lat="45.38258" lon="5.81582">
        <ele>1784.3</ele>
        <time>2013-03-03T10:26:51Z</time>
      </trkpt>
      <trkpt lat="45.38251" lon="5.81574">
        <ele>1785.3</ele>
        <time>2013-03-03T10:27:04Z</time>
      </trkpt>
      <trkpt lat="45.38251" lon="5.81574">
        <ele>1785.5</ele>
        <time>2013-03-03T10:27:05Z</time>
      </trkpt>
      <trkpt lat="45.38247" lon="5.81577">
        <ele>1790.6</ele>
        <time>2013-03-03T10:27:35Z</time>
      </trkpt>
      <trkpt lat="45.38248" lon="5.81589">
        <ele>1792.3</ele>
        <time>2013-03-03T10:27:48Z</time>
      </trkpt>
      <trkpt lat="45.38248" lon="5.81601">
        <ele>1795.4</ele>
        <time>2013-03-03T10:28:01Z</time>
      </trkpt>
      <trkpt lat="45.3825" lon="5.81613">
        <ele>1796.5</ele>
        <time>2013-03-03T10:28:14Z</time>
      </trkpt>
      <trkpt lat="45.3825" lon="5.81614">
        <ele>1796.4</ele>
        <time>2013-03-03T10:28:15Z</time>
      </trkpt>
      <trkpt lat="45.38233" lon="5.81618">
        <ele>1802.7</ele>
        <time>2013-03-03T10:29:05Z</time>
      </trkpt>
      <trkpt lat="45.38225" lon="5.81614">
        <ele>1804</ele>
        <time>2013-03-03T10:29:17Z</time>
      </trkpt>
      <trkpt lat="45.38225" lon="5.81613">
        <ele>1804</ele>
        <time>2013-03-03T10:29:18Z</time>
      </trkpt>
      <trkpt lat="45.3821" lon="5.816">
        <ele>1809.4</ele>
        <time>2013-03-03T10:29:44Z</time>
      </trkpt>
      <trkpt lat="45.38202" lon="5.81595">
        <ele>1811.9</ele>
        <time>2013-03-03T10:29:56Z</time>
      </trkpt>
      <trkpt lat="45.38195" lon="5.8159">
        <ele>1813.2</ele>
        <time>2013-03-03T10:30:08Z</time>
      </trkpt>
      <trkpt lat="45.38188" lon="5.81584">
        <ele>1816.9</ele>
        <time>2013-03-03T10:30:20Z</time>
      </trkpt>
      <trkpt lat="45.38187" lon="5.81584">
        <ele>1817.2</ele>
        <time>2013-03-03T10:30:21Z</time>
      </trkpt>
      <trkpt lat="45.38171" lon="5.81579">
        <ele>1819.4</ele>
        <time>2013-03-03T10:30:57Z</time>
      </trkpt>
      <trkpt lat="45.38165" lon="5.81571">
        <ele>1823.5</ele>
        <time>2013-03-03T10:31:13Z</time>
      </trkpt>
      <trkpt lat="45.38158" lon="5.81563">
        <ele>1826.5</ele>
        <time>2013-03-03T10:31:29Z</time>
      </trkpt>
      <trkpt lat="45.38157" lon="5.81563">
        <ele>1826.7</ele>
        <time>2013-03-03T10:31:30Z</time>
      </trkpt>
      <trkpt lat="45.38143" lon="5.81552">
        <ele>1831.2</ele>
        <time>2013-03-03T10:31:56Z</time>
      </trkpt>
      <trkpt lat="45.38134" lon="5.81549">
        <ele>1834.5</ele>
        <time>2013-03-03T10:32:09Z</time>
      </trkpt>
      <trkpt lat="45.38126" lon="5.8155">
        <ele>1837</ele>
        <time>2013-03-03T10:32:21Z</time>
      </trkpt>
      <trkpt lat="45.38117" lon="5.81551">
        <ele>1838.2</ele>
        <time>2013-03-03T10:32:35Z</time>
      </trkpt>
      <trkpt lat="45.38117" lon="5.81551">
        <ele>1838.3</ele>
        <time>2013-03-03T10:32:36Z</time>
      </trkpt>
      <trkpt lat="45.38105" lon="5.81568">
        <ele>1844.3</ele>
        <time>2013-03-03T10:33:07Z</time>
      </trkpt>
      <trkpt lat="45.38097" lon="5.81568">
        <ele>1845.1</ele>
        <time>2013-03-03T10:34:07Z</time>
      </trkpt>
      <trkpt lat="45.38096" lon="5.81567">
        <ele>1845.6</ele>
        <time>2013-03-03T10:34:08Z</time>
      </trkpt>
      <trkpt lat="45.3808" lon="5.8156">
        <ele>1849.7</ele>
        <time>2013-03-03T10:34:30Z</time>
      </trkpt>
      <trkpt lat="45.38072" lon="5.81559">
        <ele>1849.9</ele>
        <time>2013-03-03T10:34:40Z</time>
      </trkpt>
      <trkpt lat="45.38064" lon="5.81556">
        <ele>1853.5</ele>
        <time>2013-03-03T10:34:50Z</time>
      </trkpt>
      <trkpt lat="45.38055" lon="5.81553">
        <ele>1855</ele>
        <time>2013-03-03T10:35:01Z</time>
      </trkpt>
      <trkpt lat="45.38047" lon="5.81551">
        <ele>1855.6</ele>
        <time>2013-03-03T10:35:12Z</time>
      </trkpt>
      <trkpt lat="45.38046" lon="5.8155">
        <ele>1855.2</ele>
        <time>2013-03-03T10:35:13Z</time>
      </trkpt>
      <trkpt lat="45.38031" lon="5.81542">
        <ele>1861.4</ele>
        <time>2013-03-03T10:35:34Z</time>
      </trkpt>
      <trkpt lat="45.38022" lon="5.81539">
        <ele>1859.6</ele>
        <time>2013-03-03T10:35:43Z</time>
      </trkpt>
      <trkpt lat="45.38014" lon="5.81536">
        <ele>1862.1</ele>
        <time>2013-03-03T10:35:53Z</time>
      </trkpt>
      <trkpt lat="45.38006" lon="5.81531">
        <ele>1862.8</ele>
        <time>2013-03-03T10:36:03Z</time>
      </trkpt>
      <trkpt lat="45.37999" lon="5.81526">
        <ele>1864.2</ele>
        <time>2013-03-03T10:36:14Z</time>
      </trkpt>
      <trkpt lat="45.37998" lon="5.81526">
        <ele>1864.5</ele>
        <time>2013-03-03T10:36:15Z</time>
      </trkpt>
      <trkpt lat="45.37982" lon="5.81521">
        <ele>1863.4</ele>
        <time>2013-03-03T10:36:33Z</time>
      </trkpt>
      <trkpt lat="45.37974" lon="5.81517">
        <ele>1862.7</ele>
        <time>2013-03-03T10:36:39Z</time>
      </trkpt>
      <trkpt lat="45.37966" lon="5.81512">
        <ele>1863.8</ele>
        <time>2013-03-03T10:36:50Z</time>
      </trkpt>
      <trkpt lat="45.37958" lon="5.81507">
        <ele>1864.4</ele>
        <time>2013-03-03T10:37:01Z</time>
      </trkpt>
      <trkpt lat="45.3795" lon="5.81503">
        <ele>1866.3</ele>
        <time>2013-03-03T10:37:12Z</time>
      </trkpt>
      <trkpt lat="45.37942" lon="5.81499">
        <ele>1868.4</ele>
        <time>2013-03-03T10:37:22Z</time>
      </trkpt>
      <trkpt lat="45.37942" lon="5.81499">
        <ele>1868</ele>
        <time>2013-03-03T10:37:23Z</time>
      </trkpt>
      <trkpt lat="45.37926" lon="5.81491">
        <ele>1869.1</ele>
        <time>2013-03-03T10:37:48Z</time>
      </trkpt>
      <trkpt lat="45.37918" lon="5.81486">
        <ele>1868.8</ele>
        <time>2013-03-03T10:37:57Z</time>
      </trkpt>
      <trkpt lat="45.37909" lon="5.81482">
        <ele>1868.5</ele>
        <time>2013-03-03T10:38:05Z</time>
      </trkpt>
      <trkpt lat="45.37901" lon="5.81479">
        <ele>1868.5</ele>
        <time>2013-03-03T10:38:16Z</time>
      </trkpt>
      <trkpt lat="45.37892" lon="5.81475">
        <ele>1868.5</ele>
        <time>2013-03-03T10:38:25Z</time>
      </trkpt>
      <trkpt lat="45.37891" lon="5.81474">
        <ele>1868.6</ele>
        <time>2013-03-03T10:38:26Z</time>
      </trkpt>
      <trkpt lat="45.37875" lon="5.8147">
        <ele>1870</ele>
        <time>2013-03-03T10:38:45Z</time>
      </trkpt>
      <trkpt lat="45.37867" lon="5.81472">
        <ele>1870.2</ele>
        <time>2013-03-03T10:43:57Z</time>
      </trkpt>
      <trkpt lat="45.37866" lon="5.81472">
        <ele>1870.1</ele>
        <time>2013-03-03T10:43:58Z</time>
      </trkpt>
      <trkpt lat="45.3785" lon="5.81473">
        <ele>1872.2</ele>
        <time>2013-03-03T10:44:17Z</time>
      </trkpt>
      <trkpt lat="45.37841" lon="5.81474">
        <ele>1872.4</ele>
        <time>2013-03-03T10:44:28Z</time>
      </trkpt>
      <trkpt lat="45.37833" lon="5.81475">
        <ele>1874.6</ele>
        <time>2013-03-03T10:44:37Z</time>
      </trkpt>
      <trkpt lat="45.37824" lon="5.81476">
        <ele>1875.6</ele>
        <time>2013-03-03T10:44:47Z</time>
      </trkpt>
      <trkpt lat="45.37816" lon="5.81477">
        <ele>1877.7</ele>
        <time>2013-03-03T10:44:57Z</time>
      </trkpt>
      <trkpt lat="45.37807" lon="5.81478">
        <ele>1877.8</ele>
        <time>2013-03-03T10:45:06Z</time>
      </trkpt>
      <trkpt lat="45.37806" lon="5.81478">
        <ele>1878.5</ele>
        <time>2013-03-03T10:45:07Z</time>
      </trkpt>
      <trkpt lat="45.37791" lon="5.8148">
        <ele>1881.4</ele>
        <time>2013-03-03T10:45:25Z</time>
      </trkpt>
      <trkpt lat="45.37782" lon="5.8148">
        <ele>1882.7</ele>
        <time>2013-03-03T10:45:35Z</time>
      </trkpt>
      <trkpt lat="45.37774" lon="5.81481">
        <ele>1884.2</ele>
        <time>2013-03-03T10:45:51Z</time>
      </trkpt>
      <trkpt lat="45.37765" lon="5.81481">
        <ele>1886.1</ele>
        <time>2013-03-03T10:46:02Z</time>
      </trkpt>
      <trkpt lat="45.37756" lon="5.81481">
        <ele>1888.2</ele>
        <time>2013-03-03T10:46:15Z</time>
      </trkpt>
      <trkpt lat="45.37755" lon="5.81481">
        <ele>1888.1</ele>
        <time>2013-03-03T10:46:16Z</time>
      </trkpt>
      <trkpt lat="45.37739" lon="5.81478">
        <ele>1893</ele>
        <time>2013-03-03T10:46:41Z</time>
      </trkpt>
      <trkpt lat="45.37731" lon="5.81476">
        <ele>1895.4</ele>
        <time>2013-03-03T10:46:55Z</time>
      </trkpt>
      <trkpt lat="45.37722" lon="5.81474">
        <ele>1896.8</ele>
        <time>2013-03-03T10:47:08Z</time>
      </trkpt>
      <trkpt lat="45.37714" lon="5.81472">
        <ele>1898.6</ele>
        <time>2013-03-03T10:47:19Z</time>
      </trkpt>
      <trkpt lat="45.37713" lon="5.81472">
        <ele>1898.9</ele>
        <time>2013-03-03T10:47:20Z</time>
      </trkpt>
      <trkpt lat="45.37698" lon="5.81464">
        <ele>1900.7</ele>
        <time>2013-03-03T10:47:39Z</time>
      </trkpt>
      <trkpt lat="45.37691" lon="5.81456">
        <ele>1899.8</ele>
        <time>2013-03-03T10:47:49Z</time>
      </trkpt>
      <trkpt lat="45.37685" lon="5.81448">
        <ele>1901.8</ele>
        <time>2013-03-03T10:47:59Z</time>
      </trkpt>
      <trkpt lat="45.37678" lon="5.8144">
        <ele>1902.4</ele>
        <time>2013-03-03T10:48:12Z</time>
      </trkpt>
      <trkpt lat="45.37672" lon="5.81431">
        <ele>1904.7</ele>
        <time>2013-03-03T10:48:26Z</time>
      </trkpt>
      <trkpt lat="45.37671" lon="5.81431">
        <ele>1904.6</ele>
        <time>2013-03-03T10:48:27Z</time>
      </trkpt>
      <trkpt lat="45.37657" lon="5.81419">
        <ele>1908.4</ele>
        <time>2013-03-03T10:48:50Z</time>
      </trkpt>
      <trkpt lat="45.3765" lon="5.81413">
        <ele>1910.2</ele>
        <time>2013-03-03T10:49:07Z</time>
      </trkpt>
      <trkpt lat="45.37641" lon="5.81413">
        <ele>1912.1</ele>
        <time>2013-03-03T10:49:39Z</time>
      </trkpt>
      <trkpt lat="45.37641" lon="5.81414">
        <ele>1912.4</ele>
        <time>2013-03-03T10:49:40Z</time>
      </trkpt>
      <trkpt lat="45.37637" lon="5.814">
        <ele>1919.8</ele>
        <time>2013-03-03T10:50:54Z</time>
      </trkpt>
      <trkpt lat="45.37636" lon="5.814">
        <ele>1919.7</ele>
        <time>2013-03-03T10:50:55Z</time>
      </trkpt>
      <trkpt lat="45.3762" lon="5.81396">
        <ele>1923.6</ele>
        <time>2013-03-03T10:51:17Z</time>
      </trkpt>
      <trkpt lat="45.37612" lon="5.81392">
        <ele>1925.8</ele>
        <time>2013-03-03T10:51:53Z</time>
      </trkpt>
      <trkpt lat="45.37604" lon="5.81387">
        <ele>1929.5</ele>
        <time>2013-03-03T10:52:06Z</time>
      </trkpt>
      <trkpt lat="45.37603" lon="5.81387">
        <ele>1929.4</ele>
        <time>2013-03-03T10:52:07Z</time>
      </trkpt>
      <trkpt lat="45.37587" lon="5.8138">
        <ele>1933.2</ele>
        <time>2013-03-03T10:52:30Z</time>
      </trkpt>
      <trkpt lat="45.37579" lon="5.81379">
        <ele>1935</ele>
        <time>2013-03-03T10:52:42Z</time>
      </trkpt>
      <trkpt lat="45.3757" lon="5.81376">
        <ele>1936.7</ele>
        <time>2013-03-03T10:52:54Z</time>
      </trkpt>
      <trkpt lat="45.37561" lon="5.81374">
        <ele>1940.6</ele>
        <time>2013-03-03T10:53:06Z</time>
      </trkpt>
      <trkpt lat="45.37553" lon="5.81375">
        <ele>1941</ele>
        <time>2013-03-03T10:53:17Z</time>
      </trkpt>
      <trkpt lat="45.37552" lon="5.81375">
        <ele>1940.9</ele>
        <time>2013-03-03T10:53:18Z</time>
      </trkpt>
      <trkpt lat="45.37535" lon="5.81375">
        <ele>1944</ele>
        <time>2013-03-03T10:53:40Z</time>
      </trkpt>
      <trkpt lat="45.37527" lon="5.81376">
        <ele>1944.4</ele>
        <time>2013-03-03T10:53:51Z</time>
      </trkpt>
      <trkpt lat="45.37518" lon="5.81375">
        <ele>1947.9</ele>
        <time>2013-03-03T10:54:02Z</time>
      </trkpt>
      <trkpt lat="45.37509" lon="5.81374">
        <ele>1949.7</ele>
        <time>2013-03-03T10:54:09Z</time>
      </trkpt>
      <trkpt lat="45.37511" lon="5.81362">
        <ele>1951.2</ele>
        <time>2013-03-03T10:54:32Z</time>
      </trkpt>
      <trkpt lat="45.37512" lon="5.81361">
        <ele>1951.4</ele>
        <time>2013-03-03T10:54:33Z</time>
      </trkpt>
      <trkpt lat="45.3751" lon="5.8134">
        <ele>1954.5</ele>
        <time>2013-03-03T10:54:53Z</time>
      </trkpt>
      <trkpt lat="45.37503" lon="5.81332">
        <ele>1954.5</ele>
        <time>2013-03-03T10:55:04Z</time>
      </trkpt>
      <trkpt lat="45.37495" lon="5.81329">
        <ele>1956.9</ele>
        <time>2013-03-03T10:55:15Z</time>
      </trkpt>
      <trkpt lat="45.37486" lon="5.81327">
        <ele>1956.8</ele>
        <time>2013-03-03T10:55:26Z</time>
      </trkpt>
      <trkpt lat="45.37477" lon="5.81327">
        <ele>1957.9</ele>
        <time>2013-03-03T10:55:41Z</time>
      </trkpt>
      <trkpt lat="45.37477" lon="5.81327">
        <ele>1958.2</ele>
        <time>2013-03-03T10:55:42Z</time>
      </trkpt>
      <trkpt lat="45.37461" lon="5.81327">
        <ele>1959.6</ele>
        <time>2013-03-03T10:56:04Z</time>
      </trkpt>
      <trkpt lat="45.37453" lon="5.81327">
        <ele>1962</ele>
        <time>2013-03-03T10:56:13Z</time>
      </trkpt>
      <trkpt lat="45.37445" lon="5.81326">
        <ele>1961.3</ele>
        <time>2013-03-03T10:56:21Z</time>
      </trkpt>
      <trkpt lat="45.37436" lon="5.81325">
        <ele>1960.9</ele>
        <time>2013-03-03T10:56:29Z</time>
      </trkpt>
      <trkpt lat="45.37428" lon="5.81324">
        <ele>1961.4</ele>
        <time>2013-03-03T10:56:37Z</time>
      </trkpt>
      <trkpt lat="45.3742" lon="5.81322">
        <ele>1961.3</ele>
        <time>2013-03-03T10:56:45Z</time>
      </trkpt>
      <trkpt lat="45.37418" lon="5.81322">
        <ele>1960.8</ele>
        <time>2013-03-03T10:56:46Z</time>
      </trkpt>
      <trkpt lat="45.37402" lon="5.81319">
        <ele>1961</ele>
        <time>2013-03-03T10:57:13Z</time>
      </trkpt>
      <trkpt lat="45.37394" lon="5.81316">
        <ele>1961.5</ele>
        <time>2013-03-03T10:57:21Z</time>
      </trkpt>
      <trkpt lat="45.37385" lon="5.81315">
        <ele>1962.4</ele>
        <time>2013-03-03T10:57:30Z</time>
      </trkpt>
      <trkpt lat="45.37376" lon="5.81312">
        <ele>1962</ele>
        <time>2013-03-03T10:57:39Z</time>
      </trkpt>
      <trkpt lat="45.37368" lon="5.81309">
        <ele>1963.5</ele>
        <time>2013-03-03T10:57:48Z</time>
      </trkpt>
      <trkpt lat="45.37367" lon="5.81309">
        <ele>1963.2</ele>
        <time>2013-03-03T10:57:49Z</time>
      </trkpt>
      <trkpt lat="45.37352" lon="5.81303">
        <ele>1963.2</ele>
        <time>2013-03-03T10:58:07Z</time>
      </trkpt>
      <trkpt lat="45.37343" lon="5.81299">
        <ele>1964.8</ele>
        <time>2013-03-03T10:58:18Z</time>
      </trkpt>
      <trkpt lat="45.37336" lon="5.81294">
        <ele>1966.3</ele>
        <time>2013-03-03T10:58:29Z</time>
      </trkpt>
      <trkpt lat="45.37327" lon="5.81289">
        <ele>1968.6</ele>
        <time>2013-03-03T10:58:54Z</time>
      </trkpt>
      <trkpt lat="45.37327" lon="5.81289">
        <ele>1968.8</ele>
        <time>2013-03-03T10:58:55Z</time>
      </trkpt>
      <trkpt lat="45.37311" lon="5.81281">
        <ele>1970.8</ele>
        <time>2013-03-03T10:59:19Z</time>
      </trkpt>
      <trkpt lat="45.37303" lon="5.81279">
        <ele>1971.7</ele>
        <time>2013-03-03T10:59:30Z</time>
      </trkpt>
      <trkpt lat="45.37294" lon="5.81277">
        <ele>1974.1</ele>
        <time>2013-03-03T10:59:58Z</time>
      </trkpt>
      <trkpt lat="45.37294" lon="5.81277">
        <ele>1974.1</ele>
        <time>2013-03-03T10:59:59Z</time>
      </trkpt>
      <trkpt lat="45.37277" lon="5.81275">
        <ele>1979.7</ele>
        <time>2013-03-03T11:00:32Z</time>
      </trkpt>
      <trkpt lat="45.37268" lon="5.81274">
        <ele>1983.9</ele>
        <time>2013-03-03T11:00:46Z</time>
      </trkpt>
      <trkpt lat="45.3726" lon="5.81273">
        <ele>1986.4</ele>
        <time>2013-03-03T11:01:11Z</time>
      </trkpt>
      <trkpt lat="45.37259" lon="5.81273">
        <ele>1986.9</ele>
        <time>2013-03-03T11:01:12Z</time>
      </trkpt>
      <trkpt lat="45.37244" lon="5.81266">
        <ele>1992.8</ele>
        <time>2013-03-03T11:01:40Z</time>
      </trkpt>
      <trkpt lat="45.37236" lon="5.8126">
        <ele>1993.5</ele>
        <time>2013-03-03T11:01:54Z</time>
      </trkpt>
      <trkpt lat="45.37229" lon="5.81254">
        <ele>1997.6</ele>
        <time>2013-03-03T11:02:07Z</time>
      </trkpt>
      <trkpt lat="45.37222" lon="5.81247">
        <ele>1999.4</ele>
        <time>2013-03-03T11:02:22Z</time>
      </trkpt>
      <trkpt lat="45.37221" lon="5.81246">
        <ele>1999.4</ele>
        <time>2013-03-03T11:02:23Z</time>
      </trkpt>
      <trkpt lat="45.37209" lon="5.81229">
        <ele>2003.2</ele>
        <time>2013-03-03T11:02:50Z</time>
      </trkpt>
      <trkpt lat="45.37204" lon="5.8122">
        <ele>2007.2</ele>
        <time>2013-03-03T11:03:15Z</time>
      </trkpt>
      <trkpt lat="45.37198" lon="5.81211">
        <ele>2010.1</ele>
        <time>2013-03-03T11:03:28Z</time>
      </trkpt>
      <trkpt lat="45.37198" lon="5.8121">
        <ele>2010.4</ele>
        <time>2013-03-03T11:03:29Z</time>
      </trkpt>
      <trkpt lat="45.37185" lon="5.81198">
        <ele>2015.5</ele>
        <time>2013-03-03T11:03:57Z</time>
      </trkpt>
      <trkpt lat="45.37176" lon="5.81196">
        <ele>2017.6</ele>
        <time>2013-03-03T11:04:10Z</time>
      </trkpt>
      <trkpt lat="45.37168" lon="5.81198">
        <ele>2017.3</ele>
        <time>2013-03-03T11:04:21Z</time>
      </trkpt>
      <trkpt lat="45.37159" lon="5.81199">
        <ele>2017.7</ele>
        <time>2013-03-03T11:04:30Z</time>
      </trkpt>
      <trkpt lat="45.37158" lon="5.81199">
        <ele>2017.3</ele>
        <time>2013-03-03T11:04:31Z</time>
      </trkpt>
      <trkpt lat="45.37142" lon="5.81202">
        <ele>2018</ele>
        <time>2013-03-03T11:04:50Z</time>
      </trkpt>
      <trkpt lat="45.37133" lon="5.81204">
        <ele>2018.6</ele>
        <time>2013-03-03T11:05:01Z</time>
      </trkpt>
      <trkpt lat="45.37124" lon="5.81206">
        <ele>2019.8</ele>
        <time>2013-03-03T11:05:11Z</time>
      </trkpt>
      <trkpt lat="45.37115" lon="5.81206">
        <ele>2021.3</ele>
        <time>2013-03-03T11:05:22Z</time>
      </trkpt>
      <trkpt lat="45.37106" lon="5.81206">
        <ele>2022.8</ele>
        <time>2013-03-03T11:05:32Z</time>
      </trkpt>
      <trkpt lat="45.37106" lon="5.81206">
        <ele>2022.8</ele>
        <time>2013-03-03T11:05:33Z</time>
      </trkpt>
      <trkpt lat="45.37089" lon="5.81208">
        <ele>2024.7</ele>
        <time>2013-03-03T11:05:52Z</time>
      </trkpt>
      <trkpt lat="45.37081" lon="5.81209">
        <ele>2024.8</ele>
        <time>2013-03-03T11:06:03Z</time>
      </trkpt>
      <trkpt lat="45.37072" lon="5.8121">
        <ele>2024.3</ele>
        <time>2013-03-03T11:06:15Z</time>
      </trkpt>
      <trkpt lat="45.37063" lon="5.8121">
        <ele>2025.3</ele>
        <time>2013-03-03T11:10:44Z</time>
      </trkpt>
      <trkpt lat="45.37063" lon="5.8121">
        <ele>2025.1</ele>
        <time>2013-03-03T11:10:45Z</time>
      </trkpt>
      <trkpt lat="45.37056" lon="5.81202">
        <ele>2026</ele>
        <time>2013-03-03T11:23:25Z</time>
      </trkpt>
      <trkpt lat="45.37047" lon="5.81207">
        <ele>2030.3</ele>
        <time>2013-03-03T11:25:16Z</time>
      </trkpt>
      <trkpt lat="45.37039" lon="5.81203">
        <ele>2029.8</ele>
        <time>2013-03-03T11:29:38Z</time>
      </trkpt>
      <trkpt lat="45.37029" lon="5.81203">
        <ele>2030.6</ele>
        <time>2013-03-03T11:36:10Z</time>
      </trkpt>
      <trkpt lat="45.37047" lon="5.81211">
        <ele>2029.7</ele>
        <time>2013-03-03T11:40:06Z</time>
      </trkpt>
      <trkpt lat="45.37048" lon="5.81212">
        <ele>2029.7</ele>
        <time>2013-03-03T11:40:07Z</time>
      </trkpt>
      <trkpt lat="45.37063" lon="5.81211">
        <ele>2025.8</ele>
        <time>2013-03-03T11:40:34Z</time>
      </trkpt>
      <trkpt lat="45.37072" lon="5.81214">
        <ele>2024.8</ele>
        <time>2013-03-03T11:42:57Z</time>
      </trkpt>
      <trkpt lat="45.37073" lon="5.81214">
        <ele>2024.8</ele>
        <time>2013-03-03T11:42:58Z</time>
      </trkpt>
      <trkpt lat="45.37087" lon="5.81211">
        <ele>2024.9</ele>
        <time>2013-03-03T11:43:06Z</time>
      </trkpt>
      <trkpt lat="45.37092" lon="5.81212">
        <ele>2024.8</ele>
        <time>2013-03-03T11:43:07Z</time>
      </trkpt>
      <trkpt lat="45.37097" lon="5.81213">
        <ele>2024.2</ele>
        <time>2013-03-03T11:43:08Z</time>
      </trkpt>
      <trkpt lat="45.37103" lon="5.81214">
        <ele>2023.7</ele>
        <time>2013-03-03T11:43:09Z</time>
      </trkpt>
      <trkpt lat="45.37109" lon="5.81216">
        <ele>2023.4</ele>
        <time>2013-03-03T11:43:10Z</time>
      </trkpt>
      <trkpt lat="45.37116" lon="5.81218">
        <ele>2022.7</ele>
        <time>2013-03-03T11:43:11Z</time>
      </trkpt>
      <trkpt lat="45.37121" lon="5.81218">
        <ele>2022.3</ele>
        <time>2013-03-03T11:43:12Z</time>
      </trkpt>
      <trkpt lat="45.37127" lon="5.81219">
        <ele>2021.8</ele>
        <time>2013-03-03T11:43:13Z</time>
      </trkpt>
      <trkpt lat="45.37132" lon="5.81219">
        <ele>2021.5</ele>
        <time>2013-03-03T11:43:14Z</time>
      </trkpt>
      <trkpt lat="45.37138" lon="5.8122">
        <ele>2021.3</ele>
        <time>2013-03-03T11:43:15Z</time>
      </trkpt>
      <trkpt lat="45.37143" lon="5.81223">
        <ele>2020.9</ele>
        <time>2013-03-03T11:43:16Z</time>
      </trkpt>
      <trkpt lat="45.37146" lon="5.81228">
        <ele>2020.7</ele>
        <time>2013-03-03T11:43:17Z</time>
      </trkpt>
      <trkpt lat="45.3715" lon="5.81233">
        <ele>2019.7</ele>
        <time>2013-03-03T11:43:18Z</time>
      </trkpt>
      <trkpt lat="45.37155" lon="5.81235">
        <ele>2018.9</ele>
        <time>2013-03-03T11:43:19Z</time>
      </trkpt>
      <trkpt lat="45.37161" lon="5.81234">
        <ele>2018.3</ele>
        <time>2013-03-03T11:43:20Z</time>
      </trkpt>
      <trkpt lat="45.37165" lon="5.81236">
        <ele>2017.8</ele>
        <time>2013-03-03T11:43:21Z</time>
      </trkpt>
      <trkpt lat="45.3717" lon="5.81239">
        <ele>2017.4</ele>
        <time>2013-03-03T11:43:22Z</time>
      </trkpt>
      <trkpt lat="45.37175" lon="5.81239">
        <ele>2016.4</ele>
        <time>2013-03-03T11:43:23Z</time>
      </trkpt>
      <trkpt lat="45.3718" lon="5.8124">
        <ele>2015.7</ele>
        <time>2013-03-03T11:43:24Z</time>
      </trkpt>
      <trkpt lat="45.37185" lon="5.81244">
        <ele>2014.1</ele>
        <time>2013-03-03T11:43:25Z</time>
      </trkpt>
      <trkpt lat="45.37189" lon="5.81245">
        <ele>2012.9</ele>
        <time>2013-03-03T11:43:26Z</time>
      </trkpt>
      <trkpt lat="45.37195" lon="5.81246">
        <ele>2011.7</ele>
        <time>2013-03-03T11:43:27Z</time>
      </trkpt>
      <trkpt lat="45.37199" lon="5.8125">
        <ele>2010.8</ele>
        <time>2013-03-03T11:43:28Z</time>
      </trkpt>
      <trkpt lat="45.37205" lon="5.81251">
        <ele>2010.1</ele>
        <time>2013-03-03T11:43:29Z</time>
      </trkpt>
      <trkpt lat="45.37211" lon="5.81253">
        <ele>2008.7</ele>
        <time>2013-03-03T11:43:30Z</time>
      </trkpt>
      <trkpt lat="45.37217" lon="5.81255">
        <ele>2007.6</ele>
        <time>2013-03-03T11:43:31Z</time>
      </trkpt>
      <trkpt lat="45.37225" lon="5.81259">
        <ele>2004.9</ele>
        <time>2013-03-03T11:43:33Z</time>
      </trkpt>
      <trkpt lat="45.37231" lon="5.81259">
        <ele>1996.5</ele>
        <time>2013-03-03T11:44:32Z</time>
      </trkpt>
      <trkpt lat="45.37238" lon="5.8126">
        <ele>1996.7</ele>
        <time>2013-03-03T11:44:33Z</time>
      </trkpt>
      <trkpt lat="45.37261" lon="5.81253">
        <ele>2000</ele>
        <time>2013-03-03T11:44:36Z</time>
      </trkpt>
      <trkpt lat="45.37252" lon="5.8125">
        <ele>2000.1</ele>
        <time>2013-03-03T11:44:41Z</time>
      </trkpt>
      <trkpt lat="45.37245" lon="5.81251">
        <ele>1998.5</ele>
        <time>2013-03-03T11:44:44Z</time>
      </trkpt>
      <trkpt lat="45.37237" lon="5.81252">
        <ele>2003.7</ele>
        <time>2013-03-03T11:44:47Z</time>
      </trkpt>
      <trkpt lat="45.37223" lon="5.8127">
        <ele>2000</ele>
        <time>2013-03-03T11:44:50Z</time>
      </trkpt>
      <trkpt lat="45.3723" lon="5.8127">
        <ele>1996.5</ele>
        <time>2013-03-03T11:45:08Z</time>
      </trkpt>
      <trkpt lat="45.37238" lon="5.81269">
        <ele>1995.8</ele>
        <time>2013-03-03T11:45:10Z</time>
      </trkpt>
      <trkpt lat="45.37243" lon="5.81276">
        <ele>1995.2</ele>
        <time>2013-03-03T11:45:12Z</time>
      </trkpt>
      <trkpt lat="45.37247" lon="5.81277">
        <ele>1994.9</ele>
        <time>2013-03-03T11:45:13Z</time>
      </trkpt>
      <trkpt lat="45.37252" lon="5.81279">
        <ele>1994.1</ele>
        <time>2013-03-03T11:45:14Z</time>
      </trkpt>
      <trkpt lat="45.37257" lon="5.8128">
        <ele>1993.4</ele>
        <time>2013-03-03T11:45:15Z</time>
      </trkpt>
      <trkpt lat="45.37261" lon="5.81278">
        <ele>1993</ele>
        <time>2013-03-03T11:45:16Z</time>
      </trkpt>
      <trkpt lat="45.37266" lon="5.81281">
        <ele>1991.2</ele>
        <time>2013-03-03T11:45:17Z</time>
      </trkpt>
      <trkpt lat="45.37272" lon="5.81281">
        <ele>1989.9</ele>
        <time>2013-03-03T11:45:18Z</time>
      </trkpt>
      <trkpt lat="45.37278" lon="5.81285">
        <ele>1987.9</ele>
        <time>2013-03-03T11:45:19Z</time>
      </trkpt>
      <trkpt lat="45.37284" lon="5.81287">
        <ele>1986.3</ele>
        <time>2013-03-03T11:45:20Z</time>
      </trkpt>
      <trkpt lat="45.37291" lon="5.81287">
        <ele>1984.5</ele>
        <time>2013-03-03T11:45:21Z</time>
      </trkpt>
      <trkpt lat="45.373" lon="5.8129">
        <ele>1983.1</ele>
        <time>2013-03-03T11:45:22Z</time>
      </trkpt>
      <trkpt lat="45.37309" lon="5.81293">
        <ele>1982.1</ele>
        <time>2013-03-03T11:45:23Z</time>
      </trkpt>
      <trkpt lat="45.37318" lon="5.81296">
        <ele>1979.8</ele>
        <time>2013-03-03T11:45:24Z</time>
      </trkpt>
      <trkpt lat="45.37327" lon="5.81298">
        <ele>1978.1</ele>
        <time>2013-03-03T11:45:25Z</time>
      </trkpt>
      <trkpt lat="45.37338" lon="5.81301">
        <ele>1976.2</ele>
        <time>2013-03-03T11:45:26Z</time>
      </trkpt>
      <trkpt lat="45.37348" lon="5.81305">
        <ele>1974.7</ele>
        <time>2013-03-03T11:45:27Z</time>
      </trkpt>
      <trkpt lat="45.37358" lon="5.81308">
        <ele>1972.5</ele>
        <time>2013-03-03T11:45:28Z</time>
      </trkpt>
      <trkpt lat="45.37368" lon="5.8131">
        <ele>1970.8</ele>
        <time>2013-03-03T11:45:29Z</time>
      </trkpt>
      <trkpt lat="45.37377" lon="5.81312">
        <ele>1969.6</ele>
        <time>2013-03-03T11:45:30Z</time>
      </trkpt>
      <trkpt lat="45.37386" lon="5.81314">
        <ele>1968.1</ele>
        <time>2013-03-03T11:45:31Z</time>
      </trkpt>
      <trkpt lat="45.37395" lon="5.81316">
        <ele>1967</ele>
        <time>2013-03-03T11:45:32Z</time>
      </trkpt>
      <trkpt lat="45.37402" lon="5.81318">
        <ele>1965.7</ele>
        <time>2013-03-03T11:45:33Z</time>
      </trkpt>
      <trkpt lat="45.3741" lon="5.81319">
        <ele>1964.7</ele>
        <time>2013-03-03T11:45:34Z</time>
      </trkpt>
      <trkpt lat="45.37416" lon="5.8132">
        <ele>1963.9</ele>
        <time>2013-03-03T11:45:35Z</time>
      </trkpt>
      <trkpt lat="45.37422" lon="5.81321">
        <ele>1963.5</ele>
        <time>2013-03-03T11:45:36Z</time>
      </trkpt>
      <trkpt lat="45.37427" lon="5.81322">
        <ele>1963.3</ele>
        <time>2013-03-03T11:45:37Z</time>
      </trkpt>
      <trkpt lat="45.37432" lon="5.81323">
        <ele>1962.9</ele>
        <time>2013-03-03T11:45:38Z</time>
      </trkpt>
      <trkpt lat="45.37437" lon="5.81323">
        <ele>1962.7</ele>
        <time>2013-03-03T11:45:39Z</time>
      </trkpt>
      <trkpt lat="45.37441" lon="5.81324">
        <ele>1962.7</ele>
        <time>2013-03-03T11:45:40Z</time>
      </trkpt>
      <trkpt lat="45.37446" lon="5.81324">
        <ele>1962.8</ele>
        <time>2013-03-03T11:45:41Z</time>
      </trkpt>
      <trkpt lat="45.3745" lon="5.81324">
        <ele>1962.8</ele>
        <time>2013-03-03T11:45:42Z</time>
      </trkpt>
      <trkpt lat="45.37455" lon="5.81324">
        <ele>1961.9</ele>
        <time>2013-03-03T11:45:43Z</time>
      </trkpt>
      <trkpt lat="45.37464" lon="5.81324">
        <ele>1961.3</ele>
        <time>2013-03-03T11:45:45Z</time>
      </trkpt>
      <trkpt lat="45.37471" lon="5.81326">
        <ele>1961.1</ele>
        <time>2013-03-03T11:45:47Z</time>
      </trkpt>
      <trkpt lat="45.37477" lon="5.81327">
        <ele>1960.9</ele>
        <time>2013-03-03T11:45:49Z</time>
      </trkpt>
      <trkpt lat="45.37483" lon="5.81328">
        <ele>1960.6</ele>
        <time>2013-03-03T11:45:51Z</time>
      </trkpt>
      <trkpt lat="45.37492" lon="5.8133">
        <ele>1958.2</ele>
        <time>2013-03-03T11:46:20Z</time>
      </trkpt>
      <trkpt lat="45.375" lon="5.81329">
        <ele>1957.6</ele>
        <time>2013-03-03T11:46:39Z</time>
      </trkpt>
      <trkpt lat="45.37503" lon="5.8133">
        <ele>1957.7</ele>
        <time>2013-03-03T11:46:40Z</time>
      </trkpt>
      <trkpt lat="45.37514" lon="5.81336">
        <ele>1956.8</ele>
        <time>2013-03-03T11:46:45Z</time>
      </trkpt>
      <trkpt lat="45.3752" lon="5.81345">
        <ele>1956</ele>
        <time>2013-03-03T11:46:48Z</time>
      </trkpt>
      <trkpt lat="45.37527" lon="5.81346">
        <ele>1955.1</ele>
        <time>2013-03-03T11:46:50Z</time>
      </trkpt>
      <trkpt lat="45.37534" lon="5.81344">
        <ele>1954.3</ele>
        <time>2013-03-03T11:46:52Z</time>
      </trkpt>
      <trkpt lat="45.37541" lon="5.81347">
        <ele>1953.5</ele>
        <time>2013-03-03T11:46:54Z</time>
      </trkpt>
      <trkpt lat="45.3755" lon="5.81347">
        <ele>1952.5</ele>
        <time>2013-03-03T11:46:56Z</time>
      </trkpt>
      <trkpt lat="45.37558" lon="5.81344">
        <ele>1951.8</ele>
        <time>2013-03-03T11:46:58Z</time>
      </trkpt>
      <trkpt lat="45.37565" lon="5.81348">
        <ele>1950.9</ele>
        <time>2013-03-03T11:47:00Z</time>
      </trkpt>
      <trkpt lat="45.3757" lon="5.81349">
        <ele>1949.8</ele>
        <time>2013-03-03T11:47:01Z</time>
      </trkpt>
      <trkpt lat="45.37574" lon="5.81351">
        <ele>1948.9</ele>
        <time>2013-03-03T11:47:02Z</time>
      </trkpt>
      <trkpt lat="45.37578" lon="5.81354">
        <ele>1947.9</ele>
        <time>2013-03-03T11:47:03Z</time>
      </trkpt>
      <trkpt lat="45.37583" lon="5.81355">
        <ele>1947.1</ele>
        <time>2013-03-03T11:47:04Z</time>
      </trkpt>
      <trkpt lat="45.37588" lon="5.81356">
        <ele>1946.5</ele>
        <time>2013-03-03T11:47:05Z</time>
      </trkpt>
      <trkpt lat="45.37593" lon="5.81356">
        <ele>1946</ele>
        <time>2013-03-03T11:47:06Z</time>
      </trkpt>
      <trkpt lat="45.37597" lon="5.81357">
        <ele>1945.7</ele>
        <time>2013-03-03T11:47:07Z</time>
      </trkpt>
      <trkpt lat="45.37605" lon="5.8136">
        <ele>1943.6</ele>
        <time>2013-03-03T11:47:09Z</time>
      </trkpt>
      <trkpt lat="45.37611" lon="5.81367">
        <ele>1940.6</ele>
        <time>2013-03-03T11:47:11Z</time>
      </trkpt>
      <trkpt lat="45.37618" lon="5.81368">
        <ele>1938.9</ele>
        <time>2013-03-03T11:47:13Z</time>
      </trkpt>
      <trkpt lat="45.37625" lon="5.8137">
        <ele>1937.3</ele>
        <time>2013-03-03T11:47:15Z</time>
      </trkpt>
      <trkpt lat="45.37633" lon="5.81373">
        <ele>1935.4</ele>
        <time>2013-03-03T11:47:18Z</time>
      </trkpt>
      <trkpt lat="45.37634" lon="5.81381">
        <ele>1934.7</ele>
        <time>2013-03-03T11:47:20Z</time>
      </trkpt>
      <trkpt lat="45.3764" lon="5.81391">
        <ele>1933.7</ele>
        <time>2013-03-03T11:47:24Z</time>
      </trkpt>
      <trkpt lat="45.37639" lon="5.81404">
        <ele>1926.6</ele>
        <time>2013-03-03T11:47:31Z</time>
      </trkpt>
      <trkpt lat="45.37642" lon="5.81413">
        <ele>1922.8</ele>
        <time>2013-03-03T11:47:34Z</time>
      </trkpt>
      <trkpt lat="45.37646" lon="5.81415">
        <ele>1922</ele>
        <time>2013-03-03T11:47:35Z</time>
      </trkpt>
      <trkpt lat="45.3765" lon="5.81418">
        <ele>1921.4</ele>
        <time>2013-03-03T11:47:36Z</time>
      </trkpt>
      <trkpt lat="45.37654" lon="5.8142">
        <ele>1919.7</ele>
        <time>2013-03-03T11:47:37Z</time>
      </trkpt>
      <trkpt lat="45.37659" lon="5.81423">
        <ele>1918.3</ele>
        <time>2013-03-03T11:47:38Z</time>
      </trkpt>
      <trkpt lat="45.37664" lon="5.81427">
        <ele>1917</ele>
        <time>2013-03-03T11:47:39Z</time>
      </trkpt>
      <trkpt lat="45.37669" lon="5.81431">
        <ele>1916</ele>
        <time>2013-03-03T11:47:40Z</time>
      </trkpt>
      <trkpt lat="45.37673" lon="5.81435">
        <ele>1914.2</ele>
        <time>2013-03-03T11:47:41Z</time>
      </trkpt>
      <trkpt lat="45.37677" lon="5.8144">
        <ele>1912.8</ele>
        <time>2013-03-03T11:47:42Z</time>
      </trkpt>
      <trkpt lat="45.37681" lon="5.81444">
        <ele>1911.8</ele>
        <time>2013-03-03T11:47:43Z</time>
      </trkpt>
      <trkpt lat="45.37685" lon="5.81448">
        <ele>1911.3</ele>
        <time>2013-03-03T11:47:44Z</time>
      </trkpt>
      <trkpt lat="45.3769" lon="5.81453">
        <ele>1911</ele>
        <time>2013-03-03T11:47:45Z</time>
      </trkpt>
      <trkpt lat="45.37694" lon="5.81457">
        <ele>1909.2</ele>
        <time>2013-03-03T11:47:46Z</time>
      </trkpt>
      <trkpt lat="45.37701" lon="5.81464">
        <ele>1906.2</ele>
        <time>2013-03-03T11:47:48Z</time>
      </trkpt>
      <trkpt lat="45.37707" lon="5.81467">
        <ele>1904.1</ele>
        <time>2013-03-03T11:47:50Z</time>
      </trkpt>
      <trkpt lat="45.37714" lon="5.81468">
        <ele>1901.5</ele>
        <time>2013-03-03T11:47:53Z</time>
      </trkpt>
      <trkpt lat="45.37723" lon="5.81466">
        <ele>1899.3</ele>
        <time>2013-03-03T11:48:17Z</time>
      </trkpt>
      <trkpt lat="45.37731" lon="5.81461">
        <ele>1899.3</ele>
        <time>2013-03-03T11:48:42Z</time>
      </trkpt>
      <trkpt lat="45.37733" lon="5.81461">
        <ele>1899.2</ele>
        <time>2013-03-03T11:48:43Z</time>
      </trkpt>
      <trkpt lat="45.37745" lon="5.81462">
        <ele>1898.4</ele>
        <time>2013-03-03T11:48:47Z</time>
      </trkpt>
      <trkpt lat="45.37752" lon="5.81462">
        <ele>1897.9</ele>
        <time>2013-03-03T11:48:49Z</time>
      </trkpt>
      <trkpt lat="45.37759" lon="5.8146">
        <ele>1897.2</ele>
        <time>2013-03-03T11:48:51Z</time>
      </trkpt>
      <trkpt lat="45.37768" lon="5.81459">
        <ele>1896</ele>
        <time>2013-03-03T11:48:53Z</time>
      </trkpt>
      <trkpt lat="45.37773" lon="5.81458">
        <ele>1895.6</ele>
        <time>2013-03-03T11:48:54Z</time>
      </trkpt>
      <trkpt lat="45.37778" lon="5.81458">
        <ele>1894.8</ele>
        <time>2013-03-03T11:48:55Z</time>
      </trkpt>
      <trkpt lat="45.37782" lon="5.81457">
        <ele>1894.2</ele>
        <time>2013-03-03T11:48:56Z</time>
      </trkpt>
      <trkpt lat="45.37791" lon="5.81455">
        <ele>1892.7</ele>
        <time>2013-03-03T11:48:58Z</time>
      </trkpt>
      <trkpt lat="45.378" lon="5.81453">
        <ele>1891.6</ele>
        <time>2013-03-03T11:49:00Z</time>
      </trkpt>
      <trkpt lat="45.37805" lon="5.81453">
        <ele>1891.2</ele>
        <time>2013-03-03T11:49:01Z</time>
      </trkpt>
      <trkpt lat="45.37813" lon="5.81451">
        <ele>1890.1</ele>
        <time>2013-03-03T11:49:03Z</time>
      </trkpt>
      <trkpt lat="45.37821" lon="5.81446">
        <ele>1888.1</ele>
        <time>2013-03-03T11:49:08Z</time>
      </trkpt>
      <trkpt lat="45.3783" lon="5.81447">
        <ele>1886</ele>
        <time>2013-03-03T11:49:17Z</time>
      </trkpt>
      <trkpt lat="45.37836" lon="5.81455">
        <ele>1884.5</ele>
        <time>2013-03-03T11:49:20Z</time>
      </trkpt>
      <trkpt lat="45.37843" lon="5.81463">
        <ele>1880.7</ele>
        <time>2013-03-03T11:49:23Z</time>
      </trkpt>
      <trkpt lat="45.3785" lon="5.81467">
        <ele>1878.2</ele>
        <time>2013-03-03T11:49:25Z</time>
      </trkpt>
      <trkpt lat="45.37855" lon="5.81467">
        <ele>1877.4</ele>
        <time>2013-03-03T11:49:26Z</time>
      </trkpt>
      <trkpt lat="45.37861" lon="5.81467">
        <ele>1876.8</ele>
        <time>2013-03-03T11:49:27Z</time>
      </trkpt>
      <trkpt lat="45.37866" lon="5.81468">
        <ele>1875.3</ele>
        <time>2013-03-03T11:49:28Z</time>
      </trkpt>
      <trkpt lat="45.37871" lon="5.81469">
        <ele>1874.2</ele>
        <time>2013-03-03T11:49:29Z</time>
      </trkpt>
      <trkpt lat="45.37876" lon="5.8147">
        <ele>1873.8</ele>
        <time>2013-03-03T11:49:30Z</time>
      </trkpt>
      <trkpt lat="45.37882" lon="5.81472">
        <ele>1873.4</ele>
        <time>2013-03-03T11:49:31Z</time>
      </trkpt>
      <trkpt lat="45.37887" lon="5.81474">
        <ele>1873.1</ele>
        <time>2013-03-03T11:49:32Z</time>
      </trkpt>
      <trkpt lat="45.37895" lon="5.81476">
        <ele>1871</ele>
        <time>2013-03-03T11:49:34Z</time>
      </trkpt>
      <trkpt lat="45.37903" lon="5.81479">
        <ele>1869.7</ele>
        <time>2013-03-03T11:49:37Z</time>
      </trkpt>
      <trkpt lat="45.3791" lon="5.81481">
        <ele>1869.5</ele>
        <time>2013-03-03T11:49:39Z</time>
      </trkpt>
      <trkpt lat="45.37919" lon="5.81484">
        <ele>1869.9</ele>
        <time>2013-03-03T11:49:46Z</time>
      </trkpt>
      <trkpt lat="45.37919" lon="5.81484">
        <ele>1869.8</ele>
        <time>2013-03-03T11:49:47Z</time>
      </trkpt>
      <trkpt lat="45.37931" lon="5.81491">
        <ele>1869.7</ele>
        <time>2013-03-03T11:49:54Z</time>
      </trkpt>
      <trkpt lat="45.37937" lon="5.81495">
        <ele>1869.3</ele>
        <time>2013-03-03T11:49:56Z</time>
      </trkpt>
      <trkpt lat="45.37944" lon="5.815">
        <ele>1869</ele>
        <time>2013-03-03T11:49:58Z</time>
      </trkpt>
      <trkpt lat="45.37948" lon="5.81503">
        <ele>1868.5</ele>
        <time>2013-03-03T11:49:59Z</time>
      </trkpt>
      <trkpt lat="45.37953" lon="5.81505">
        <ele>1868.2</ele>
        <time>2013-03-03T11:50:00Z</time>
      </trkpt>
      <trkpt lat="45.37958" lon="5.81507">
        <ele>1867.4</ele>
        <time>2013-03-03T11:50:01Z</time>
      </trkpt>
      <trkpt lat="45.37966" lon="5.81512">
        <ele>1866.4</ele>
        <time>2013-03-03T11:50:03Z</time>
      </trkpt>
      <trkpt lat="45.3797" lon="5.81516">
        <ele>1865.9</ele>
        <time>2013-03-03T11:50:04Z</time>
      </trkpt>
      <trkpt lat="45.37978" lon="5.81512">
        <ele>1864.6</ele>
        <time>2013-03-03T11:50:07Z</time>
      </trkpt>
      <trkpt lat="45.37985" lon="5.81509">
        <ele>1862.8</ele>
        <time>2013-03-03T11:50:09Z</time>
      </trkpt>
      <trkpt lat="45.37994" lon="5.81511">
        <ele>1861.1</ele>
        <time>2013-03-03T11:50:11Z</time>
      </trkpt>
      <trkpt lat="45.38" lon="5.81515">
        <ele>1859.4</ele>
        <time>2013-03-03T11:50:13Z</time>
      </trkpt>
      <trkpt lat="45.38008" lon="5.81518">
        <ele>1858.3</ele>
        <time>2013-03-03T11:50:15Z</time>
      </trkpt>
      <trkpt lat="45.38016" lon="5.81521">
        <ele>1857.2</ele>
        <time>2013-03-03T11:50:17Z</time>
      </trkpt>
      <trkpt lat="45.38021" lon="5.81523">
        <ele>1856.4</ele>
        <time>2013-03-03T11:50:18Z</time>
      </trkpt>
      <trkpt lat="45.38026" lon="5.81525">
        <ele>1855.8</ele>
        <time>2013-03-03T11:50:19Z</time>
      </trkpt>
      <trkpt lat="45.38031" lon="5.81528">
        <ele>1854.9</ele>
        <time>2013-03-03T11:50:20Z</time>
      </trkpt>
      <trkpt lat="45.38037" lon="5.81532">
        <ele>1854.3</ele>
        <time>2013-03-03T11:50:21Z</time>
      </trkpt>
      <trkpt lat="45.38043" lon="5.81535">
        <ele>1853.8</ele>
        <time>2013-03-03T11:50:22Z</time>
      </trkpt>
      <trkpt lat="45.3805" lon="5.81539">
        <ele>1852.6</ele>
        <time>2013-03-03T11:50:23Z</time>
      </trkpt>
      <trkpt lat="45.38057" lon="5.81542">
        <ele>1851.7</ele>
        <time>2013-03-03T11:50:24Z</time>
      </trkpt>
      <trkpt lat="45.38064" lon="5.81544">
        <ele>1850.6</ele>
        <time>2013-03-03T11:50:25Z</time>
      </trkpt>
      <trkpt lat="45.38072" lon="5.81546">
        <ele>1849.8</ele>
        <time>2013-03-03T11:50:26Z</time>
      </trkpt>
      <trkpt lat="45.3808" lon="5.81548">
        <ele>1848.3</ele>
        <time>2013-03-03T11:50:27Z</time>
      </trkpt>
      <trkpt lat="45.38088" lon="5.8155">
        <ele>1847.2</ele>
        <time>2013-03-03T11:50:28Z</time>
      </trkpt>
      <trkpt lat="45.38095" lon="5.81553">
        <ele>1846.4</ele>
        <time>2013-03-03T11:50:29Z</time>
      </trkpt>
      <trkpt lat="45.38101" lon="5.81555">
        <ele>1845.4</ele>
        <time>2013-03-03T11:50:30Z</time>
      </trkpt>
      <trkpt lat="45.38106" lon="5.81558">
        <ele>1844.7</ele>
        <time>2013-03-03T11:50:31Z</time>
      </trkpt>
      <trkpt lat="45.38113" lon="5.81566">
        <ele>1842.6</ele>
        <time>2013-03-03T11:50:38Z</time>
      </trkpt>
      <trkpt lat="45.38114" lon="5.81578">
        <ele>1844</ele>
        <time>2013-03-03T11:54:55Z</time>
      </trkpt>
      <trkpt lat="45.38114" lon="5.81579">
        <ele>1844.3</ele>
        <time>2013-03-03T11:54:56Z</time>
      </trkpt>
      <trkpt lat="45.38109" lon="5.81567">
        <ele>1844.3</ele>
        <time>2013-03-03T12:04:55Z</time>
      </trkpt>
      <trkpt lat="45.38112" lon="5.81573">
        <ele>1843.9</ele>
        <time>2013-03-03T12:09:11Z</time>
      </trkpt>
      <trkpt lat="45.38106" lon="5.81563">
        <ele>1843.6</ele>
        <time>2013-03-03T12:09:12Z</time>
      </trkpt>
      <trkpt lat="45.3811" lon="5.81563">
        <ele>1847.8</ele>
        <time>2013-03-03T12:09:21Z</time>
      </trkpt>
      <trkpt lat="45.38115" lon="5.81574">
        <ele>1844.9</ele>
        <time>2013-03-03T12:10:11Z</time>
      </trkpt>
      <trkpt lat="45.38115" lon="5.81564">
        <ele>1844.5</ele>
        <time>2013-03-03T12:23:21Z</time>
      </trkpt>
      <trkpt lat="45.38117" lon="5.81559">
        <ele>1845</ele>
        <time>2013-03-03T12:23:22Z</time>
      </trkpt>
      <trkpt lat="45.38129" lon="5.81562">
        <ele>1843.2</ele>
        <time>2013-03-03T12:23:26Z</time>
      </trkpt>
      <trkpt lat="45.38136" lon="5.81561">
        <ele>1841.8</ele>
        <time>2013-03-03T12:23:28Z</time>
      </trkpt>
      <trkpt lat="45.38143" lon="5.8156">
        <ele>1840.7</ele>
        <time>2013-03-03T12:23:30Z</time>
      </trkpt>
      <trkpt lat="45.3815" lon="5.81562">
        <ele>1838.4</ele>
        <time>2013-03-03T12:23:32Z</time>
      </trkpt>
      <trkpt lat="45.38157" lon="5.81559">
        <ele>1835</ele>
        <time>2013-03-03T12:23:35Z</time>
      </trkpt>
      <trkpt lat="45.38162" lon="5.81564">
        <ele>1832.7</ele>
        <time>2013-03-03T12:23:37Z</time>
      </trkpt>
      <trkpt lat="45.38167" lon="5.81571">
        <ele>1829.9</ele>
        <time>2013-03-03T12:23:39Z</time>
      </trkpt>
      <trkpt lat="45.38172" lon="5.81571">
        <ele>1828.2</ele>
        <time>2013-03-03T12:23:41Z</time>
      </trkpt>
      <trkpt lat="45.3818" lon="5.81576">
        <ele>1826.5</ele>
        <time>2013-03-03T12:23:43Z</time>
      </trkpt>
      <trkpt lat="45.38185" lon="5.81584">
        <ele>1824</ele>
        <time>2013-03-03T12:23:45Z</time>
      </trkpt>
      <trkpt lat="45.38193" lon="5.81584">
        <ele>1820.7</ele>
        <time>2013-03-03T12:23:48Z</time>
      </trkpt>
      <trkpt lat="45.38201" lon="5.81587">
        <ele>1817.9</ele>
        <time>2013-03-03T12:23:50Z</time>
      </trkpt>
      <trkpt lat="45.3821" lon="5.8159">
        <ele>1810.4</ele>
        <time>2013-03-03T12:24:06Z</time>
      </trkpt>
      <trkpt lat="45.38218" lon="5.81593">
        <ele>1811.4</ele>
        <time>2013-03-03T12:24:13Z</time>
      </trkpt>
      <trkpt lat="45.38227" lon="5.81595">
        <ele>1803.6</ele>
        <time>2013-03-03T12:24:31Z</time>
      </trkpt>
      <trkpt lat="45.38228" lon="5.81596">
        <ele>1803.5</ele>
        <time>2013-03-03T12:24:32Z</time>
      </trkpt>
      <trkpt lat="45.38243" lon="5.81595">
        <ele>1801.8</ele>
        <time>2013-03-03T12:24:36Z</time>
      </trkpt>
      <trkpt lat="45.38252" lon="5.81595">
        <ele>1800.2</ele>
        <time>2013-03-03T12:24:38Z</time>
      </trkpt>
      <trkpt lat="45.3826" lon="5.81596">
        <ele>1796.8</ele>
        <time>2013-03-03T12:24:41Z</time>
      </trkpt>
      <trkpt lat="45.38267" lon="5.816">
        <ele>1789.4</ele>
        <time>2013-03-03T12:24:48Z</time>
      </trkpt>
      <trkpt lat="45.38272" lon="5.81608">
        <ele>1789</ele>
        <time>2013-03-03T12:24:50Z</time>
      </trkpt>
      <trkpt lat="45.3828" lon="5.81612">
        <ele>1785.9</ele>
        <time>2013-03-03T12:24:53Z</time>
      </trkpt>
      <trkpt lat="45.38288" lon="5.81614">
        <ele>1782.2</ele>
        <time>2013-03-03T12:24:57Z</time>
      </trkpt>
      <trkpt lat="45.38296" lon="5.81619">
        <ele>1779.2</ele>
        <time>2013-03-03T12:25:00Z</time>
      </trkpt>
      <trkpt lat="45.38302" lon="5.81621">
        <ele>1776.5</ele>
        <time>2013-03-03T12:25:03Z</time>
      </trkpt>
      <trkpt lat="45.38307" lon="5.81619">
        <ele>1773.5</ele>
        <time>2013-03-03T12:25:05Z</time>
      </trkpt>
      <trkpt lat="45.38316" lon="5.81623">
        <ele>1761.4</ele>
        <time>2013-03-03T12:25:16Z</time>
      </trkpt>
      <trkpt lat="45.38324" lon="5.8162">
        <ele>1759.9</ele>
        <time>2013-03-03T12:25:50Z</time>
      </trkpt>
      <trkpt lat="45.38324" lon="5.81619">
        <ele>1760.1</ele>
        <time>2013-03-03T12:25:51Z</time>
      </trkpt>
      <trkpt lat="45.38336" lon="5.81612">
        <ele>1758.4</ele>
        <time>2013-03-03T12:26:25Z</time>
      </trkpt>
      <trkpt lat="45.38341" lon="5.81602">
        <ele>1753.9</ele>
        <time>2013-03-03T12:26:29Z</time>
      </trkpt>
      <trkpt lat="45.38349" lon="5.81597">
        <ele>1746.4</ele>
        <time>2013-03-03T12:26:34Z</time>
      </trkpt>
      <trkpt lat="45.38355" lon="5.81604">
        <ele>1738.7</ele>
        <time>2013-03-03T12:26:40Z</time>
      </trkpt>
      <trkpt lat="45.38363" lon="5.81598">
        <ele>1735.1</ele>
        <time>2013-03-03T12:26:44Z</time>
      </trkpt>
      <trkpt lat="45.38369" lon="5.81606">
        <ele>1731.8</ele>
        <time>2013-03-03T12:26:47Z</time>
      </trkpt>
      <trkpt lat="45.38376" lon="5.81602">
        <ele>1726.4</ele>
        <time>2013-03-03T12:27:32Z</time>
      </trkpt>
      <trkpt lat="45.38379" lon="5.81601">
        <ele>1725.8</ele>
        <time>2013-03-03T12:27:33Z</time>
      </trkpt>
      <trkpt lat="45.38386" lon="5.81589">
        <ele>1722.9</ele>
        <time>2013-03-03T12:27:37Z</time>
      </trkpt>
      <trkpt lat="45.38383" lon="5.8158">
        <ele>1720.4</ele>
        <time>2013-03-03T12:27:40Z</time>
      </trkpt>
      <trkpt lat="45.38385" lon="5.81568">
        <ele>1715.1</ele>
        <time>2013-03-03T12:27:44Z</time>
      </trkpt>
      <trkpt lat="45.38388" lon="5.81557">
        <ele>1708.2</ele>
        <time>2013-03-03T12:27:48Z</time>
      </trkpt>
      <trkpt lat="45.38393" lon="5.81548">
        <ele>1701.1</ele>
        <time>2013-03-03T12:27:53Z</time>
      </trkpt>
      <trkpt lat="45.38388" lon="5.81539">
        <ele>1697.1</ele>
        <time>2013-03-03T12:27:56Z</time>
      </trkpt>
      <trkpt lat="45.38381" lon="5.81534">
        <ele>1694.6</ele>
        <time>2013-03-03T12:27:59Z</time>
      </trkpt>
      <trkpt lat="45.38376" lon="5.81528">
        <ele>1692.8</ele>
        <time>2013-03-03T12:28:01Z</time>
      </trkpt>
      <trkpt lat="45.38372" lon="5.81519">
        <ele>1690.9</ele>
        <time>2013-03-03T12:28:03Z</time>
      </trkpt>
      <trkpt lat="45.38369" lon="5.81508">
        <ele>1689.8</ele>
        <time>2013-03-03T12:28:05Z</time>
      </trkpt>
      <trkpt lat="45.38367" lon="5.81501">
        <ele>1688.6</ele>
        <time>2013-03-03T12:28:06Z</time>
      </trkpt>
      <trkpt lat="45.38367" lon="5.81494">
        <ele>1687.7</ele>
        <time>2013-03-03T12:28:07Z</time>
      </trkpt>
      <trkpt lat="45.38365" lon="5.81487">
        <ele>1687.1</ele>
        <time>2013-03-03T12:28:08Z</time>
      </trkpt>
      <trkpt lat="45.38365" lon="5.8148">
        <ele>1686.6</ele>
        <time>2013-03-03T12:28:09Z</time>
      </trkpt>
      <trkpt lat="45.38365" lon="5.81467">
        <ele>1685.3</ele>
        <time>2013-03-03T12:28:11Z</time>
      </trkpt>
      <trkpt lat="45.38366" lon="5.81458">
        <ele>1684.2</ele>
        <time>2013-03-03T12:28:13Z</time>
      </trkpt>
      <trkpt lat="45.38373" lon="5.81458">
        <ele>1681.1</ele>
        <time>2013-03-03T12:28:35Z</time>
      </trkpt>
      <trkpt lat="45.38374" lon="5.81463">
        <ele>1681</ele>
        <time>2013-03-03T12:28:36Z</time>
      </trkpt>
      <trkpt lat="45.38377" lon="5.81477">
        <ele>1679.8</ele>
        <time>2013-03-03T12:28:39Z</time>
      </trkpt>
      <trkpt lat="45.38385" lon="5.81481">
        <ele>1679.2</ele>
        <time>2013-03-03T12:28:42Z</time>
      </trkpt>
      <trkpt lat="45.38392" lon="5.81482">
        <ele>1677.6</ele>
        <time>2013-03-03T12:28:44Z</time>
      </trkpt>
      <trkpt lat="45.38401" lon="5.8148">
        <ele>1676</ele>
        <time>2013-03-03T12:28:46Z</time>
      </trkpt>
      <trkpt lat="45.38406" lon="5.81479">
        <ele>1674.7</ele>
        <time>2013-03-03T12:28:47Z</time>
      </trkpt>
      <trkpt lat="45.38411" lon="5.81479">
        <ele>1673.8</ele>
        <time>2013-03-03T12:28:48Z</time>
      </trkpt>
      <trkpt lat="45.38416" lon="5.81481">
        <ele>1671.7</ele>
        <time>2013-03-03T12:28:49Z</time>
      </trkpt>
      <trkpt lat="45.38421" lon="5.81478">
        <ele>1670.2</ele>
        <time>2013-03-03T12:28:50Z</time>
      </trkpt>
      <trkpt lat="45.38425" lon="5.81478">
        <ele>1669.1</ele>
        <time>2013-03-03T12:28:51Z</time>
      </trkpt>
      <trkpt lat="45.3843" lon="5.81479">
        <ele>1667.8</ele>
        <time>2013-03-03T12:28:52Z</time>
      </trkpt>
      <trkpt lat="45.38435" lon="5.81477">
        <ele>1666.8</ele>
        <time>2013-03-03T12:28:53Z</time>
      </trkpt>
      <trkpt lat="45.3844" lon="5.81476">
        <ele>1665.6</ele>
        <time>2013-03-03T12:28:54Z</time>
      </trkpt>
      <trkpt lat="45.38446" lon="5.81472">
        <ele>1662.8</ele>
        <time>2013-03-03T12:28:57Z</time>
      </trkpt>
      <trkpt lat="45.38447" lon="5.81466">
        <ele>1662.2</ele>
        <time>2013-03-03T12:28:58Z</time>
      </trkpt>
      <trkpt lat="45.38449" lon="5.81459">
        <ele>1660.3</ele>
        <time>2013-03-03T12:28:59Z</time>
      </trkpt>
      <trkpt lat="45.38456" lon="5.81455">
        <ele>1656.9</ele>
        <time>2013-03-03T12:29:01Z</time>
      </trkpt>
      <trkpt lat="45.38462" lon="5.81446">
        <ele>1651.7</ele>
        <time>2013-03-03T12:29:06Z</time>
      </trkpt>
      <trkpt lat="45.3846" lon="5.81434">
        <ele>1652.9</ele>
        <time>2013-03-03T12:33:58Z</time>
      </trkpt>
      <trkpt lat="45.3846" lon="5.81433">
        <ele>1652.6</ele>
        <time>2013-03-03T12:33:59Z</time>
      </trkpt>
      <trkpt lat="45.38456" lon="5.8141">
        <ele>1653.9</ele>
        <time>2013-03-03T12:34:17Z</time>
      </trkpt>
      <trkpt lat="45.38454" lon="5.81398">
        <ele>1654.3</ele>
        <time>2013-03-03T12:34:24Z</time>
      </trkpt>
      <trkpt lat="45.38452" lon="5.81387">
        <ele>1655.3</ele>
        <time>2013-03-03T12:34:33Z</time>
      </trkpt>
      <trkpt lat="45.3845" lon="5.81375">
        <ele>1658</ele>
        <time>2013-03-03T12:34:42Z</time>
      </trkpt>
      <trkpt lat="45.38451" lon="5.81363">
        <ele>1658.6</ele>
        <time>2013-03-03T12:34:52Z</time>
      </trkpt>
      <trkpt lat="45.3845" lon="5.8135">
        <ele>1661</ele>
        <time>2013-03-03T12:35:04Z</time>
      </trkpt>
      <trkpt lat="45.38451" lon="5.81349">
        <ele>1661.6</ele>
        <time>2013-03-03T12:35:05Z</time>
      </trkpt>
      <trkpt lat="45.38446" lon="5.81327">
        <ele>1666.1</ele>
        <time>2013-03-03T12:35:29Z</time>
      </trkpt>
      <trkpt lat="45.38443" lon="5.81316">
        <ele>1668.3</ele>
        <time>2013-03-03T12:35:42Z</time>
      </trkpt>
      <trkpt lat="45.38441" lon="5.81304">
        <ele>1670.1</ele>
        <time>2013-03-03T12:35:54Z</time>
      </trkpt>
      <trkpt lat="45.38439" lon="5.81292">
        <ele>1671.7</ele>
        <time>2013-03-03T12:36:04Z</time>
      </trkpt>
      <trkpt lat="45.38437" lon="5.8128">
        <ele>1674.7</ele>
        <time>2013-03-03T12:36:17Z</time>
      </trkpt>
      <trkpt lat="45.38437" lon="5.81279">
        <ele>1674.5</ele>
        <time>2013-03-03T12:36:18Z</time>
      </trkpt>
      <trkpt lat="45.38434" lon="5.81256">
        <ele>1681.3</ele>
        <time>2013-03-03T12:36:45Z</time>
      </trkpt>
      <trkpt lat="45.38435" lon="5.81243">
        <ele>1684.3</ele>
        <time>2013-03-03T12:37:03Z</time>
      </trkpt>
      <trkpt lat="45.38443" lon="5.81239">
        <ele>1685.7</ele>
        <time>2013-03-03T12:37:16Z</time>
      </trkpt>
      <trkpt lat="45.38451" lon="5.81236">
        <ele>1690.3</ele>
        <time>2013-03-03T12:37:31Z</time>
      </trkpt>
      <trkpt lat="45.38452" lon="5.81236">
        <ele>1690.2</ele>
        <time>2013-03-03T12:37:32Z</time>
      </trkpt>
      <trkpt lat="45.38468" lon="5.81233">
        <ele>1694.9</ele>
        <time>2013-03-03T12:38:01Z</time>
      </trkpt>
      <trkpt lat="45.38476" lon="5.81228">
        <ele>1698.7</ele>
        <time>2013-03-03T12:38:17Z</time>
      </trkpt>
      <trkpt lat="45.38481" lon="5.81218">
        <ele>1702.1</ele>
        <time>2013-03-03T12:38:32Z</time>
      </trkpt>
      <trkpt lat="45.38481" lon="5.81217">
        <ele>1702.3</ele>
        <time>2013-03-03T12:38:33Z</time>
      </trkpt>
      <trkpt lat="45.38479" lon="5.81194">
        <ele>1706.3</ele>
        <time>2013-03-03T12:38:59Z</time>
      </trkpt>
      <trkpt lat="45.38478" lon="5.81182">
        <ele>1709.3</ele>
        <time>2013-03-03T12:39:15Z</time>
      </trkpt>
      <trkpt lat="45.3848" lon="5.8117">
        <ele>1711.6</ele>
        <time>2013-03-03T12:39:29Z</time>
      </trkpt>
      <trkpt lat="45.38485" lon="5.8116">
        <ele>1715.8</ele>
        <time>2013-03-03T12:39:43Z</time>
      </trkpt>
      <trkpt lat="45.38485" lon="5.81159">
        <ele>1716.2</ele>
        <time>2013-03-03T12:39:44Z</time>
      </trkpt>
      <trkpt lat="45.38496" lon="5.81143">
        <ele>1720</ele>
        <time>2013-03-03T12:40:06Z</time>
      </trkpt>
      <trkpt lat="45.38502" lon="5.81134">
        <ele>1721.7</ele>
        <time>2013-03-03T12:40:19Z</time>
      </trkpt>
      <trkpt lat="45.38509" lon="5.81126">
        <ele>1724.8</ele>
        <time>2013-03-03T12:40:31Z</time>
      </trkpt>
      <trkpt lat="45.38515" lon="5.81118">
        <ele>1726.9</ele>
        <time>2013-03-03T12:40:45Z</time>
      </trkpt>
      <trkpt lat="45.38516" lon="5.81117">
        <ele>1727.1</ele>
        <time>2013-03-03T12:40:46Z</time>
      </trkpt>
      <trkpt lat="45.38531" lon="5.81108">
        <ele>1732.8</ele>
        <time>2013-03-03T12:41:12Z</time>
      </trkpt>
      <trkpt lat="45.38539" lon="5.81102">
        <ele>1734.4</ele>
        <time>2013-03-03T12:41:34Z</time>
      </trkpt>
      <trkpt lat="45.38547" lon="5.81097">
        <ele>1738.8</ele>
        <time>2013-03-03T12:41:49Z</time>
      </trkpt>
      <trkpt lat="45.38547" lon="5.81096">
        <ele>1739.1</ele>
        <time>2013-03-03T12:41:50Z</time>
      </trkpt>
      <trkpt lat="45.38563" lon="5.81089">
        <ele>1743.9</ele>
        <time>2013-03-03T12:42:13Z</time>
      </trkpt>
      <trkpt lat="45.3857" lon="5.81082">
        <ele>1745.3</ele>
        <time>2013-03-03T12:42:26Z</time>
      </trkpt>
      <trkpt lat="45.38577" lon="5.81076">
        <ele>1747</ele>
        <time>2013-03-03T12:42:37Z</time>
      </trkpt>
      <trkpt lat="45.38585" lon="5.81071">
        <ele>1748.2</ele>
        <time>2013-03-03T12:42:47Z</time>
      </trkpt>
      <trkpt lat="45.38593" lon="5.81067">
        <ele>1749</ele>
        <time>2013-03-03T12:42:57Z</time>
      </trkpt>
      <trkpt lat="45.38594" lon="5.81067">
        <ele>1748.9</ele>
        <time>2013-03-03T12:42:58Z</time>
      </trkpt>
      <trkpt lat="45.38609" lon="5.81063">
        <ele>1748.7</ele>
        <time>2013-03-03T12:43:12Z</time>
      </trkpt>
      <trkpt lat="45.38618" lon="5.81061">
        <ele>1748.9</ele>
        <time>2013-03-03T12:43:20Z</time>
      </trkpt>
      <trkpt lat="45.38626" lon="5.81062">
        <ele>1748.1</ele>
        <time>2013-03-03T12:43:27Z</time>
      </trkpt>
      <trkpt lat="45.38631" lon="5.81056">
        <ele>1747.6</ele>
        <time>2013-03-03T12:43:31Z</time>
      </trkpt>
      <trkpt lat="45.38635" lon="5.81049">
        <ele>1746.5</ele>
        <time>2013-03-03T12:43:33Z</time>
      </trkpt>
      <trkpt lat="45.38639" lon="5.8104">
        <ele>1745.7</ele>
        <time>2013-03-03T12:43:36Z</time>
      </trkpt>
      <trkpt lat="45.38644" lon="5.81033">
        <ele>1745.5</ele>
        <time>2013-03-03T12:43:38Z</time>
      </trkpt>
      <trkpt lat="45.38651" lon="5.81027">
        <ele>1743.9</ele>
        <time>2013-03-03T12:43:40Z</time>
      </trkpt>
      <trkpt lat="45.38655" lon="5.81024">
        <ele>1743.3</ele>
        <time>2013-03-03T12:43:41Z</time>
      </trkpt>
      <trkpt lat="45.38659" lon="5.81019">
        <ele>1742.2</ele>
        <time>2013-03-03T12:43:42Z</time>
      </trkpt>
      <trkpt lat="45.38663" lon="5.81014">
        <ele>1741.4</ele>
        <time>2013-03-03T12:43:43Z</time>
      </trkpt>
      <trkpt lat="45.38666" lon="5.81008">
        <ele>1740.7</ele>
        <time>2013-03-03T12:43:44Z</time>
      </trkpt>
      <trkpt lat="45.3867" lon="5.81002">
        <ele>1740.1</ele>
        <time>2013-03-03T12:43:45Z</time>
      </trkpt>
      <trkpt lat="45.38673" lon="5.80997">
        <ele>1738.6</ele>
        <time>2013-03-03T12:43:46Z</time>
      </trkpt>
      <trkpt lat="45.38676" lon="5.80991">
        <ele>1737.5</ele>
        <time>2013-03-03T12:43:47Z</time>
      </trkpt>
      <trkpt lat="45.3868" lon="5.80986">
        <ele>1736.7</ele>
        <time>2013-03-03T12:43:48Z</time>
      </trkpt>
      <trkpt lat="45.38683" lon="5.80981">
        <ele>1735.2</ele>
        <time>2013-03-03T12:43:49Z</time>
      </trkpt>
      <trkpt lat="45.38687" lon="5.80976">
        <ele>1734.1</ele>
        <time>2013-03-03T12:43:50Z</time>
      </trkpt>
      <trkpt lat="45.38691" lon="5.80971">
        <ele>1732.6</ele>
        <time>2013-03-03T12:43:51Z</time>
      </trkpt>
      <trkpt lat="45.38694" lon="5.80966">
        <ele>1731.5</ele>
        <time>2013-03-03T12:43:52Z</time>
      </trkpt>
      <trkpt lat="45.38697" lon="5.80961">
        <ele>1730</ele>
        <time>2013-03-03T12:43:53Z</time>
      </trkpt>
      <trkpt lat="45.387" lon="5.80955">
        <ele>1728.8</ele>
        <time>2013-03-03T12:43:54Z</time>
      </trkpt>
      <trkpt lat="45.38703" lon="5.80948">
        <ele>1727.9</ele>
        <time>2013-03-03T12:43:55Z</time>
      </trkpt>
      <trkpt lat="45.38705" lon="5.80939">
        <ele>1726.6</ele>
        <time>2013-03-03T12:43:56Z</time>
      </trkpt>
      <trkpt lat="45.38708" lon="5.8093">
        <ele>1725.6</ele>
        <time>2013-03-03T12:43:57Z</time>
      </trkpt>
      <trkpt lat="45.3871" lon="5.80921">
        <ele>1723.5</ele>
        <time>2013-03-03T12:43:58Z</time>
      </trkpt>
      <trkpt lat="45.38712" lon="5.80912">
        <ele>1722</ele>
        <time>2013-03-03T12:43:59Z</time>
      </trkpt>
      <trkpt lat="45.38713" lon="5.80905">
        <ele>1720.8</ele>
        <time>2013-03-03T12:44:00Z</time>
      </trkpt>
      <trkpt lat="45.38714" lon="5.80898">
        <ele>1719.2</ele>
        <time>2013-03-03T12:44:01Z</time>
      </trkpt>
      <trkpt lat="45.38716" lon="5.80887">
        <ele>1716.7</ele>
        <time>2013-03-03T12:44:03Z</time>
      </trkpt>
      <trkpt lat="45.38718" lon="5.80875">
        <ele>1712.6</ele>
        <time>2013-03-03T12:44:08Z</time>
      </trkpt>
      <trkpt lat="45.3872" lon="5.80863">
        <ele>1711.8</ele>
        <time>2013-03-03T12:44:14Z</time>
      </trkpt>
      <trkpt lat="45.38722" lon="5.80851">
        <ele>1711.5</ele>
        <time>2013-03-03T12:44:21Z</time>
      </trkpt>
      <trkpt lat="45.38724" lon="5.8084">
        <ele>1712.3</ele>
        <time>2013-03-03T12:44:30Z</time>
      </trkpt>
      <trkpt lat="45.38727" lon="5.80829">
        <ele>1712.5</ele>
        <time>2013-03-03T12:44:40Z</time>
      </trkpt>
      <trkpt lat="45.38731" lon="5.80818">
        <ele>1713.8</ele>
        <time>2013-03-03T12:44:49Z</time>
      </trkpt>
      <trkpt lat="45.38734" lon="5.80807">
        <ele>1713.8</ele>
        <time>2013-03-03T12:44:58Z</time>
      </trkpt>
      <trkpt lat="45.38734" lon="5.80795">
        <ele>1714.6</ele>
        <time>2013-03-03T12:45:05Z</time>
      </trkpt>
      <trkpt lat="45.38735" lon="5.80794">
        <ele>1714.7</ele>
        <time>2013-03-03T12:45:06Z</time>
      </trkpt>
      <trkpt lat="45.38741" lon="5.80772">
        <ele>1715.4</ele>
        <time>2013-03-03T12:45:22Z</time>
      </trkpt>
      <trkpt lat="45.38745" lon="5.80762">
        <ele>1716.6</ele>
        <time>2013-03-03T12:45:31Z</time>
      </trkpt>
      <trkpt lat="45.38748" lon="5.80751">
        <ele>1718.2</ele>
        <time>2013-03-03T12:45:41Z</time>
      </trkpt>
      <trkpt lat="45.3875" lon="5.80739">
        <ele>1720.5</ele>
        <time>2013-03-03T12:45:52Z</time>
      </trkpt>
      <trkpt lat="45.38752" lon="5.80727">
        <ele>1724.2</ele>
        <time>2013-03-03T12:46:08Z</time>
      </trkpt>
      <trkpt lat="45.38752" lon="5.80727">
        <ele>1724.1</ele>
        <time>2013-03-03T12:46:09Z</time>
      </trkpt>
      <trkpt lat="45.38735" lon="5.80725">
        <ele>1727.6</ele>
        <time>2013-03-03T12:46:34Z</time>
      </trkpt>
      <trkpt lat="45.38726" lon="5.80722">
        <ele>1730.3</ele>
        <time>2013-03-03T12:46:47Z</time>
      </trkpt>
      <trkpt lat="45.38718" lon="5.8072">
        <ele>1731.6</ele>
        <time>2013-03-03T12:46:58Z</time>
      </trkpt>
      <trkpt lat="45.38709" lon="5.80716">
        <ele>1734</ele>
        <time>2013-03-03T12:47:08Z</time>
      </trkpt>
      <trkpt lat="45.38702" lon="5.8071">
        <ele>1735.9</ele>
        <time>2013-03-03T12:47:21Z</time>
      </trkpt>
      <trkpt lat="45.38701" lon="5.80709">
        <ele>1736.4</ele>
        <time>2013-03-03T12:47:22Z</time>
      </trkpt>
      <trkpt lat="45.38689" lon="5.80693">
        <ele>1741.2</ele>
        <time>2013-03-03T12:47:43Z</time>
      </trkpt>
      <trkpt lat="45.38685" lon="5.80682">
        <ele>1741.9</ele>
        <time>2013-03-03T12:47:54Z</time>
      </trkpt>
      <trkpt lat="45.38682" lon="5.80672">
        <ele>1744</ele>
        <time>2013-03-03T12:48:04Z</time>
      </trkpt>
      <trkpt lat="45.3868" lon="5.8066">
        <ele>1746.7</ele>
        <time>2013-03-03T12:48:16Z</time>
      </trkpt>
      <trkpt lat="45.3868" lon="5.80648">
        <ele>1748.8</ele>
        <time>2013-03-03T12:48:30Z</time>
      </trkpt>
      <trkpt lat="45.3868" lon="5.80647">
        <ele>1749.1</ele>
        <time>2013-03-03T12:48:31Z</time>
      </trkpt>
      <trkpt lat="45.38668" lon="5.80632">
        <ele>1750.9</ele>
        <time>2013-03-03T12:48:50Z</time>
      </trkpt>
      <trkpt lat="45.38661" lon="5.80624">
        <ele>1750.5</ele>
        <time>2013-03-03T12:48:57Z</time>
      </trkpt>
      <trkpt lat="45.38669" lon="5.80622">
        <ele>1755.4</ele>
        <time>2013-03-03T12:49:31Z</time>
      </trkpt>
      <trkpt lat="45.3867" lon="5.80622">
        <ele>1755.8</ele>
        <time>2013-03-03T12:49:32Z</time>
      </trkpt>
      <trkpt lat="45.38687" lon="5.80626">
        <ele>1759.4</ele>
        <time>2013-03-03T12:49:53Z</time>
      </trkpt>
      <trkpt lat="45.38695" lon="5.80624">
        <ele>1762.1</ele>
        <time>2013-03-03T12:50:03Z</time>
      </trkpt>
      <trkpt lat="45.38704" lon="5.80621">
        <ele>1763.6</ele>
        <time>2013-03-03T12:50:11Z</time>
      </trkpt>
      <trkpt lat="45.38711" lon="5.80616">
        <ele>1763.4</ele>
        <time>2013-03-03T12:50:20Z</time>
      </trkpt>
      <trkpt lat="45.38719" lon="5.80611">
        <ele>1765.7</ele>
        <time>2013-03-03T12:50:29Z</time>
      </trkpt>
      <trkpt lat="45.38725" lon="5.80602">
        <ele>1765.1</ele>
        <time>2013-03-03T12:50:37Z</time>
      </trkpt>
      <trkpt lat="45.38726" lon="5.80601">
        <ele>1765.5</ele>
        <time>2013-03-03T12:50:38Z</time>
      </trkpt>
      <trkpt lat="45.38737" lon="5.80586">
        <ele>1769.1</ele>
        <time>2013-03-03T12:50:55Z</time>
      </trkpt>
      <trkpt lat="45.38741" lon="5.80576">
        <ele>1767.7</ele>
        <time>2013-03-03T12:51:02Z</time>
      </trkpt>
      <trkpt lat="45.38746" lon="5.80567">
        <ele>1766.8</ele>
        <time>2013-03-03T12:51:07Z</time>
      </trkpt>
      <trkpt lat="45.38752" lon="5.80559">
        <ele>1767.2</ele>
        <time>2013-03-03T12:51:14Z</time>
      </trkpt>
      <trkpt lat="45.38758" lon="5.8055">
        <ele>1767.7</ele>
        <time>2013-03-03T12:51:22Z</time>
      </trkpt>
      <trkpt lat="45.38765" lon="5.80542">
        <ele>1770.6</ele>
        <time>2013-03-03T12:51:31Z</time>
      </trkpt>
      <trkpt lat="45.38772" lon="5.80537">
        <ele>1771.3</ele>
        <time>2013-03-03T12:51:40Z</time>
      </trkpt>
      <trkpt lat="45.38773" lon="5.80536">
        <ele>1772.2</ele>
        <time>2013-03-03T12:51:41Z</time>
      </trkpt>
      <trkpt lat="45.38786" lon="5.80523">
        <ele>1773.7</ele>
        <time>2013-03-03T12:55:46Z</time>
      </trkpt>
      <trkpt lat="45.38787" lon="5.80524">
        <ele>1773.8</ele>
        <time>2013-03-03T12:55:47Z</time>
      </trkpt>
      <trkpt lat="45.38776" lon="5.8054">
        <ele>1773</ele>
        <time>2013-03-03T12:56:32Z</time>
      </trkpt>
      <trkpt lat="45.38772" lon="5.80546">
        <ele>1772.8</ele>
        <time>2013-03-03T12:56:33Z</time>
      </trkpt>
      <trkpt lat="45.38768" lon="5.80555">
        <ele>1772.7</ele>
        <time>2013-03-03T12:56:34Z</time>
      </trkpt>
      <trkpt lat="45.38764" lon="5.80564">
        <ele>1771.7</ele>
        <time>2013-03-03T12:56:35Z</time>
      </trkpt>
      <trkpt lat="45.3876" lon="5.80573">
        <ele>1770.9</ele>
        <time>2013-03-03T12:56:36Z</time>
      </trkpt>
      <trkpt lat="45.38757" lon="5.80582">
        <ele>1770.3</ele>
        <time>2013-03-03T12:56:37Z</time>
      </trkpt>
      <trkpt lat="45.38755" lon="5.80591">
        <ele>1769.5</ele>
        <time>2013-03-03T12:56:38Z</time>
      </trkpt>
      <trkpt lat="45.38753" lon="5.806">
        <ele>1768.8</ele>
        <time>2013-03-03T12:56:39Z</time>
      </trkpt>
      <trkpt lat="45.3875" lon="5.80612">
        <ele>1767.1</ele>
        <time>2013-03-03T12:56:41Z</time>
      </trkpt>
      <trkpt lat="45.38747" lon="5.80624">
        <ele>1766.4</ele>
        <time>2013-03-03T12:56:43Z</time>
      </trkpt>
      <trkpt lat="45.38744" lon="5.80633">
        <ele>1765.2</ele>
        <time>2013-03-03T12:56:45Z</time>
      </trkpt>
      <trkpt lat="45.3874" lon="5.80644">
        <ele>1758.2</ele>
        <time>2013-03-03T12:57:09Z</time>
      </trkpt>
      <trkpt lat="45.38739" lon="5.80644">
        <ele>1758.2</ele>
        <time>2013-03-03T12:57:10Z</time>
      </trkpt>
      <trkpt lat="45.38733" lon="5.80654">
        <ele>1758.1</ele>
        <time>2013-03-03T12:58:29Z</time>
      </trkpt>
      <trkpt lat="45.38725" lon="5.8066">
        <ele>1756.4</ele>
        <time>2013-03-03T12:58:32Z</time>
      </trkpt>
      <trkpt lat="45.38729" lon="5.80671">
        <ele>1754.1</ele>
        <time>2013-03-03T12:58:35Z</time>
      </trkpt>
      <trkpt lat="45.38735" lon="5.80672">
        <ele>1752.2</ele>
        <time>2013-03-03T12:58:37Z</time>
      </trkpt>
      <trkpt lat="45.38741" lon="5.80673">
        <ele>1750.8</ele>
        <time>2013-03-03T12:58:39Z</time>
      </trkpt>
      <trkpt lat="45.38747" lon="5.80673">
        <ele>1749.5</ele>
        <time>2013-03-03T12:58:41Z</time>
      </trkpt>
      <trkpt lat="45.38756" lon="5.80669">
        <ele>1747.7</ele>
        <time>2013-03-03T12:58:45Z</time>
      </trkpt>
      <trkpt lat="45.38764" lon="5.80664">
        <ele>1744</ele>
        <time>2013-03-03T12:59:12Z</time>
      </trkpt>
      <trkpt lat="45.38769" lon="5.80656">
        <ele>1744</ele>
        <time>2013-03-03T12:59:49Z</time>
      </trkpt>
      <trkpt lat="45.38772" lon="5.80656">
        <ele>1743.3</ele>
        <time>2013-03-03T12:59:50Z</time>
      </trkpt>
      <trkpt lat="45.38782" lon="5.80666">
        <ele>1739.5</ele>
        <time>2013-03-03T12:59:56Z</time>
      </trkpt>
      <trkpt lat="45.38786" lon="5.80661">
        <ele>1737.2</ele>
        <time>2013-03-03T12:59:58Z</time>
      </trkpt>
      <trkpt lat="45.38793" lon="5.8067">
        <ele>1732.9</ele>
        <time>2013-03-03T13:00:02Z</time>
      </trkpt>
      <trkpt lat="45.38802" lon="5.80668">
        <ele>1732</ele>
        <time>2013-03-03T13:00:05Z</time>
      </trkpt>
      <trkpt lat="45.38808" lon="5.80673">
        <ele>1728.9</ele>
        <time>2013-03-03T13:00:08Z</time>
      </trkpt>
      <trkpt lat="45.38815" lon="5.80676">
        <ele>1724.9</ele>
        <time>2013-03-03T13:00:10Z</time>
      </trkpt>
      <trkpt lat="45.38821" lon="5.80684">
        <ele>1719.1</ele>
        <time>2013-03-03T13:00:14Z</time>
      </trkpt>
      <trkpt lat="45.38829" lon="5.80684">
        <ele>1715.9</ele>
        <time>2013-03-03T13:00:17Z</time>
      </trkpt>
      <trkpt lat="45.38829" lon="5.80691">
        <ele>1714.4</ele>
        <time>2013-03-03T13:00:18Z</time>
      </trkpt>
      <trkpt lat="45.38826" lon="5.80702">
        <ele>1712.6</ele>
        <time>2013-03-03T13:00:20Z</time>
      </trkpt>
      <trkpt lat="45.38822" lon="5.80714">
        <ele>1704.7</ele>
        <time>2013-03-03T13:00:46Z</time>
      </trkpt>
      <trkpt lat="45.38821" lon="5.80724">
        <ele>1702.9</ele>
        <time>2013-03-03T13:00:49Z</time>
      </trkpt>
      <trkpt lat="45.38828" lon="5.80731">
        <ele>1701.3</ele>
        <time>2013-03-03T13:00:51Z</time>
      </trkpt>
      <trkpt lat="45.38829" lon="5.80736">
        <ele>1700.8</ele>
        <time>2013-03-03T13:00:52Z</time>
      </trkpt>
      <trkpt lat="45.38837" lon="5.80748">
        <ele>1693.6</ele>
        <time>2013-03-03T13:00:59Z</time>
      </trkpt>
      <trkpt lat="45.38845" lon="5.80746">
        <ele>1690.3</ele>
        <time>2013-03-03T13:01:03Z</time>
      </trkpt>
      <trkpt lat="45.38851" lon="5.80738">
        <ele>1688.5</ele>
        <time>2013-03-03T13:01:06Z</time>
      </trkpt>
      <trkpt lat="45.38855" lon="5.80733">
        <ele>1687.2</ele>
        <time>2013-03-03T13:01:08Z</time>
      </trkpt>
      <trkpt lat="45.38862" lon="5.80728">
        <ele>1686.4</ele>
        <time>2013-03-03T13:01:10Z</time>
      </trkpt>
      <trkpt lat="45.38866" lon="5.80736">
        <ele>1685.9</ele>
        <time>2013-03-03T13:01:12Z</time>
      </trkpt>
      <trkpt lat="45.38874" lon="5.8074">
        <ele>1681</ele>
        <time>2013-03-03T13:01:15Z</time>
      </trkpt>
      <trkpt lat="45.38877" lon="5.80748">
        <ele>1677</ele>
        <time>2013-03-03T13:01:18Z</time>
      </trkpt>
      <trkpt lat="45.38884" lon="5.80751">
        <ele>1673.6</ele>
        <time>2013-03-03T13:01:20Z</time>
      </trkpt>
      <trkpt lat="45.38888" lon="5.80748">
        <ele>1672</ele>
        <time>2013-03-03T13:01:21Z</time>
      </trkpt>
      <trkpt lat="45.38894" lon="5.80746">
        <ele>1669.9</ele>
        <time>2013-03-03T13:01:22Z</time>
      </trkpt>
      <trkpt lat="45.38899" lon="5.80743">
        <ele>1668.4</ele>
        <time>2013-03-03T13:01:23Z</time>
      </trkpt>
      <trkpt lat="45.38903" lon="5.80741">
        <ele>1667.2</ele>
        <time>2013-03-03T13:01:24Z</time>
      </trkpt>
      <trkpt lat="45.38908" lon="5.80738">
        <ele>1665.7</ele>
        <time>2013-03-03T13:01:25Z</time>
      </trkpt>
      <trkpt lat="45.38916" lon="5.80734">
        <ele>1663</ele>
        <time>2013-03-03T13:01:27Z</time>
      </trkpt>
      <trkpt lat="45.38923" lon="5.80729">
        <ele>1658</ele>
        <time>2013-03-03T13:01:38Z</time>
      </trkpt>
      <trkpt lat="45.38925" lon="5.80741">
        <ele>1654.5</ele>
        <time>2013-03-03T13:01:43Z</time>
      </trkpt>
      <trkpt lat="45.38927" lon="5.80751">
        <ele>1649.8</ele>
        <time>2013-03-03T13:01:47Z</time>
      </trkpt>
      <trkpt lat="45.38933" lon="5.80758">
        <ele>1644.3</ele>
        <time>2013-03-03T13:01:51Z</time>
      </trkpt>
      <trkpt lat="45.38935" lon="5.80769">
        <ele>1640.3</ele>
        <time>2013-03-03T13:01:55Z</time>
      </trkpt>
      <trkpt lat="45.38934" lon="5.80772">
        <ele>1638.6</ele>
        <time>2013-03-03T13:01:56Z</time>
      </trkpt>
      <trkpt lat="45.3894" lon="5.80793">
        <ele>1633.6</ele>
        <time>2013-03-03T13:02:32Z</time>
      </trkpt>
      <trkpt lat="45.38948" lon="5.80794">
        <ele>1633</ele>
        <time>2013-03-03T13:02:36Z</time>
      </trkpt>
      <trkpt lat="45.38954" lon="5.8079">
        <ele>1632</ele>
        <time>2013-03-03T13:02:38Z</time>
      </trkpt>
      <trkpt lat="45.38959" lon="5.80797">
        <ele>1629</ele>
        <time>2013-03-03T13:02:41Z</time>
      </trkpt>
      <trkpt lat="45.38965" lon="5.80795">
        <ele>1626.7</ele>
        <time>2013-03-03T13:02:43Z</time>
      </trkpt>
      <trkpt lat="45.38971" lon="5.80801">
        <ele>1623.3</ele>
        <time>2013-03-03T13:02:46Z</time>
      </trkpt>
      <trkpt lat="45.38972" lon="5.80812">
        <ele>1616.5</ele>
        <time>2013-03-03T13:02:51Z</time>
      </trkpt>
      <trkpt lat="45.38977" lon="5.8082">
        <ele>1611.2</ele>
        <time>2013-03-03T13:02:55Z</time>
      </trkpt>
      <trkpt lat="45.38975" lon="5.80831">
        <ele>1608</ele>
        <time>2013-03-03T13:02:58Z</time>
      </trkpt>
      <trkpt lat="45.38974" lon="5.80833">
        <ele>1607.3</ele>
        <time>2013-03-03T13:02:59Z</time>
      </trkpt>
      <trkpt lat="45.38967" lon="5.80853">
        <ele>1603.7</ele>
        <time>2013-03-03T13:04:21Z</time>
      </trkpt>
      <trkpt lat="45.38967" lon="5.80853">
        <ele>1603.7</ele>
        <time>2013-03-03T13:04:22Z</time>
      </trkpt>
      <trkpt lat="45.38981" lon="5.80863">
        <ele>1603</ele>
        <time>2013-03-03T13:05:17Z</time>
      </trkpt>
      <trkpt lat="45.38987" lon="5.80868">
        <ele>1601.8</ele>
        <time>2013-03-03T13:05:20Z</time>
      </trkpt>
      <trkpt lat="45.38992" lon="5.80858">
        <ele>1599.2</ele>
        <time>2013-03-03T13:05:24Z</time>
      </trkpt>
      <trkpt lat="45.38994" lon="5.80855">
        <ele>1598.5</ele>
        <time>2013-03-03T13:05:25Z</time>
      </trkpt>
      <trkpt lat="45.39005" lon="5.80856">
        <ele>1596.6</ele>
        <time>2013-03-03T13:05:28Z</time>
      </trkpt>
      <trkpt lat="45.39011" lon="5.8086">
        <ele>1593.9</ele>
        <time>2013-03-03T13:05:30Z</time>
      </trkpt>
      <trkpt lat="45.39017" lon="5.80857">
        <ele>1591.5</ele>
        <time>2013-03-03T13:05:32Z</time>
      </trkpt>
      <trkpt lat="45.39023" lon="5.80863">
        <ele>1584.4</ele>
        <time>2013-03-03T13:05:37Z</time>
      </trkpt>
      <trkpt lat="45.3903" lon="5.80865">
        <ele>1581.9</ele>
        <time>2013-03-03T13:05:40Z</time>
      </trkpt>
      <trkpt lat="45.39034" lon="5.80862">
        <ele>1580.7</ele>
        <time>2013-03-03T13:05:41Z</time>
      </trkpt>
      <trkpt lat="45.39042" lon="5.8086">
        <ele>1578</ele>
        <time>2013-03-03T13:05:43Z</time>
      </trkpt>
      <trkpt lat="45.3905" lon="5.8086">
        <ele>1575.4</ele>
        <time>2013-03-03T13:05:45Z</time>
      </trkpt>
      <trkpt lat="45.39058" lon="5.8086">
        <ele>1574.2</ele>
        <time>2013-03-03T13:05:47Z</time>
      </trkpt>
      <trkpt lat="45.39064" lon="5.8086">
        <ele>1570.8</ele>
        <time>2013-03-03T13:05:49Z</time>
      </trkpt>
      <trkpt lat="45.39071" lon="5.8086">
        <ele>1568.7</ele>
        <time>2013-03-03T13:05:51Z</time>
      </trkpt>
      <trkpt lat="45.3908" lon="5.8086">
        <ele>1565.4</ele>
        <time>2013-03-03T13:05:56Z</time>
      </trkpt>
      <trkpt lat="45.39087" lon="5.80854">
        <ele>1562.7</ele>
        <time>2013-03-03T13:06:10Z</time>
      </trkpt>
      <trkpt lat="45.39095" lon="5.80849">
        <ele>1562.1</ele>
        <time>2013-03-03T13:06:33Z</time>
      </trkpt>
      <trkpt lat="45.39096" lon="5.80849">
        <ele>1561.9</ele>
        <time>2013-03-03T13:06:34Z</time>
      </trkpt>
      <trkpt lat="45.3911" lon="5.80853">
        <ele>1557.3</ele>
        <time>2013-03-03T13:06:43Z</time>
      </trkpt>
      <trkpt lat="45.39115" lon="5.80851">
        <ele>1556</ele>
        <time>2013-03-03T13:06:45Z</time>
      </trkpt>
      <trkpt lat="45.39123" lon="5.80851">
        <ele>1552.6</ele>
        <time>2013-03-03T13:06:49Z</time>
      </trkpt>
      <trkpt lat="45.39131" lon="5.80854">
        <ele>1549.7</ele>
        <time>2013-03-03T13:06:52Z</time>
      </trkpt>
      <trkpt lat="45.39139" lon="5.80848">
        <ele>1547.5</ele>
        <time>2013-03-03T13:06:55Z</time>
      </trkpt>
      <trkpt lat="45.39146" lon="5.80842">
        <ele>1547.5</ele>
        <time>2013-03-03T13:06:58Z</time>
      </trkpt>
      <trkpt lat="45.39154" lon="5.8084">
        <ele>1544</ele>
        <time>2013-03-03T13:07:02Z</time>
      </trkpt>
      <trkpt lat="45.3916" lon="5.80839">
        <ele>1542.5</ele>
        <time>2013-03-03T13:07:04Z</time>
      </trkpt>
      <trkpt lat="45.39167" lon="5.8084">
        <ele>1540.8</ele>
        <time>2013-03-03T13:07:06Z</time>
      </trkpt>
      <trkpt lat="45.39175" lon="5.80844">
        <ele>1538.3</ele>
        <time>2013-03-03T13:07:09Z</time>
      </trkpt>
      <trkpt lat="45.39184" lon="5.80843">
        <ele>1534.2</ele>
        <time>2013-03-03T13:07:13Z</time>
      </trkpt>
      <trkpt lat="45.3919" lon="5.8084">
        <ele>1534</ele>
        <time>2013-03-03T13:07:18Z</time>
      </trkpt>
      <trkpt lat="45.39198" lon="5.80838">
        <ele>1533.4</ele>
        <time>2013-03-03T13:07:21Z</time>
      </trkpt>
      <trkpt lat="45.39199" lon="5.80829">
        <ele>1531.5</ele>
        <time>2013-03-03T13:07:24Z</time>
      </trkpt>
      <trkpt lat="45.392" lon="5.80818">
        <ele>1528.4</ele>
        <time>2013-03-03T13:07:26Z</time>
      </trkpt>
      <trkpt lat="45.39204" lon="5.80808">
        <ele>1526.9</ele>
        <time>2013-03-03T13:07:29Z</time>
      </trkpt>
      <trkpt lat="45.39197" lon="5.80802">
        <ele>1524.9</ele>
        <time>2013-03-03T13:07:48Z</time>
      </trkpt>
      <trkpt lat="45.39196" lon="5.80802">
        <ele>1525</ele>
        <time>2013-03-03T13:07:49Z</time>
      </trkpt>
      <trkpt lat="45.39211" lon="5.8079">
        <ele>1524.6</ele>
        <time>2013-03-03T13:08:16Z</time>
      </trkpt>
      <trkpt lat="45.3922" lon="5.80794">
        <ele>1521.5</ele>
        <time>2013-03-03T13:08:21Z</time>
      </trkpt>
      <trkpt lat="45.39225" lon="5.80795">
        <ele>1520.1</ele>
        <time>2013-03-03T13:08:23Z</time>
      </trkpt>
      <trkpt lat="45.39233" lon="5.80798">
        <ele>1517.8</ele>
        <time>2013-03-03T13:08:26Z</time>
      </trkpt>
      <trkpt lat="45.39236" lon="5.80807">
        <ele>1514.1</ele>
        <time>2013-03-03T13:08:29Z</time>
      </trkpt>
      <trkpt lat="45.39242" lon="5.80811">
        <ele>1511.8</ele>
        <time>2013-03-03T13:08:31Z</time>
      </trkpt>
      <trkpt lat="45.39247" lon="5.80821">
        <ele>1509.5</ele>
        <time>2013-03-03T13:08:33Z</time>
      </trkpt>
      <trkpt lat="45.39251" lon="5.80829">
        <ele>1506.6</ele>
        <time>2013-03-03T13:08:35Z</time>
      </trkpt>
      <trkpt lat="45.39256" lon="5.80838">
        <ele>1503.8</ele>
        <time>2013-03-03T13:08:39Z</time>
      </trkpt>
      <trkpt lat="45.39261" lon="5.80848">
        <ele>1502.2</ele>
        <time>2013-03-03T13:08:47Z</time>
      </trkpt>
      <trkpt lat="45.39257" lon="5.80858">
        <ele>1502.4</ele>
        <time>2013-03-03T13:08:56Z</time>
      </trkpt>
      <trkpt lat="45.39257" lon="5.8086">
        <ele>1502.6</ele>
        <time>2013-03-03T13:08:57Z</time>
      </trkpt>
      <trkpt lat="45.39269" lon="5.80848">
        <ele>1500.4</ele>
        <time>2013-03-03T13:09:34Z</time>
      </trkpt>
      <trkpt lat="45.39273" lon="5.80838">
        <ele>1500.1</ele>
        <time>2013-03-03T13:09:41Z</time>
      </trkpt>
      <trkpt lat="45.39281" lon="5.80833">
        <ele>1501</ele>
        <time>2013-03-03T13:09:48Z</time>
      </trkpt>
      <trkpt lat="45.39288" lon="5.80831">
        <ele>1498.7</ele>
        <time>2013-03-03T13:09:51Z</time>
      </trkpt>
      <trkpt lat="45.39294" lon="5.80826">
        <ele>1497.4</ele>
        <time>2013-03-03T13:09:54Z</time>
      </trkpt>
      <trkpt lat="45.39299" lon="5.80819">
        <ele>1494.2</ele>
        <time>2013-03-03T13:09:56Z</time>
      </trkpt>
      <trkpt lat="45.39306" lon="5.8082">
        <ele>1493.8</ele>
        <time>2013-03-03T13:09:58Z</time>
      </trkpt>
      <trkpt lat="45.39308" lon="5.8082">
        <ele>1493.7</ele>
        <time>2013-03-03T13:09:59Z</time>
      </trkpt>
      <trkpt lat="45.39317" lon="5.80836">
        <ele>1488.8</ele>
        <time>2013-03-03T13:10:08Z</time>
      </trkpt>
      <trkpt lat="45.39321" lon="5.80845">
        <ele>1487.2</ele>
        <time>2013-03-03T13:10:15Z</time>
      </trkpt>
      <trkpt lat="45.39327" lon="5.80847">
        <ele>1487.3</ele>
        <time>2013-03-03T13:10:17Z</time>
      </trkpt>
      <trkpt lat="45.39335" lon="5.80852">
        <ele>1486.3</ele>
        <time>2013-03-03T13:10:19Z</time>
      </trkpt>
      <trkpt lat="45.39339" lon="5.80858">
        <ele>1483.9</ele>
        <time>2013-03-03T13:10:25Z</time>
      </trkpt>
      <trkpt lat="45.39345" lon="5.80862">
        <ele>1482</ele>
        <time>2013-03-03T13:10:27Z</time>
      </trkpt>
      <trkpt lat="45.39349" lon="5.80873">
        <ele>1478</ele>
        <time>2013-03-03T13:10:31Z</time>
      </trkpt>
      <trkpt lat="45.39357" lon="5.80878">
        <ele>1473</ele>
        <time>2013-03-03T13:10:35Z</time>
      </trkpt>
      <trkpt lat="45.39364" lon="5.80885">
        <ele>1469.5</ele>
        <time>2013-03-03T13:10:38Z</time>
      </trkpt>
      <trkpt lat="45.39373" lon="5.80886">
        <ele>1467.6</ele>
        <time>2013-03-03T13:10:41Z</time>
      </trkpt>
      <trkpt lat="45.39381" lon="5.80888">
        <ele>1464.6</ele>
        <time>2013-03-03T13:10:45Z</time>
      </trkpt>
      <trkpt lat="45.3939" lon="5.80886">
        <ele>1462</ele>
        <time>2013-03-03T13:10:54Z</time>
      </trkpt>
      <trkpt lat="45.39395" lon="5.80876">
        <ele>1462.1</ele>
        <time>2013-03-03T13:11:07Z</time>
      </trkpt>
      <trkpt lat="45.39396" lon="5.80875">
        <ele>1462.2</ele>
        <time>2013-03-03T13:11:08Z</time>
      </trkpt>
      <trkpt lat="45.3941" lon="5.80879">
        <ele>1460.3</ele>
        <time>2013-03-03T13:11:42Z</time>
      </trkpt>
      <trkpt lat="45.39419" lon="5.80876">
        <ele>1459.3</ele>
        <time>2013-03-03T13:11:44Z</time>
      </trkpt>
      <trkpt lat="45.39423" lon="5.80874">
        <ele>1459</ele>
        <time>2013-03-03T13:11:45Z</time>
      </trkpt>
      <trkpt lat="45.39428" lon="5.80873">
        <ele>1458.4</ele>
        <time>2013-03-03T13:11:46Z</time>
      </trkpt>
      <trkpt lat="45.39433" lon="5.80872">
        <ele>1458</ele>
        <time>2013-03-03T13:11:47Z</time>
      </trkpt>
      <trkpt lat="45.39438" lon="5.80871">
        <ele>1457.7</ele>
        <time>2013-03-03T13:11:48Z</time>
      </trkpt>
      <trkpt lat="45.39443" lon="5.80868">
        <ele>1457</ele>
        <time>2013-03-03T13:11:49Z</time>
      </trkpt>
      <trkpt lat="45.39451" lon="5.80863">
        <ele>1455.8</ele>
        <time>2013-03-03T13:11:51Z</time>
      </trkpt>
      <trkpt lat="45.39455" lon="5.8086">
        <ele>1455.3</ele>
        <time>2013-03-03T13:11:52Z</time>
      </trkpt>
      <trkpt lat="45.39463" lon="5.80855">
        <ele>1454.6</ele>
        <time>2013-03-03T13:11:54Z</time>
      </trkpt>
      <trkpt lat="45.3947" lon="5.8085">
        <ele>1453.8</ele>
        <time>2013-03-03T13:11:56Z</time>
      </trkpt>
      <trkpt lat="45.39477" lon="5.80843">
        <ele>1452.6</ele>
        <time>2013-03-03T13:11:59Z</time>
      </trkpt>
      <trkpt lat="45.39484" lon="5.80839">
        <ele>1451.4</ele>
        <time>2013-03-03T13:12:02Z</time>
      </trkpt>
      <trkpt lat="45.39489" lon="5.80833">
        <ele>1451.4</ele>
        <time>2013-03-03T13:12:04Z</time>
      </trkpt>
      <trkpt lat="45.3949" lon="5.80824">
        <ele>1451.1</ele>
        <time>2013-03-03T13:12:06Z</time>
      </trkpt>
      <trkpt lat="45.39491" lon="5.80814">
        <ele>1450.1</ele>
        <time>2013-03-03T13:12:08Z</time>
      </trkpt>
      <trkpt lat="45.39493" lon="5.80808">
        <ele>1449.4</ele>
        <time>2013-03-03T13:12:09Z</time>
      </trkpt>
      <trkpt lat="45.39497" lon="5.80801">
        <ele>1448.2</ele>
        <time>2013-03-03T13:12:10Z</time>
      </trkpt>
      <trkpt lat="45.395" lon="5.80794">
        <ele>1447.3</ele>
        <time>2013-03-03T13:12:11Z</time>
      </trkpt>
      <trkpt lat="45.39502" lon="5.80788">
        <ele>1446.6</ele>
        <time>2013-03-03T13:12:12Z</time>
      </trkpt>
      <trkpt lat="45.39506" lon="5.80777">
        <ele>1444.4</ele>
        <time>2013-03-03T13:12:14Z</time>
      </trkpt>
      <trkpt lat="45.39508" lon="5.80771">
        <ele>1443.4</ele>
        <time>2013-03-03T13:12:15Z</time>
      </trkpt>
      <trkpt lat="45.3951" lon="5.80764">
        <ele>1442.7</ele>
        <time>2013-03-03T13:12:16Z</time>
      </trkpt>
      <trkpt lat="45.39514" lon="5.80757">
        <ele>1441.7</ele>
        <time>2013-03-03T13:12:17Z</time>
      </trkpt>
      <trkpt lat="45.39515" lon="5.8075">
        <ele>1440.9</ele>
        <time>2013-03-03T13:12:18Z</time>
      </trkpt>
      <trkpt lat="45.39519" lon="5.80739">
        <ele>1437.5</ele>
        <time>2013-03-03T13:12:22Z</time>
      </trkpt>
      <trkpt lat="45.39525" lon="5.8073">
        <ele>1433.4</ele>
        <time>2013-03-03T13:12:28Z</time>
      </trkpt>
      <trkpt lat="45.39524" lon="5.80718">
        <ele>1432.3</ele>
        <time>2013-03-03T13:12:47Z</time>
      </trkpt>
      <trkpt lat="45.3952" lon="5.8071">
        <ele>1431.2</ele>
        <time>2013-03-03T13:12:49Z</time>
      </trkpt>
      <trkpt lat="45.39515" lon="5.80703">
        <ele>1430</ele>
        <time>2013-03-03T13:12:51Z</time>
      </trkpt>
      <trkpt lat="45.39512" lon="5.80696">
        <ele>1428.5</ele>
        <time>2013-03-03T13:12:53Z</time>
      </trkpt>
      <trkpt lat="45.39508" lon="5.80689">
        <ele>1426.6</ele>
        <time>2013-03-03T13:12:55Z</time>
      </trkpt>
      <trkpt lat="45.39504" lon="5.8068">
        <ele>1423.9</ele>
        <time>2013-03-03T13:12:58Z</time>
      </trkpt>
      <trkpt lat="45.39499" lon="5.80671">
        <ele>1419.9</ele>
        <time>2013-03-03T13:13:02Z</time>
      </trkpt>
      <trkpt lat="45.39495" lon="5.80664">
        <ele>1418.2</ele>
        <time>2013-03-03T13:13:04Z</time>
      </trkpt>
      <trkpt lat="45.39488" lon="5.80658">
        <ele>1414.4</ele>
        <time>2013-03-03T13:13:09Z</time>
      </trkpt>
      <trkpt lat="45.39485" lon="5.80655">
        <ele>1413.5</ele>
        <time>2013-03-03T13:13:10Z</time>
      </trkpt>
      <trkpt lat="45.39474" lon="5.80646">
        <ele>1410.1</ele>
        <time>2013-03-03T13:13:14Z</time>
      </trkpt>
      <trkpt lat="45.39467" lon="5.80639">
        <ele>1405.8</ele>
        <time>2013-03-03T13:13:26Z</time>
      </trkpt>
      <trkpt lat="45.39461" lon="5.80631">
        <ele>1404.8</ele>
        <time>2013-03-03T13:13:39Z</time>
      </trkpt>
      <trkpt lat="45.39463" lon="5.80621">
        <ele>1402</ele>
        <time>2013-03-03T13:13:46Z</time>
      </trkpt>
      <trkpt lat="45.39459" lon="5.80612">
        <ele>1396.7</ele>
        <time>2013-03-03T13:13:55Z</time>
      </trkpt>
      <trkpt lat="45.39456" lon="5.80602">
        <ele>1392.3</ele>
        <time>2013-03-03T13:13:59Z</time>
      </trkpt>
      <trkpt lat="45.39452" lon="5.80593">
        <ele>1391</ele>
        <time>2013-03-03T13:14:01Z</time>
      </trkpt>
      <trkpt lat="45.39447" lon="5.80586">
        <ele>1386.5</ele>
        <time>2013-03-03T13:14:03Z</time>
      </trkpt>
      <trkpt lat="45.39442" lon="5.80579">
        <ele>1385.8</ele>
        <time>2013-03-03T13:14:07Z</time>
      </trkpt>
      <trkpt lat="45.39437" lon="5.80571">
        <ele>1383.2</ele>
        <time>2013-03-03T13:14:11Z</time>
      </trkpt>
      <trkpt lat="45.39436" lon="5.80569">
        <ele>1382.4</ele>
        <time>2013-03-03T13:14:12Z</time>
      </trkpt>
      <trkpt lat="45.39432" lon="5.80551">
        <ele>1380</ele>
        <time>2013-03-03T13:14:16Z</time>
      </trkpt>
      <trkpt lat="45.39427" lon="5.80542">
        <ele>1378.3</ele>
        <time>2013-03-03T13:14:18Z</time>
      </trkpt>
      <trkpt lat="45.39421" lon="5.80533">
        <ele>1378</ele>
        <time>2013-03-03T13:14:23Z</time>
      </trkpt>
      <trkpt lat="45.39417" lon="5.80525">
        <ele>1373.8</ele>
        <time>2013-03-03T13:14:31Z</time>
      </trkpt>
      <trkpt lat="45.39414" lon="5.80514">
        <ele>1372.3</ele>
        <time>2013-03-03T13:14:34Z</time>
      </trkpt>
      <trkpt lat="45.39409" lon="5.80504">
        <ele>1371.2</ele>
        <time>2013-03-03T13:14:36Z</time>
      </trkpt>
      <trkpt lat="45.39405" lon="5.80495">
        <ele>1370.3</ele>
        <time>2013-03-03T13:14:38Z</time>
      </trkpt>
      <trkpt lat="45.39401" lon="5.80484">
        <ele>1368.3</ele>
        <time>2013-03-03T13:14:41Z</time>
      </trkpt>
      <trkpt lat="45.39398" lon="5.80475">
        <ele>1366.2</ele>
        <time>2013-03-03T13:14:44Z</time>
      </trkpt>
      <trkpt lat="45.39397" lon="5.80467">
        <ele>1365.8</ele>
        <time>2013-03-03T13:14:46Z</time>
      </trkpt>
      <trkpt lat="45.39391" lon="5.80457">
        <ele>1363.1</ele>
        <time>2013-03-03T13:14:50Z</time>
      </trkpt>
      <trkpt lat="45.39387" lon="5.80446">
        <ele>1361</ele>
        <time>2013-03-03T13:15:01Z</time>
      </trkpt>
      <trkpt lat="45.39382" lon="5.80436">
        <ele>1362.9</ele>
        <time>2013-03-03T13:15:22Z</time>
      </trkpt>
      <trkpt lat="45.39381" lon="5.80436">
        <ele>1362.7</ele>
        <time>2013-03-03T13:15:23Z</time>
      </trkpt>
      <trkpt lat="45.39369" lon="5.80437">
        <ele>1361</ele>
        <time>2013-03-03T13:16:03Z</time>
      </trkpt>
      <trkpt lat="45.39366" lon="5.80426">
        <ele>1360.6</ele>
        <time>2013-03-03T13:16:33Z</time>
      </trkpt>
      <trkpt lat="45.39366" lon="5.80424">
        <ele>1360.5</ele>
        <time>2013-03-03T13:16:34Z</time>
      </trkpt>
      <trkpt lat="45.39365" lon="5.80405">
        <ele>1359.4</ele>
        <time>2013-03-03T13:16:39Z</time>
      </trkpt>
      <trkpt lat="45.39363" lon="5.80396">
        <ele>1358.9</ele>
        <time>2013-03-03T13:16:41Z</time>
      </trkpt>
      <trkpt lat="45.39363" lon="5.80384">
        <ele>1357.1</ele>
        <time>2013-03-03T13:16:44Z</time>
      </trkpt>
      <trkpt lat="45.39361" lon="5.80374">
        <ele>1356</ele>
        <time>2013-03-03T13:16:47Z</time>
      </trkpt>
      <trkpt lat="45.39361" lon="5.80365">
        <ele>1354.6</ele>
        <time>2013-03-03T13:16:49Z</time>
      </trkpt>
      <trkpt lat="45.39362" lon="5.80355">
        <ele>1351.7</ele>
        <time>2013-03-03T13:16:51Z</time>
      </trkpt>
      <trkpt lat="45.39367" lon="5.80346">
        <ele>1348.5</ele>
        <time>2013-03-03T13:16:54Z</time>
      </trkpt>
      <trkpt lat="45.39374" lon="5.80347">
        <ele>1345.3</ele>
        <time>2013-03-03T13:16:56Z</time>
      </trkpt>
      <trkpt lat="45.39379" lon="5.80348">
        <ele>1343.6</ele>
        <time>2013-03-03T13:16:57Z</time>
      </trkpt>
      <trkpt lat="45.39387" lon="5.80349">
        <ele>1341.4</ele>
        <time>2013-03-03T13:16:59Z</time>
      </trkpt>
      <trkpt lat="45.39395" lon="5.8035">
        <ele>1338.3</ele>
        <time>2013-03-03T13:17:01Z</time>
      </trkpt>
      <trkpt lat="45.39401" lon="5.80345">
        <ele>1329.3</ele>
        <time>2013-03-03T13:18:18Z</time>
      </trkpt>
      <trkpt lat="45.39404" lon="5.80344">
        <ele>1328.7</ele>
        <time>2013-03-03T13:18:19Z</time>
      </trkpt>
      <trkpt lat="45.39413" lon="5.80343">
        <ele>1329.8</ele>
        <time>2013-03-03T13:18:21Z</time>
      </trkpt>
      <trkpt lat="45.39418" lon="5.80345">
        <ele>1330.1</ele>
        <time>2013-03-03T13:18:22Z</time>
      </trkpt>
      <trkpt lat="45.39426" lon="5.80345">
        <ele>1326.3</ele>
        <time>2013-03-03T13:18:24Z</time>
      </trkpt>
      <trkpt lat="45.39431" lon="5.80344">
        <ele>1324.2</ele>
        <time>2013-03-03T13:18:25Z</time>
      </trkpt>
      <trkpt lat="45.39438" lon="5.80347">
        <ele>1321.6</ele>
        <time>2013-03-03T13:18:27Z</time>
      </trkpt>
      <trkpt lat="45.39442" lon="5.80356">
        <ele>1317.5</ele>
        <time>2013-03-03T13:18:30Z</time>
      </trkpt>
      <trkpt lat="45.39449" lon="5.80358">
        <ele>1315.1</ele>
        <time>2013-03-03T13:18:32Z</time>
      </trkpt>
      <trkpt lat="45.39456" lon="5.80354">
        <ele>1313.4</ele>
        <time>2013-03-03T13:18:34Z</time>
      </trkpt>
      <trkpt lat="45.39463" lon="5.80351">
        <ele>1311.3</ele>
        <time>2013-03-03T13:18:36Z</time>
      </trkpt>
      <trkpt lat="45.3947" lon="5.80349">
        <ele>1309.2</ele>
        <time>2013-03-03T13:18:38Z</time>
      </trkpt>
      <trkpt lat="45.39477" lon="5.80348">
        <ele>1306.1</ele>
        <time>2013-03-03T13:18:40Z</time>
      </trkpt>
      <trkpt lat="45.39485" lon="5.80348">
        <ele>1303.4</ele>
        <time>2013-03-03T13:18:42Z</time>
      </trkpt>
      <trkpt lat="45.3949" lon="5.80351">
        <ele>1302.1</ele>
        <time>2013-03-03T13:18:43Z</time>
      </trkpt>
      <trkpt lat="45.39499" lon="5.80353">
        <ele>1298.8</ele>
        <time>2013-03-03T13:18:45Z</time>
      </trkpt>
      <trkpt lat="45.39504" lon="5.80355">
        <ele>1297.7</ele>
        <time>2013-03-03T13:18:46Z</time>
      </trkpt>
      <trkpt lat="45.39512" lon="5.80355">
        <ele>1294.7</ele>
        <time>2013-03-03T13:18:48Z</time>
      </trkpt>
      <trkpt lat="45.39519" lon="5.80351">
        <ele>1291.3</ele>
        <time>2013-03-03T13:18:50Z</time>
      </trkpt>
      <trkpt lat="45.39523" lon="5.80347">
        <ele>1288.3</ele>
        <time>2013-03-03T13:18:52Z</time>
      </trkpt>
      <trkpt lat="45.39531" lon="5.80345">
        <ele>1285.8</ele>
        <time>2013-03-03T13:18:54Z</time>
      </trkpt>
      <trkpt lat="45.3954" lon="5.80347">
        <ele>1283</ele>
        <time>2013-03-03T13:18:56Z</time>
      </trkpt>
      <trkpt lat="45.39544" lon="5.80346">
        <ele>1281.8</ele>
        <time>2013-03-03T13:18:57Z</time>
      </trkpt>
      <trkpt lat="45.3955" lon="5.80345">
        <ele>1280</ele>
        <time>2013-03-03T13:18:58Z</time>
      </trkpt>
      <trkpt lat="45.39556" lon="5.80336">
        <ele>1277.6</ele>
        <time>2013-03-03T13:19:00Z</time>
      </trkpt>
      <trkpt lat="45.39563" lon="5.80329">
        <ele>1275.5</ele>
        <time>2013-03-03T13:19:02Z</time>
      </trkpt>
      <trkpt lat="45.39571" lon="5.80325">
        <ele>1270</ele>
        <time>2013-03-03T13:19:08Z</time>
      </trkpt>
      <trkpt lat="45.39579" lon="5.80323">
        <ele>1268.9</ele>
        <time>2013-03-03T13:19:13Z</time>
      </trkpt>
      <trkpt lat="45.39587" lon="5.80325">
        <ele>1268.9</ele>
        <time>2013-03-03T13:19:19Z</time>
      </trkpt>
      <trkpt lat="45.39588" lon="5.80326">
        <ele>1268.9</ele>
        <time>2013-03-03T13:19:20Z</time>
      </trkpt>
      <trkpt lat="45.39603" lon="5.80324">
        <ele>1267.7</ele>
        <time>2013-03-03T13:19:40Z</time>
      </trkpt>
      <trkpt lat="45.39611" lon="5.80321">
        <ele>1267.1</ele>
        <time>2013-03-03T13:19:42Z</time>
      </trkpt>
      <trkpt lat="45.39616" lon="5.80318">
        <ele>1266.9</ele>
        <time>2013-03-03T13:19:43Z</time>
      </trkpt>
      <trkpt lat="45.39621" lon="5.80316">
        <ele>1265.7</ele>
        <time>2013-03-03T13:19:44Z</time>
      </trkpt>
      <trkpt lat="45.39626" lon="5.80317">
        <ele>1264.8</ele>
        <time>2013-03-03T13:19:45Z</time>
      </trkpt>
      <trkpt lat="45.39631" lon="5.80316">
        <ele>1263.2</ele>
        <time>2013-03-03T13:19:46Z</time>
      </trkpt>
      <trkpt lat="45.39636" lon="5.80316">
        <ele>1262.1</ele>
        <time>2013-03-03T13:19:47Z</time>
      </trkpt>
      <trkpt lat="45.39642" lon="5.80318">
        <ele>1260.8</ele>
        <time>2013-03-03T13:19:48Z</time>
      </trkpt>
      <trkpt lat="45.39647" lon="5.8032">
        <ele>1259.8</ele>
        <time>2013-03-03T13:19:49Z</time>
      </trkpt>
      <trkpt lat="45.39653" lon="5.80321">
        <ele>1259.1</ele>
        <time>2013-03-03T13:19:50Z</time>
      </trkpt>
      <trkpt lat="45.39657" lon="5.80321">
        <ele>1257.9</ele>
        <time>2013-03-03T13:19:51Z</time>
      </trkpt>
      <trkpt lat="45.39662" lon="5.80319">
        <ele>1257.1</ele>
        <time>2013-03-03T13:19:52Z</time>
      </trkpt>
      <trkpt lat="45.39667" lon="5.80316">
        <ele>1255.7</ele>
        <time>2013-03-03T13:19:53Z</time>
      </trkpt>
      <trkpt lat="45.39672" lon="5.80313">
        <ele>1254.7</ele>
        <time>2013-03-03T13:19:54Z</time>
      </trkpt>
      <trkpt lat="45.39676" lon="5.80311">
        <ele>1253.2</ele>
        <time>2013-03-03T13:19:55Z</time>
      </trkpt>
      <trkpt lat="45.39681" lon="5.8031">
        <ele>1252.1</ele>
        <time>2013-03-03T13:19:56Z</time>
      </trkpt>
      <trkpt lat="45.39688" lon="5.80309">
        <ele>1251.3</ele>
        <time>2013-03-03T13:19:57Z</time>
      </trkpt>
      <trkpt lat="45.39694" lon="5.80308">
        <ele>1250.3</ele>
        <time>2013-03-03T13:19:58Z</time>
      </trkpt>
      <trkpt lat="45.397" lon="5.80307">
        <ele>1249.6</ele>
        <time>2013-03-03T13:19:59Z</time>
      </trkpt>
      <trkpt lat="45.39706" lon="5.80305">
        <ele>1248.5</ele>
        <time>2013-03-03T13:20:00Z</time>
      </trkpt>
      <trkpt lat="45.3971" lon="5.80303">
        <ele>1247.7</ele>
        <time>2013-03-03T13:20:01Z</time>
      </trkpt>
      <trkpt lat="45.39715" lon="5.80301">
        <ele>1247</ele>
        <time>2013-03-03T13:20:02Z</time>
      </trkpt>
      <trkpt lat="45.39723" lon="5.80298">
        <ele>1246</ele>
        <time>2013-03-03T13:20:04Z</time>
      </trkpt>
      <trkpt lat="45.39727" lon="5.80297">
        <ele>1245.5</ele>
        <time>2013-03-03T13:20:05Z</time>
      </trkpt>
      <trkpt lat="45.39732" lon="5.80295">
        <ele>1245.1</ele>
        <time>2013-03-03T13:20:06Z</time>
      </trkpt>
      <trkpt lat="45.3974" lon="5.80292">
        <ele>1244.2</ele>
        <time>2013-03-03T13:20:08Z</time>
      </trkpt>
      <trkpt lat="45.39744" lon="5.80289">
        <ele>1244</ele>
        <time>2013-03-03T13:20:09Z</time>
      </trkpt>
      <trkpt lat="45.39752" lon="5.80284">
        <ele>1243.2</ele>
        <time>2013-03-03T13:20:11Z</time>
      </trkpt>
      <trkpt lat="45.39758" lon="5.80283">
        <ele>1241.9</ele>
        <time>2013-03-03T13:20:13Z</time>
      </trkpt>
      <trkpt lat="45.39765" lon="5.80277">
        <ele>1240.7</ele>
        <time>2013-03-03T13:20:15Z</time>
      </trkpt>
      <trkpt lat="45.39773" lon="5.80273">
        <ele>1238</ele>
        <time>2013-03-03T13:20:21Z</time>
      </trkpt>
      <trkpt lat="45.39773" lon="5.80272">
        <ele>1237.8</ele>
        <time>2013-03-03T13:20:22Z</time>
      </trkpt>
    </trkseg>
  </trk>
</gpx>